Darstellungsparameter: Aktuell verwendete Einstellungen:
Skalierung der Graphiken ... ?
xyx+y,   Skalierungsfaktor:      Skalierung: Modus: x, Faktor: 1
Darstellungszeitraum ... ?
Vom - - bis: - -   Zeitraum: 18.02.2020 - 17.03.2020
Min/Max/Avg-Anzeige ... ?
Zeige MMA aktuell
Zeige MMA Monat
Zeige MMA alles
Zeige --A aktuell
Zeige --A Monat
Zeige --A alles
Keine MMA-Anzeige
MMA:
Average (ber die Originaldaten)
MMA-Basis: 18.02.2020 - 17.03.2020
Quicknavigation für Darstellung... ?
Tage:      1T, 2T, 3T, 5T -1T -2T -3T -5T +1T +2T +3T +5T
Wochen: 1W, 2W, 3W -1W -2W -3W +1W +2W +3W
Monate: 1M, 3M, 6M -1M -3M -6M +1M +3M +6M
Jahre:    1J, 3J, 5J, 10J -1J -3J -5J -10J +1J +3J +5J +10J
Nutze für die Darstellung ... ?
Originaldaten oder Mittelwerte auf ...
Stundenbasis Tagesbasis Wochenbasis
Monatsbasis Jahresbasis      Datenbasis: Original-Daten
Darstellen als:
Statistik (Auto) Statistik J:M      Darstellung:
Zur Graphik,    zurück zur Übersicht aller Sensoren.
 
Tabellarische Datenbersicht: ?
 
Sensor: Nr:Datum:Temp:Feuchte:
Aussen-T/F 1 18-02-2020 00:07:18 7.8 C 32 %
2 18-02-2020 00:17:17 7.8 C 32 %
3 18-02-2020 00:27:17 7.9 C 32 %
4 18-02-2020 00:37:18 7.8 C 31 %
5 18-02-2020 00:47:18 7.9 C 31 %
6 18-02-2020 00:57:18 7.8 C 31 %
7 18-02-2020 01:07:18 7.8 C 31 %
8 18-02-2020 01:17:17 7.8 C 31 %
9 18-02-2020 01:27:17 7.7 C 31 %
10 18-02-2020 01:37:17 7.7 C 32 %
11 18-02-2020 01:47:17 7.5 C 32 %
12 18-02-2020 01:57:17 7.5 C 32 %
13 18-02-2020 02:07:18 7.4 C 32 %
14 18-02-2020 02:17:17 7.2 C 32 %
15 18-02-2020 02:27:17 7 C 32 %
16 18-02-2020 02:37:17 7 C 32 %
17 18-02-2020 02:47:18 6.8 C 33 %
18 18-02-2020 02:57:18 7.1 C 32 %
19 18-02-2020 03:07:18 7.1 C 32 %
20 18-02-2020 03:17:17 7.3 C 32 %
21 18-02-2020 03:27:17 7.3 C 31 %
22 18-02-2020 03:37:17 7.1 C 32 %
23 18-02-2020 03:47:17 6.6 C 33 %
24 18-02-2020 03:57:17 6.6 C 33 %
25 18-02-2020 04:07:17 6.4 C 33 %
Sensor: Nr:Datum:Temp:Feuchte:
Aussen-T/F 26 18-02-2020 04:17:17 6.2 C 33 %
27 18-02-2020 04:27:17 6.2 C 33 %
28 18-02-2020 04:37:18 5.9 C 34 %
29 18-02-2020 04:47:17 6.3 C 33 %
30 18-02-2020 04:57:18 6 C 33 %
31 18-02-2020 05:07:18 5.9 C 33 %
32 18-02-2020 05:17:17 5.8 C 33 %
33 18-02-2020 05:27:17 6 C 33 %
34 18-02-2020 05:37:17 5.7 C 33 %
35 18-02-2020 05:47:18 5.7 C 33 %
36 18-02-2020 05:57:18 5.8 C 34 %
37 18-02-2020 06:07:18 5.6 C 34 %
38 18-02-2020 06:17:17 5.6 C 34 %
39 18-02-2020 06:27:17 5.7 C 34 %
40 18-02-2020 06:37:18 5.6 C 34 %
41 18-02-2020 06:47:17 5.6 C 34 %
42 18-02-2020 06:57:17 5.4 C 34 %
43 18-02-2020 07:07:18 5.2 C 34 %
44 18-02-2020 07:17:18 5.4 C 34 %
45 18-02-2020 07:27:18 5.3 C 35 %
46 18-02-2020 07:37:17 5.1 C 35 %
47 18-02-2020 07:47:17 5 C 35 %
48 18-02-2020 07:57:17 5.3 C 35 %
49 18-02-2020 08:07:17 4.8 C 35 %
50 18-02-2020 08:17:17 5.4 C 34 %
Sensor: Nr:Datum:Temp:Feuchte:
Aussen-T/F 51 18-02-2020 08:27:17 5.1 C 35 %
52 18-02-2020 08:37:18 5.1 C 35 %
53 18-02-2020 08:47:18 5.3 C 35 %
54 18-02-2020 08:57:18 5.3 C 35 %
55 18-02-2020 09:07:18 5.4 C 35 %
56 18-02-2020 09:17:18 5.6 C 35 %
57 18-02-2020 09:27:18 5.6 C 34 %
58 18-02-2020 09:37:17 5.8 C 34 %
59 18-02-2020 09:47:17 6 C 33 %
60 18-02-2020 09:57:17 6.2 C 32 %
61 18-02-2020 10:07:17 6.1 C 32 %
62 18-02-2020 10:17:18 6.1 C 32 %
63 18-02-2020 10:27:18 6.3 C 32 %
64 18-02-2020 10:37:17 6.7 C 32 %
65 18-02-2020 10:47:18 6.9 C 31 %
66 18-02-2020 10:57:18 7 C 30 %
67 18-02-2020 11:07:17 7.4 C 30 %
68 18-02-2020 11:17:17 8.1 C 30 %
69 18-02-2020 11:27:17 8.2 C 29 %
70 18-02-2020 11:37:17 7.6 C 29 %
71 18-02-2020 11:47:17 7.7 C 29 %
72 18-02-2020 11:57:17 7.5 C 29 %
73 18-02-2020 12:07:17 7.8 C 29 %
74 18-02-2020 12:17:18 8.1 C 29 %
75 18-02-2020 12:27:18 8 C 28 %
Sensor: Nr:Datum:Temp:Feuchte:
Aussen-T/F 76 18-02-2020 12:37:17 7.9 C 28 %
77 18-02-2020 12:47:17 8.5 C 28 %
78 18-02-2020 12:57:17 9.7 C 25 %
79 18-02-2020 13:07:17 10 C 20 %
80 18-02-2020 13:17:17 8.5 C 25 %
81 18-02-2020 13:27:17 7.8 C 26 %
82 18-02-2020 13:37:18 8.6 C 26 %
83 18-02-2020 13:47:17 9.2 C 25 %
84 18-02-2020 13:57:17 8.2 C 26 %
85 18-02-2020 14:07:18 8.4 C 26 %
86 18-02-2020 14:17:17 8.1 C 26 %
87 18-02-2020 14:27:17 8.1 C 26 %
88 18-02-2020 14:37:17 8 C 26 %
89 18-02-2020 14:47:17 8.1 C 26 %
90 18-02-2020 14:57:17 9 C 25 %
91 18-02-2020 15:07:17 8.5 C 25 %
92 18-02-2020 15:17:17 8.8 C 26 %
93 18-02-2020 15:27:17 8.5 C 25 %
94 18-02-2020 15:37:18 8.4 C 25 %
95 18-02-2020 15:47:18 8.3 C 26 %
96 18-02-2020 15:57:18 8.9 C 25 %
97 18-02-2020 16:07:18 8.4 C 25 %
98 18-02-2020 16:17:18 8.2 C 26 %
99 18-02-2020 16:27:18 8.1 C 26 %
100 18-02-2020 16:37:17 8.1 C 26 %
Sensor: Nr:Datum:Temp:Feuchte:
Aussen-T/F 101 18-02-2020 16:47:17 7.9 C 26 %
102 18-02-2020 16:57:17 7.8 C 26 %
103 18-02-2020 17:07:17 7.8 C 27 %
104 18-02-2020 17:17:18 7.9 C 26 %
105 18-02-2020 17:27:18 7.9 C 26 %
106 18-02-2020 17:37:18 7.7 C 27 %
107 18-02-2020 17:47:17 7.6 C 27 %
108 18-02-2020 17:57:18 7.6 C 27 %
109 18-02-2020 18:07:18 7.4 C 29 %
110 18-02-2020 18:17:18 7 C 29 %
111 18-02-2020 18:27:18 7 C 30 %
112 18-02-2020 18:37:17 6.4 C 31 %
113 18-02-2020 18:47:18 6.6 C 31 %
114 18-02-2020 18:57:18 6.1 C 32 %
115 18-02-2020 19:07:18 5.8 C 33 %
116 18-02-2020 19:17:17 5.3 C 34 %
117 18-02-2020 19:27:17 5.5 C 35 %
118 18-02-2020 19:37:17 5.5 C 35 %
119 18-02-2020 19:47:17 5.9 C 34 %
120 18-02-2020 19:57:17 5.7 C 34 %
121 18-02-2020 20:07:18 5.5 C 34 %
122 18-02-2020 20:17:18 5.7 C 35 %
123 18-02-2020 20:27:18 6.4 C 33 %
124 18-02-2020 20:37:17 6.7 C 32 %
125 18-02-2020 20:47:17 6.5 C 32 %
Sensor: Nr:Datum:Temp:Feuchte:
Aussen-T/F 126 18-02-2020 20:57:17 6 C 33 %
127 18-02-2020 21:07:17 6.3 C 33 %
128 18-02-2020 21:17:17 6.3 C 33 %
129 18-02-2020 21:27:17 6.5 C 32 %
130 18-02-2020 21:37:17 6.3 C 33 %
131 18-02-2020 21:47:17 6.2 C 33 %
132 18-02-2020 21:57:17 6.5 C 33 %
133 18-02-2020 22:07:17 6.9 C 32 %
134 18-02-2020 22:17:17 6.9 C 33 %
135 18-02-2020 22:27:17 7 C 32 %
136 18-02-2020 22:37:17 6.9 C 33 %
137 18-02-2020 22:47:17 6.8 C 33 %
138 18-02-2020 22:57:17 6.8 C 33 %
139 18-02-2020 23:07:18 6.7 C 33 %
140 18-02-2020 23:17:17 6.5 C 33 %
141 18-02-2020 23:27:17 6.2 C 34 %
142 18-02-2020 23:37:18 6.1 C 34 %
143 18-02-2020 23:47:17 6.4 C 34 %
144 18-02-2020 23:57:17 6.2 C 34 %
145 19-02-2020 00:07:18 6.8 C 33 %
146 19-02-2020 00:17:17 6.8 C 33 %
147 19-02-2020 00:27:17 6.7 C 32 %
148 19-02-2020 00:37:17 6.9 C 32 %
149 19-02-2020 00:47:17 7 C 31 %
150 19-02-2020 00:57:17 6.8 C 32 %
Sensor: Nr:Datum:Temp:Feuchte:
Aussen-T/F 151 19-02-2020 01:07:17 7 C 32 %
152 19-02-2020 01:17:17 7 C 31 %
153 19-02-2020 01:27:17 6.8 C 32 %
154 19-02-2020 01:37:17 7 C 31 %
155 19-02-2020 01:47:17 6.8 C 32 %
156 19-02-2020 01:57:17 7 C 31 %
157 19-02-2020 02:07:18 6.9 C 32 %
158 19-02-2020 02:17:17 7.2 C 31 %
159 19-02-2020 02:27:17 7 C 31 %
160 19-02-2020 02:37:17 6.8 C 32 %
161 19-02-2020 02:47:18 6.8 C 32 %
162 19-02-2020 02:57:18 6.9 C 32 %
163 19-02-2020 03:07:17 6.9 C 32 %
164 19-02-2020 03:17:17 6.7 C 33 %
165 19-02-2020 03:27:17 6.6 C 33 %
166 19-02-2020 03:37:17 6.4 C 34 %
167 19-02-2020 03:47:17 6.2 C 35 %
168 19-02-2020 03:57:17 5.9 C 36 %
169 19-02-2020 04:07:18 6 C 36 %
170 19-02-2020 04:17:17 6 C 36 %
171 19-02-2020 04:27:18 5.9 C 37 %
172 19-02-2020 04:37:18 5.8 C 37 %
173 19-02-2020 04:47:17 5.9 C 37 %
174 19-02-2020 04:57:17 6.2 C 36 %
175 19-02-2020 05:07:18 6.3 C 36 %
Sensor: Nr:Datum:Temp:Feuchte:
Aussen-T/F 176 19-02-2020 05:17:17 6.4 C 35 %
177 19-02-2020 05:27:17 6.4 C 35 %
178 19-02-2020 05:37:17 6.3 C 35 %
179 19-02-2020 05:47:17 6.3 C 34 %
180 19-02-2020 05:57:17 6 C 34 %
181 19-02-2020 06:07:18 6 C 34 %
182 19-02-2020 06:17:17 5.9 C 35 %
183 19-02-2020 06:27:17 5.9 C 35 %
184 19-02-2020 06:37:18 5.8 C 35 %
185 19-02-2020 06:47:17 5.7 C 35 %
186 19-02-2020 06:57:17 5.4 C 35 %
187 19-02-2020 07:07:17 5.4 C 34 %
188 19-02-2020 07:17:17 5.6 C 34 %
189 19-02-2020 07:27:18 5.6 C 34 %
190 19-02-2020 07:37:18 5.3 C 35 %
191 19-02-2020 07:47:18 5.4 C 34 %
192 19-02-2020 07:57:18 5.3 C 34 %
193 19-02-2020 08:07:18 5.2 C 33 %
194 19-02-2020 08:17:17 5.3 C 34 %
195 19-02-2020 08:27:17 4.9 C 35 %
196 19-02-2020 08:37:17 4.9 C 34 %
197 19-02-2020 08:47:17 4.8 C 34 %
198 19-02-2020 08:57:17 5 C 33 %
199 19-02-2020 09:07:17 5.1 C 33 %
200 19-02-2020 09:17:18 4.9 C 34 %
Sensor: Nr:Datum:Temp:Feuchte:
Aussen-T/F 201 19-02-2020 09:27:18 5.1 C 33 %
202 19-02-2020 09:37:18 5.3 C 32 %
203 19-02-2020 09:47:17 5.3 C 32 %
204 19-02-2020 09:57:17 5.1 C 33 %
205 19-02-2020 10:07:18 4.2 C 35 %
206 19-02-2020 10:17:17 4.7 C 34 %
207 19-02-2020 10:27:17 5.2 C 33 %
208 19-02-2020 10:37:17 5.7 C 32 %
209 19-02-2020 10:47:17 5.8 C 31 %
210 19-02-2020 10:57:17 5.9 C 31 %
211 19-02-2020 11:07:18 6.4 C 31 %
212 19-02-2020 11:17:17 6.9 C 30 %
213 19-02-2020 11:27:17 6.7 C 30 %
214 19-02-2020 11:37:17 6.4 C 28 %
215 19-02-2020 11:47:18 6.5 C 27 %
216 19-02-2020 11:57:18 6.6 C 27 %
217 19-02-2020 12:07:18 6.7 C 27 %
218 19-02-2020 12:17:17 6.6 C 26 %
219 19-02-2020 12:27:18 6.8 C 26 %
220 19-02-2020 12:37:18 6.8 C 25 %
221 19-02-2020 12:47:18 6.9 C 25 %
222 19-02-2020 12:57:18 7 C 25 %
223 19-02-2020 13:07:17 7.2 C 25 %
224 19-02-2020 13:17:17 7.1 C 20 %
225 19-02-2020 13:27:17 7.1 C 20 %
Sensor: Nr:Datum:Temp:Feuchte:
Aussen-T/F 226 19-02-2020 13:37:18 7.3 C 20 %
227 19-02-2020 13:47:18 7.8 C 20 %
228 19-02-2020 13:57:18 7.7 C 20 %
229 19-02-2020 14:07:17 7.7 C 20 %
230 19-02-2020 14:17:17 7.7 C 20 %
231 19-02-2020 14:27:17 7.4 C 20 %
232 19-02-2020 14:37:17 7.1 C 20 %
233 19-02-2020 14:47:18 7.2 C 20 %
234 19-02-2020 14:57:18 7.2 C 20 %
235 19-02-2020 15:07:17 8.1 C 20 %
236 19-02-2020 15:17:17 8.2 C 20 %
237 19-02-2020 15:27:17 8.3 C 20 %
238 19-02-2020 15:37:17 7.5 C 20 %
239 19-02-2020 15:47:17 7.6 C 20 %
240 19-02-2020 15:57:17 8.5 C 20 %
241 19-02-2020 16:07:17 8 C 20 %
242 19-02-2020 16:17:17 8.2 C 20 %
243 19-02-2020 16:27:17 7.9 C 20 %
244 19-02-2020 16:37:18 7.5 C 20 %
245 19-02-2020 16:47:18 7.4 C 20 %
246 19-02-2020 16:57:18 7.2 C 20 %
247 19-02-2020 17:07:18 7.1 C 20 %
248 19-02-2020 17:17:18 6.9 C 20 %
249 19-02-2020 17:27:18 6.5 C 20 %
250 19-02-2020 17:37:17 6.2 C 20 %
Sensor: Nr:Datum:Temp:Feuchte:
Aussen-T/F 251 19-02-2020 17:47:18 5.6 C 20 %
252 19-02-2020 17:57:18 5 C 23 %
253 19-02-2020 18:07:17 4.5 C 28 %
254 19-02-2020 18:17:17 4.5 C 28 %
255 19-02-2020 18:27:17 4.2 C 30 %
256 19-02-2020 18:37:17 3.7 C 32 %
257 19-02-2020 18:47:17 3.3 C 32 %
258 19-02-2020 18:57:17 2.9 C 34 %
259 19-02-2020 19:07:17 2.8 C 35 %
260 19-02-2020 19:17:17 2.4 C 35 %
261 19-02-2020 19:27:17 2.3 C 35 %
262 19-02-2020 19:37:17 2 C 35 %
263 19-02-2020 19:47:17 1.7 C 37 %
264 19-02-2020 19:57:17 2 C 36 %
265 19-02-2020 20:07:17 1.7 C 37 %
266 19-02-2020 20:17:17 1.8 C 37 %
267 19-02-2020 20:27:17 2.1 C 35 %
268 19-02-2020 20:37:17 2 C 35 %
269 19-02-2020 20:47:17 2.2 C 35 %
270 19-02-2020 20:57:17 2.8 C 35 %
271 19-02-2020 21:07:18 3.4 C 33 %
272 19-02-2020 21:17:17 3.4 C 33 %
273 19-02-2020 21:27:17 3 C 33 %
274 19-02-2020 21:37:17 4 C 31 %
275 19-02-2020 21:47:17 4.1 C 31 %
Sensor: Nr:Datum:Temp:Feuchte:
Aussen-T/F 276 19-02-2020 21:57:17 4.5 C 31 %
277 19-02-2020 22:07:17 4.9 C 31 %
278 19-02-2020 22:17:18 5.5 C 30 %
279 19-02-2020 22:27:18 5.5 C 30 %
280 19-02-2020 22:37:18 5.5 C 30 %
281 19-02-2020 22:47:17 5.2 C 30 %
282 19-02-2020 22:57:18 5.1 C 31 %
283 19-02-2020 23:07:18 4.6 C 33 %
284 19-02-2020 23:17:17 4.5 C 35 %
285 19-02-2020 23:27:17 4.2 C 37 %
286 19-02-2020 23:37:17 4.3 C 37 %
287 19-02-2020 23:47:17 4.6 C 36 %
288 19-02-2020 23:57:17 4.6 C 36 %
289 20-02-2020 00:07:17 4.9 C 36 %
290 20-02-2020 00:17:17 4.9 C 36 %
291 20-02-2020 00:27:18 5.2 C 35 %
292 20-02-2020 00:37:18 5.4 C 35 %
293 20-02-2020 00:47:17 5.5 C 35 %
294 20-02-2020 00:57:17 4.9 C 36 %
295 20-02-2020 01:07:17 4.8 C 38 %
296 20-02-2020 01:17:17 4.8 C 38 %
297 20-02-2020 01:27:18 4.8 C 38 %
298 20-02-2020 01:37:18 5 C 37 %
299 20-02-2020 01:47:17 5.3 C 37 %
300 20-02-2020 01:57:17 5.4 C 36 %
Sensor: Nr:Datum:Temp:Feuchte:
Aussen-T/F 301 20-02-2020 02:07:18 5.6 C 36 %
302 20-02-2020 02:17:17 5.6 C 36 %
303 20-02-2020 02:27:17 5.8 C 36 %
304 20-02-2020 02:37:17 5.7 C 35 %
305 20-02-2020 02:47:17 5.8 C 35 %
306 20-02-2020 02:57:17 5.9 C 35 %
307 20-02-2020 03:07:17 6 C 35 %
308 20-02-2020 03:17:17 6.2 C 35 %
309 20-02-2020 03:27:17 6.3 C 35 %
310 20-02-2020 03:37:18 6.3 C 35 %
311 20-02-2020 03:47:17 6.4 C 35 %
312 20-02-2020 03:57:17 6.3 C 35 %
313 20-02-2020 04:07:18 6.4 C 35 %
314 20-02-2020 04:17:17 6.5 C 35 %
315 20-02-2020 04:27:17 6.5 C 35 %
316 20-02-2020 04:37:17 6.6 C 35 %
317 20-02-2020 04:47:18 6.5 C 35 %
318 20-02-2020 04:57:18 6.5 C 35 %
319 20-02-2020 05:07:18 6.5 C 35 %
320 20-02-2020 05:17:17 6.5 C 35 %
321 20-02-2020 05:27:17 6.5 C 35 %
322 20-02-2020 05:37:17 6.7 C 35 %
323 20-02-2020 05:47:17 6.5 C 35 %
324 20-02-2020 05:57:17 6.6 C 35 %
325 20-02-2020 06:07:17 6.5 C 35 %
Sensor: Nr:Datum:Temp:Feuchte:
Aussen-T/F 326 20-02-2020 06:17:17 6.3 C 36 %
327 20-02-2020 06:27:17 6.3 C 36 %
328 20-02-2020 06:37:17 6.5 C 36 %
329 20-02-2020 06:47:17 6.6 C 36 %
330 20-02-2020 06:57:17 6.5 C 36 %
331 20-02-2020 07:07:17 6.5 C 36 %
332 20-02-2020 07:17:17 6.3 C 37 %
333 20-02-2020 07:27:17 6.5 C 37 %
334 20-02-2020 07:37:17 6.6 C 36 %
335 20-02-2020 07:47:17 6.7 C 36 %
336 20-02-2020 07:57:17 6.6 C 37 %
337 20-02-2020 08:07:17 6.5 C 37 %
338 20-02-2020 08:17:17 6.6 C 37 %
339 20-02-2020 08:27:17 6.6 C 37 %
340 20-02-2020 08:37:17 6.6 C 37 %
341 20-02-2020 08:47:18 6.7 C 37 %
342 20-02-2020 08:57:18 6.8 C 37 %
343 20-02-2020 09:07:18 7.2 C 36 %
344 20-02-2020 09:17:18 7.3 C 36 %
345 20-02-2020 09:27:18 7.6 C 35 %
346 20-02-2020 09:37:17 7.8 C 35 %
347 20-02-2020 09:47:17 7.9 C 35 %
348 20-02-2020 09:57:17 8.1 C 34 %
349 20-02-2020 10:07:18 8.1 C 34 %
350 20-02-2020 10:17:17 8.3 C 34 %
Sensor: Nr:Datum:Temp:Feuchte:
Aussen-T/F 351 20-02-2020 10:27:17 8.5 C 33 %
352 20-02-2020 10:37:17 9 C 32 %
353 20-02-2020 10:47:17 8.8 C 32 %
354 20-02-2020 10:57:17 8.9 C 32 %
355 20-02-2020 11:07:18 9.1 C 32 %
356 20-02-2020 11:17:18 10.1 C 30 %
357 20-02-2020 11:27:18 10 C 30 %
358 20-02-2020 11:37:18 9.4 C 30 %
359 20-02-2020 11:47:17 9.1 C 30 %
360 20-02-2020 11:57:18 9.2 C 30 %
361 20-02-2020 12:07:18 9.3 C 30 %
362 20-02-2020 12:17:18 9.8 C 30 %
363 20-02-2020 12:27:18 10.1 C 28 %
364 20-02-2020 12:37:18 9.2 C 30 %
365 20-02-2020 12:47:18 8.2 C 33 %
366 20-02-2020 12:57:18 8.6 C 33 %
367 20-02-2020 13:07:18 9.1 C 32 %
368 20-02-2020 13:17:18 9.7 C 31 %
369 20-02-2020 13:27:18 9.6 C 30 %
370 20-02-2020 13:37:18 9.6 C 30 %
371 20-02-2020 13:47:17 9.4 C 31 %
372 20-02-2020 13:57:17 10.3 C 29 %
373 20-02-2020 14:07:17 10.2 C 29 %
374 20-02-2020 14:17:17 10.1 C 28 %
375 20-02-2020 14:27:18 10 C 28 %
Sensor: Nr:Datum:Temp:Feuchte:
Aussen-T/F 376 20-02-2020 14:37:18 10.7 C 28 %
377 20-02-2020 14:47:17 9.8 C 29 %
378 20-02-2020 14:57:17 9.8 C 29 %
379 20-02-2020 15:07:18 9.6 C 30 %
380 20-02-2020 15:17:17 10.1 C 28 %
381 20-02-2020 15:27:18 10.1 C 28 %
382 20-02-2020 15:37:18 10.5 C 28 %
383 20-02-2020 15:47:17 10.5 C 28 %
384 20-02-2020 15:57:17 9.6 C 29 %
385 20-02-2020 16:07:17 9.5 C 29 %
386 20-02-2020 16:17:17 9.5 C 29 %
387 20-02-2020 16:27:18 9.3 C 29 %
388 20-02-2020 16:37:18 9.1 C 30 %
389 20-02-2020 16:47:17 9.1 C 29 %
390 20-02-2020 16:57:17 9.1 C 29 %
391 20-02-2020 17:07:18 9 C 29 %
392 20-02-2020 17:17:17 9.2 C 29 %
393 20-02-2020 17:27:18 9.2 C 29 %
394 20-02-2020 17:37:18 9.2 C 29 %
395 20-02-2020 17:47:17 9.1 C 29 %
396 20-02-2020 17:57:17 9.1 C 29 %
397 20-02-2020 18:07:18 9.1 C 29 %
398 20-02-2020 18:17:18 9 C 29 %
399 20-02-2020 18:27:18 8.9 C 30 %
400 20-02-2020 18:37:18 8.3 C 30 %
Sensor: Nr:Datum:Temp:Feuchte:
Aussen-T/F 401 20-02-2020 18:47:18 8.1 C 31 %
402 20-02-2020 18:57:18 7.7 C 33 %
403 20-02-2020 19:07:18 7.7 C 33 %
404 20-02-2020 19:17:18 7.8 C 32 %
405 20-02-2020 19:27:18 8.1 C 31 %
406 20-02-2020 19:37:17 8.6 C 30 %
407 20-02-2020 19:47:18 9 C 30 %
408 20-02-2020 19:57:18 9.1 C 30 %
409 20-02-2020 20:07:18 9 C 30 %
410 20-02-2020 20:17:18 9 C 30 %
411 20-02-2020 20:27:18 9.3 C 29 %
412 20-02-2020 20:37:18 9.3 C 29 %
413 20-02-2020 20:47:18 9.2 C 29 %
414 20-02-2020 20:57:18 9.2 C 29 %
415 20-02-2020 21:07:18 8.8 C 30 %
416 20-02-2020 21:17:18 8.6 C 30 %
417 20-02-2020 21:27:18 8.6 C 31 %
418 20-02-2020 21:37:18 8.2 C 31 %
419 20-02-2020 21:47:17 8.2 C 32 %
420 20-02-2020 21:57:18 7.8 C 33 %
421 20-02-2020 22:07:18 7.9 C 33 %
422 20-02-2020 22:17:17 7.8 C 35 %
423 20-02-2020 22:27:18 7.4 C 35 %
424 20-02-2020 22:37:18 7.1 C 38 %
425 20-02-2020 22:47:18 6 C 37 %
Sensor: Nr:Datum:Temp:Feuchte:
Aussen-T/F 426 20-02-2020 22:57:18 5.8 C 37 %
427 20-02-2020 23:07:18 5.7 C 39 %
428 20-02-2020 23:17:18 5.8 C 37 %
429 20-02-2020 23:27:18 5.8 C 37 %
430 20-02-2020 23:37:17 6.1 C 35 %
431 20-02-2020 23:47:17 5.9 C 35 %
432 20-02-2020 23:57:17 5.2 C 35 %
433 21-02-2020 00:07:17 4.6 C 38 %
434 21-02-2020 00:17:18 4.5 C 39 %
435 21-02-2020 00:27:18 4.4 C 37 %
436 21-02-2020 00:37:18 4.8 C 36 %
437 21-02-2020 00:47:18 4.7 C 35 %
438 21-02-2020 00:57:18 4.6 C 35 %
439 21-02-2020 01:07:18 4.5 C 35 %
440 21-02-2020 01:17:17 4.1 C 35 %
441 21-02-2020 01:27:17 4.1 C 34 %
442 21-02-2020 01:37:17 4 C 34 %
443 21-02-2020 01:47:17 3.6 C 35 %
444 21-02-2020 01:57:17 3.6 C 35 %
445 21-02-2020 02:07:18 3.5 C 35 %
446 21-02-2020 02:17:18 3.8 C 35 %
447 21-02-2020 02:27:18 3.4 C 36 %
448 21-02-2020 02:37:18 4 C 35 %
449 21-02-2020 02:47:17 3.9 C 35 %
450 21-02-2020 02:57:18 3.6 C 35 %
Sensor: Nr:Datum:Temp:Feuchte:
Aussen-T/F 451 21-02-2020 03:07:18 4 C 34 %
452 21-02-2020 03:17:18 3.3 C 35 %
453 21-02-2020 03:27:18 2.9 C 37 %
454 21-02-2020 03:37:18 2.4 C 39 %
455 21-02-2020 03:47:17 2.7 C 38 %
456 21-02-2020 03:57:17 2.1 C 40 %
457 21-02-2020 04:07:18 2.1 C 40 %
458 21-02-2020 04:17:18 2.2 C 39 %
459 21-02-2020 04:27:18 2.4 C 39 %
460 21-02-2020 04:37:18 2 C 40 %
461 21-02-2020 04:47:17 2.5 C 39 %
462 21-02-2020 04:57:17 2.3 C 39 %
463 21-02-2020 05:07:17 2 C 39 %
464 21-02-2020 05:17:17 1.6 C 41 %
465 21-02-2020 05:27:17 2.1 C 39 %
466 21-02-2020 05:37:17 2.5 C 38 %
467 21-02-2020 05:47:17 1.9 C 40 %
468 21-02-2020 05:57:17 2.4 C 38 %
469 21-02-2020 06:07:17 2.3 C 38 %
470 21-02-2020 06:17:17 1.7 C 40 %
471 21-02-2020 06:27:17 1.9 C 40 %
472 21-02-2020 06:37:18 1.4 C 41 %
473 21-02-2020 06:47:17 1.6 C 40 %
474 21-02-2020 06:57:17 2.1 C 38 %
475 21-02-2020 07:07:17 2.4 C 37 %
Sensor: Nr:Datum:Temp:Feuchte:
Aussen-T/F 476 21-02-2020 07:17:18 2.8 C 36 %
477 21-02-2020 07:27:18 2.7 C 36 %
478 21-02-2020 07:37:18 3 C 35 %
479 21-02-2020 07:47:17 2.5 C 36 %
480 21-02-2020 07:57:17 2.2 C 37 %
481 21-02-2020 08:07:17 1.5 C 39 %
482 21-02-2020 08:17:17 1.3 C 40 %
483 21-02-2020 08:27:17 1.1 C 40 %
484 21-02-2020 08:37:17 1.7 C 40 %
485 21-02-2020 08:47:17 2.2 C 38 %
486 21-02-2020 08:57:17 2.7 C 37 %
487 21-02-2020 09:07:17 2.6 C 37 %
488 21-02-2020 09:17:17 3.1 C 36 %
489 21-02-2020 09:27:17 2.9 C 37 %
490 21-02-2020 09:37:17 2.9 C 36 %
491 21-02-2020 09:47:17 3.1 C 36 %
492 21-02-2020 09:57:17 3.6 C 35 %
493 21-02-2020 10:07:17 3.5 C 36 %
494 21-02-2020 10:17:17 3.5 C 36 %
495 21-02-2020 10:27:17 3.9 C 35 %
496 21-02-2020 10:37:18 4.5 C 34 %
497 21-02-2020 10:47:17 4.7 C 34 %
498 21-02-2020 10:57:17 4.8 C 34 %
499 21-02-2020 11:07:18 5.9 C 32 %
500 21-02-2020 11:17:17 6.3 C 31 %
Sensor: Nr:Datum:Temp:Feuchte:
Aussen-T/F 501 21-02-2020 11:27:17 6.8 C 30 %
502 21-02-2020 11:37:18 5.9 C 31 %
503 21-02-2020 11:47:17 6.7 C 30 %
504 21-02-2020 11:57:17 7.1 C 30 %
505 21-02-2020 12:07:18 7.3 C 30 %
506 21-02-2020 12:17:18 7.3 C 29 %
507 21-02-2020 12:27:18 7.3 C 29 %
508 21-02-2020 12:37:18 7.4 C 29 %
509 21-02-2020 12:47:17 7.4 C 29 %
510 21-02-2020 12:57:17 7.9 C 30 %
511 21-02-2020 13:07:17 8.3 C 27 %
512 21-02-2020 13:17:18 7.8 C 27 %
513 21-02-2020 13:27:18 8.9 C 27 %
514 21-02-2020 13:37:18 8.2 C 27 %
515 21-02-2020 13:47:17 7.5 C 27 %
516 21-02-2020 13:57:17 7.9 C 27 %
517 21-02-2020 14:07:18 7.8 C 27 %
518 21-02-2020 14:17:17 7.9 C 27 %
519 21-02-2020 14:27:18 8.8 C 27 %
520 21-02-2020 14:37:18 8.4 C 27 %
521 21-02-2020 14:47:17 8.7 C 27 %
522 21-02-2020 14:57:17 9 C 26 %
523 21-02-2020 15:07:18 9 C 26 %
524 21-02-2020 15:17:18 8.4 C 26 %
525 21-02-2020 15:27:18 8.7 C 26 %
Sensor: Nr:Datum:Temp:Feuchte:
Aussen-T/F 526 21-02-2020 15:37:18 8.1 C 26 %
527 21-02-2020 15:47:17 8.3 C 26 %
528 21-02-2020 15:57:17 8.3 C 26 %
529 21-02-2020 16:07:17 8.1 C 26 %
530 21-02-2020 16:17:17 8 C 27 %
531 21-02-2020 16:27:17 8 C 26 %
532 21-02-2020 16:37:17 8.1 C 26 %
533 21-02-2020 16:47:17 7.9 C 26 %
534 21-02-2020 16:57:17 7.9 C 26 %
535 21-02-2020 17:07:18 7.7 C 26 %
536 21-02-2020 17:17:17 7.3 C 26 %
537 21-02-2020 17:27:17 7.3 C 26 %
538 21-02-2020 17:37:18 6.8 C 28 %
539 21-02-2020 17:47:17 6.5 C 28 %
540 21-02-2020 17:57:18 6.4 C 29 %
541 21-02-2020 18:07:18 5.9 C 30 %
542 21-02-2020 18:17:17 5.6 C 31 %
543 21-02-2020 18:27:17 4.9 C 33 %
544 21-02-2020 18:37:17 4.5 C 33 %
545 21-02-2020 18:47:17 4.3 C 34 %
546 21-02-2020 18:57:17 4.2 C 34 %
547 21-02-2020 19:07:17 4.7 C 34 %
548 21-02-2020 19:17:17 4 C 34 %
549 21-02-2020 19:27:17 4 C 35 %
550 21-02-2020 19:37:17 3.8 C 35 %
Sensor: Nr:Datum:Temp:Feuchte:
Aussen-T/F 551 21-02-2020 19:47:17 4 C 34 %
552 21-02-2020 19:57:17 4.7 C 33 %
553 21-02-2020 20:07:18 4.9 C 33 %
554 21-02-2020 20:17:18 4.4 C 33 %
555 21-02-2020 20:27:18 4.4 C 33 %
556 21-02-2020 20:37:18 5.6 C 31 %
557 21-02-2020 20:47:17 5.8 C 31 %
558 21-02-2020 20:57:17 5.7 C 31 %
559 21-02-2020 21:07:18 5.4 C 31 %
560 21-02-2020 21:17:18 5.1 C 31 %
561 21-02-2020 21:27:18 4.9 C 32 %
562 21-02-2020 21:37:18 4.3 C 34 %
563 21-02-2020 21:47:18 4.3 C 35 %
564 21-02-2020 21:57:18 4.6 C 34 %
565 21-02-2020 22:07:18 4 C 35 %
566 21-02-2020 22:17:17 3.4 C 36 %
567 21-02-2020 22:27:17 3.6 C 38 %
568 21-02-2020 22:37:17 3.8 C 37 %
569 21-02-2020 22:47:17 3.7 C 37 %
570 21-02-2020 22:57:17 3.2 C 37 %
571 21-02-2020 23:07:17 3 C 38 %
572 21-02-2020 23:17:17 3.6 C 38 %
573 21-02-2020 23:27:18 3.3 C 38 %
574 21-02-2020 23:37:18 3.9 C 37 %
575 21-02-2020 23:47:18 4.2 C 36 %
Sensor: Nr:Datum:Temp:Feuchte:
Aussen-T/F 576 21-02-2020 23:57:18 4 C 36 %
577 22-02-2020 00:07:18 3.3 C 37 %
578 22-02-2020 00:17:17 3.4 C 38 %
579 22-02-2020 00:27:17 3.7 C 37 %
580 22-02-2020 00:37:17 3.8 C 37 %
581 22-02-2020 00:47:18 4.1 C 36 %
582 22-02-2020 00:57:18 3.6 C 37 %
583 22-02-2020 01:07:18 3.8 C 37 %
584 22-02-2020 01:17:18 4 C 35 %
585 22-02-2020 01:27:18 3.8 C 37 %
586 22-02-2020 01:37:18 3.4 C 37 %
587 22-02-2020 01:47:17 3.1 C 37 %
588 22-02-2020 01:57:18 3.1 C 38 %
589 22-02-2020 02:07:18 4.6 C 36 %
590 22-02-2020 02:17:18 4.7 C 35 %
591 22-02-2020 02:27:18 4.4 C 35 %
592 22-02-2020 02:37:17 4.8 C 35 %
593 22-02-2020 02:47:17 5.1 C 34 %
594 22-02-2020 02:57:17 4.7 C 35 %
595 22-02-2020 03:07:17 4.8 C 35 %
596 22-02-2020 03:17:17 5 C 34 %
597 22-02-2020 03:27:17 4.7 C 35 %
598 22-02-2020 03:37:17 5.2 C 34 %
599 22-02-2020 03:47:17 4.9 C 35 %
600 22-02-2020 03:57:18 4.6 C 35 %
Sensor: Nr:Datum:Temp:Feuchte:
Aussen-T/F 601 22-02-2020 04:07:18 4.5 C 35 %
602 22-02-2020 04:17:18 4.7 C 35 %
603 22-02-2020 04:27:18 4.2 C 35 %
604 22-02-2020 04:37:18 4.2 C 35 %
605 22-02-2020 04:47:17 4.7 C 35 %
606 22-02-2020 04:57:18 5 C 34 %
607 22-02-2020 05:07:18 5 C 34 %
608 22-02-2020 05:17:18 5.2 C 34 %
609 22-02-2020 05:27:18 5.4 C 34 %
610 22-02-2020 05:37:17 5.4 C 33 %
611 22-02-2020 05:47:18 5.4 C 33 %
612 22-02-2020 05:57:18 5.2 C 34 %
613 22-02-2020 06:07:18 5.2 C 33 %
614 22-02-2020 06:17:17 5.3 C 34 %
615 22-02-2020 06:27:17 5.3 C 34 %
616 22-02-2020 06:37:17 5.5 C 33 %
617 22-02-2020 06:47:18 5.3 C 33 %
618 22-02-2020 06:57:18 5.4 C 33 %
619 22-02-2020 07:07:18 5.2 C 33 %
620 22-02-2020 07:17:18 5 C 33 %
621 22-02-2020 07:27:18 5 C 34 %
622 22-02-2020 07:37:18 4.8 C 35 %
623 22-02-2020 07:47:17 5.3 C 34 %
624 22-02-2020 07:57:18 5 C 34 %
625 22-02-2020 08:07:18 5.4 C 33 %
Sensor: Nr:Datum:Temp:Feuchte:
Aussen-T/F 626 22-02-2020 08:17:18 5.4 C 33 %
627 22-02-2020 08:27:18 5.2 C 33 %
628 22-02-2020 08:37:18 5.4 C 33 %
629 22-02-2020 08:47:17 5.7 C 33 %
630 22-02-2020 08:57:17 5.9 C 33 %
631 22-02-2020 09:07:17 6.1 C 32 %
632 22-02-2020 09:17:17 6.3 C 32 %
633 22-02-2020 09:27:17 6.4 C 32 %
634 22-02-2020 09:37:17 6.4 C 31 %
635 22-02-2020 09:47:17 6.5 C 31 %
636 22-02-2020 09:57:17 6.9 C 31 %
637 22-02-2020 10:07:17 7 C 30 %
638 22-02-2020 10:17:17 7.2 C 30 %
639 22-02-2020 10:27:17 7.2 C 30 %
640 22-02-2020 10:37:17 7.3 C 30 %
641 22-02-2020 10:47:18 7.2 C 30 %
642 22-02-2020 10:57:18 7.4 C 30 %
643 22-02-2020 11:07:18 7.5 C 30 %
644 22-02-2020 11:17:18 7.5 C 30 %
645 22-02-2020 11:27:18 7.6 C 29 %
646 22-02-2020 11:37:18 7.7 C 28 %
647 22-02-2020 11:47:17 7.9 C 28 %
648 22-02-2020 11:57:17 8.1 C 27 %
649 22-02-2020 12:07:18 8.4 C 27 %
650 22-02-2020 12:17:18 8.5 C 26 %
Sensor: Nr:Datum:Temp:Feuchte:
Aussen-T/F 651 22-02-2020 12:27:18 8.6 C 27 %
652 22-02-2020 12:37:18 8.8 C 26 %
653 22-02-2020 12:47:18 8.8 C 26 %
654 22-02-2020 12:57:18 9 C 25 %
655 22-02-2020 13:07:18 9.3 C 25 %
656 22-02-2020 13:17:18 9.7 C 25 %
657 22-02-2020 13:27:18 10.2 C 21 %
658 22-02-2020 13:37:18 10.2 C 20 %
659 22-02-2020 13:47:17 10.2 C 20 %
660 22-02-2020 13:57:18 10.2 C 20 %
661 22-02-2020 14:07:18 10.2 C 20 %
662 22-02-2020 14:17:17 10.1 C 20 %
663 22-02-2020 14:27:18 10.1 C 20 %
664 22-02-2020 14:37:18 10.2 C 20 %
665 22-02-2020 14:47:17 10.2 C 20 %
666 22-02-2020 14:57:17 10.1 C 20 %
667 22-02-2020 15:07:17 10.2 C 20 %
668 22-02-2020 15:17:17 10.2 C 20 %
669 22-02-2020 15:27:18 10.4 C 20 %
670 22-02-2020 15:37:18 10.6 C 21 %
671 22-02-2020 15:47:17 10.7 C 20 %
672 22-02-2020 15:57:17 10.8 C 21 %
673 22-02-2020 16:07:18 10.7 C 21 %
674 22-02-2020 16:17:18 10.6 C 22 %
675 22-02-2020 16:27:18 10.4 C 22 %
Sensor: Nr:Datum:Temp:Feuchte:
Aussen-T/F 676 22-02-2020 16:37:18 10.2 C 23 %
677 22-02-2020 16:47:18 10.3 C 25 %
678 22-02-2020 16:57:18 10.2 C 25 %
679 22-02-2020 17:07:17 10.1 C 25 %
680 22-02-2020 17:17:18 10.1 C 25 %
681 22-02-2020 17:27:18 10.2 C 25 %
682 22-02-2020 17:37:18 10.2 C 25 %
683 22-02-2020 17:47:18 10.2 C 25 %
684 22-02-2020 17:57:18 10 C 25 %
685 22-02-2020 18:07:18 9.9 C 26 %
686 22-02-2020 18:17:18 9.9 C 27 %
687 22-02-2020 18:27:18 9.8 C 27 %
688 22-02-2020 18:37:18 9.7 C 28 %
689 22-02-2020 18:47:18 9.7 C 29 %
690 22-02-2020 18:57:18 9.5 C 30 %
691 22-02-2020 19:07:18 9.6 C 30 %
692 22-02-2020 19:17:17 9.6 C 30 %
693 22-02-2020 19:27:17 9.6 C 31 %
694 22-02-2020 19:37:17 9.6 C 30 %
695 22-02-2020 19:47:18 9.9 C 30 %
696 22-02-2020 19:57:18 9.8 C 31 %
697 22-02-2020 20:07:18 10 C 30 %
698 22-02-2020 20:17:18 9.9 C 31 %
699 22-02-2020 20:27:18 10 C 30 %
700 22-02-2020 20:37:18 9.9 C 31 %
Sensor: Nr:Datum:Temp:Feuchte:
Aussen-T/F 701 22-02-2020 20:47:17 10 C 31 %
702 22-02-2020 20:57:17 9.9 C 32 %
703 22-02-2020 21:07:18 9.9 C 32 %
704 22-02-2020 21:17:17 10.2 C 31 %
705 22-02-2020 21:27:17 10.2 C 31 %
706 22-02-2020 21:37:18 10.3 C 31 %
707 22-02-2020 21:47:17 10.2 C 31 %
708 22-02-2020 21:57:17 10.3 C 31 %
709 22-02-2020 22:07:17 10.4 C 31 %
710 22-02-2020 22:17:17 10.6 C 31 %
711 22-02-2020 22:27:17 10.7 C 31 %
712 22-02-2020 22:37:18 10.7 C 31 %
713 22-02-2020 22:47:17 10.6 C 31 %
714 22-02-2020 22:57:17 10.5 C 31 %
715 22-02-2020 23:07:17 10.5 C 31 %
716 22-02-2020 23:17:17 10.5 C 31 %
717 22-02-2020 23:27:17 10.5 C 31 %
718 22-02-2020 23:37:17 10.5 C 31 %
719 22-02-2020 23:47:17 10.6 C 31 %
720 22-02-2020 23:57:18 10.5 C 31 %
721 23-02-2020 00:07:18 10.7 C 31 %
722 23-02-2020 00:17:18 10.8 C 31 %
723 23-02-2020 00:27:18 10 C 31 %
724 23-02-2020 00:37:18 9.7 C 33 %
725 23-02-2020 00:47:17 9.4 C 35 %
Sensor: Nr:Datum:Temp:Feuchte:
Aussen-T/F 726 23-02-2020 00:57:18 9.2 C 36 %
727 23-02-2020 01:07:18 9 C 38 %
728 23-02-2020 01:17:18 9.3 C 37 %
729 23-02-2020 01:27:18 9.3 C 37 %
730 23-02-2020 01:37:18 9.6 C 36 %
731 23-02-2020 01:47:17 9.6 C 36 %
732 23-02-2020 01:57:17 9.7 C 36 %
733 23-02-2020 02:07:18 9.4 C 36 %
734 23-02-2020 02:17:18 9.3 C 36 %
735 23-02-2020 02:27:18 9.5 C 36 %
736 23-02-2020 02:37:18 9.8 C 35 %
737 23-02-2020 02:47:17 10 C 34 %
738 23-02-2020 02:57:17 10 C 34 %
739 23-02-2020 03:07:18 10 C 33 %
740 23-02-2020 03:17:17 10.2 C 33 %
741 23-02-2020 03:27:17 9.8 C 35 %
742 23-02-2020 03:37:17 9.6 C 35 %
743 23-02-2020 03:47:17 9.7 C 35 %
744 23-02-2020 03:57:17 9.7 C 35 %
745 23-02-2020 04:07:17 10.3 C 33 %
746 23-02-2020 04:17:17 10.2 C 33 %
747 23-02-2020 04:27:17 10.1 C 33 %
748 23-02-2020 04:37:17 10.2 C 33 %
749 23-02-2020 04:47:17 10 C 33 %
750 23-02-2020 04:57:17 10.1 C 33 %
Sensor: Nr:Datum:Temp:Feuchte:
Aussen-T/F 751 23-02-2020 05:07:18 9.6 C 35 %
752 23-02-2020 05:17:17 9.8 C 35 %
753 23-02-2020 05:27:17 10 C 34 %
754 23-02-2020 05:37:18 10.2 C 34 %
755 23-02-2020 05:47:17 10.2 C 34 %
756 23-02-2020 05:57:17 9.6 C 35 %
757 23-02-2020 06:07:18 9.5 C 35 %
758 23-02-2020 06:17:17 9.7 C 35 %
759 23-02-2020 06:27:17 9.8 C 35 %
760 23-02-2020 06:37:18 10 C 34 %
761 23-02-2020 06:47:17 9.7 C 35 %
762 23-02-2020 06:57:17 9.3 C 35 %
763 23-02-2020 07:07:18 9.3 C 35 %
764 23-02-2020 07:17:18 9.5 C 36 %
765 23-02-2020 07:27:18 9.8 C 35 %
766 23-02-2020 07:37:18 9.6 C 36 %
767 23-02-2020 07:47:17 9.6 C 36 %
768 23-02-2020 07:57:17 9.8 C 36 %
769 23-02-2020 08:07:17 9.8 C 36 %
770 23-02-2020 08:17:17 9.8 C 36 %
771 23-02-2020 08:27:17 10.1 C 35 %
772 23-02-2020 08:37:17 10.1 C 35 %
773 23-02-2020 08:47:17 10.2 C 35 %
774 23-02-2020 08:57:17 10.1 C 35 %
775 23-02-2020 09:07:17 10.1 C 35 %
Sensor: Nr:Datum:Temp:Feuchte:
Aussen-T/F 776 23-02-2020 09:17:17 10 C 35 %
777 23-02-2020 09:27:17 10 C 35 %
778 23-02-2020 09:37:17 10 C 35 %
779 23-02-2020 09:47:18 10.1 C 35 %
780 23-02-2020 09:57:18 10.1 C 36 %
781 23-02-2020 10:07:17 10.1 C 36 %
782 23-02-2020 10:17:17 10.5 C 35 %
783 23-02-2020 10:27:18 10.6 C 35 %
784 23-02-2020 10:37:17 10.9 C 35 %
785 23-02-2020 10:47:17 10.9 C 35 %
786 23-02-2020 10:57:17 10.9 C 35 %
787 23-02-2020 11:07:17 11 C 34 %
788 23-02-2020 11:17:17 11.1 C 34 %
789 23-02-2020 11:27:17 11 C 34 %
790 23-02-2020 11:37:17 11.1 C 34 %
791 23-02-2020 11:47:17 11.2 C 34 %
792 23-02-2020 11:57:17 11.4 C 34 %
793 23-02-2020 12:07:17 11.5 C 34 %
794 23-02-2020 12:17:17 11.5 C 34 %
795 23-02-2020 12:27:17 11.6 C 34 %
796 23-02-2020 12:37:18 11.6 C 34 %
797 23-02-2020 12:47:17 11.7 C 34 %
798 23-02-2020 12:57:17 11.7 C 34 %
799 23-02-2020 13:07:17 11.8 C 33 %
800 23-02-2020 13:17:17 11.8 C 33 %
Sensor: Nr:Datum:Temp:Feuchte:
Aussen-T/F 801 23-02-2020 13:27:17 11.8 C 33 %
802 23-02-2020 13:37:18 11.8 C 33 %
803 23-02-2020 13:47:17 11.8 C 33 %
804 23-02-2020 13:57:18 11.8 C 33 %
805 23-02-2020 14:07:17 11.8 C 33 %
806 23-02-2020 14:17:17 11.7 C 33 %
807 23-02-2020 14:27:17 11.8 C 34 %
808 23-02-2020 14:37:18 11.9 C 34 %
809 23-02-2020 14:47:17 11.9 C 34 %
810 23-02-2020 14:57:17 11.9 C 34 %
811 23-02-2020 15:07:17 11.9 C 34 %
812 23-02-2020 15:17:17 11.9 C 34 %
813 23-02-2020 15:27:17 12 C 33 %
814 23-02-2020 15:37:18 11.8 C 34 %
815 23-02-2020 15:47:17 11.9 C 34 %
816 23-02-2020 15:57:17 11.8 C 34 %
817 23-02-2020 16:07:18 11.8 C 34 %
818 23-02-2020 16:17:17 11.8 C 34 %
819 23-02-2020 16:27:17 11.7 C 35 %
820 23-02-2020 16:37:17 11.8 C 35 %
821 23-02-2020 16:47:17 11.8 C 34 %
822 23-02-2020 16:57:17 11.8 C 34 %
823 23-02-2020 17:07:18 11.8 C 34 %
824 23-02-2020 17:17:17 11.5 C 35 %
825 23-02-2020 17:27:17 11.3 C 36 %
Sensor: Nr:Datum:Temp:Feuchte:
Aussen-T/F 826 23-02-2020 17:37:18 10.9 C 38 %
827 23-02-2020 17:47:17 10.8 C 38 %
828 23-02-2020 17:57:17 10.9 C 38 %
829 23-02-2020 18:07:18 10.8 C 38 %
830 23-02-2020 18:17:17 10.8 C 39 %
831 23-02-2020 18:27:17 10.7 C 40 %
832 23-02-2020 18:37:18 10.6 C 41 %
833 23-02-2020 18:47:18 10.5 C 42 %
834 23-02-2020 18:57:18 10.5 C 41 %
835 23-02-2020 19:07:18 10.8 C 40 %
836 23-02-2020 19:17:17 10.8 C 40 %
837 23-02-2020 19:27:17 11.1 C 40 %
838 23-02-2020 19:37:17 9.2 C 40 %
839 23-02-2020 19:47:17 8.6 C 41 %
840 23-02-2020 19:57:17 8.3 C 40 %
841 23-02-2020 20:07:17 7.9 C 41 %
842 23-02-2020 20:17:17 7.8 C 40 %
843 23-02-2020 20:27:17 7.6 C 40 %
844 23-02-2020 20:37:17 7.6 C 40 %
845 23-02-2020 20:47:17 7.6 C 40 %
846 23-02-2020 20:57:17 7.6 C 39 %
847 23-02-2020 21:07:17 7.4 C 39 %
848 23-02-2020 21:17:17 7.7 C 37 %
849 23-02-2020 21:27:17 7.3 C 37 %
850 23-02-2020 21:37:17 7.4 C 37 %
Sensor: Nr:Datum:Temp:Feuchte:
Aussen-T/F 851 23-02-2020 21:47:18 7.4 C 36 %
852 23-02-2020 21:57:18 7.6 C 37 %
853 23-02-2020 22:07:18 7.7 C 36 %
854 23-02-2020 22:17:18 7.7 C 36 %
855 23-02-2020 22:27:18 7.6 C 35 %
856 23-02-2020 22:37:18 7.6 C 35 %
857 23-02-2020 22:47:17 7.6 C 35 %
858 23-02-2020 22:57:18 7.3 C 35 %
859 23-02-2020 23:07:18 7 C 34 %
860 23-02-2020 23:17:18 6.7 C 36 %
861 23-02-2020 23:27:18 7.2 C 33 %
862 23-02-2020 23:37:18 7.1 C 32 %
863 23-02-2020 23:47:17 7.2 C 32 %
864 23-02-2020 23:57:18 6.8 C 33 %
865 24-02-2020 00:07:18 6.7 C 32 %
866 24-02-2020 00:17:18 6.3 C 34 %
867 24-02-2020 00:27:18 6.5 C 34 %
868 24-02-2020 00:37:18 6.4 C 34 %
869 24-02-2020 00:47:18 6 C 34 %
870 24-02-2020 00:57:18 6.1 C 34 %
871 24-02-2020 01:07:18 5.5 C 35 %
872 24-02-2020 01:17:18 5.8 C 35 %
873 24-02-2020 01:27:18 5.8 C 35 %
874 24-02-2020 01:37:17 5.3 C 35 %
875 24-02-2020 01:47:17 5.2 C 35 %
Sensor: Nr:Datum:Temp:Feuchte:
Aussen-T/F 876 24-02-2020 01:57:18 5 C 36 %
877 24-02-2020 02:07:18 4.6 C 37 %
878 24-02-2020 02:17:17 4.4 C 37 %
879 24-02-2020 02:27:17 3.9 C 39 %
880 24-02-2020 02:37:18 3.7 C 40 %
881 24-02-2020 02:47:17 4 C 38 %
882 24-02-2020 02:57:17 4.2 C 38 %
883 24-02-2020 03:07:17 4.3 C 38 %
884 24-02-2020 03:17:17 4.7 C 36 %
885 24-02-2020 03:27:17 4.6 C 37 %
886 24-02-2020 03:37:18 4.5 C 37 %
887 24-02-2020 03:47:17 4.5 C 36 %
888 24-02-2020 03:57:17 4.5 C 36 %
889 24-02-2020 04:07:17 4.6 C 36 %
890 24-02-2020 04:17:17 4.4 C 38 %
891 24-02-2020 04:27:17 4.3 C 38 %
892 24-02-2020 04:37:17 4 C 39 %
893 24-02-2020 04:47:17 3.7 C 41 %
894 24-02-2020 04:57:17 3.8 C 41 %
895 24-02-2020 05:07:17 3.8 C 42 %
896 24-02-2020 05:17:17 4.1 C 41 %
897 24-02-2020 05:27:17 4 C 40 %
898 24-02-2020 05:37:17 3.8 C 41 %
899 24-02-2020 05:47:18 4 C 40 %
900 24-02-2020 05:57:18 4 C 40 %
Sensor: Nr:Datum:Temp:Feuchte:
Aussen-T/F 901 24-02-2020 06:07:17 4 C 40 %
902 24-02-2020 06:17:18 4 C 41 %
903 24-02-2020 06:27:18 3.9 C 42 %
904 24-02-2020 06:37:17 4 C 41 %
905 24-02-2020 06:47:18 3.9 C 42 %
906 24-02-2020 06:57:18 4.2 C 40 %
907 24-02-2020 07:07:18 4.2 C 40 %
908 24-02-2020 07:17:18 4.3 C 40 %
909 24-02-2020 07:27:18 4.3 C 40 %
910 24-02-2020 07:37:18 4.4 C 39 %
911 24-02-2020 07:47:17 4.5 C 39 %
912 24-02-2020 07:57:17 5.1 C 37 %
913 24-02-2020 08:07:18 5.2 C 37 %
914 24-02-2020 08:17:18 5.4 C 37 %
915 24-02-2020 08:27:18 5.7 C 36 %
916 24-02-2020 08:37:18 5.9 C 36 %
917 24-02-2020 08:47:18 6 C 35 %
918 24-02-2020 08:57:18 6.2 C 35 %
919 24-02-2020 09:07:18 6.3 C 35 %
920 24-02-2020 09:17:18 6.3 C 35 %
921 24-02-2020 09:27:18 6.1 C 35 %
922 24-02-2020 09:37:18 6 C 35 %
923 24-02-2020 09:47:18 6 C 35 %
924 24-02-2020 09:57:18 6 C 36 %
925 24-02-2020 10:07:18 5.9 C 37 %
Sensor: Nr:Datum:Temp:Feuchte:
Aussen-T/F 926 24-02-2020 10:17:18 5.7 C 38 %
927 24-02-2020 10:27:18 5.7 C 39 %
928 24-02-2020 10:37:17 5.6 C 40 %
929 24-02-2020 10:47:18 5.7 C 40 %
930 24-02-2020 10:57:18 5.9 C 40 %
931 24-02-2020 11:07:18 6 C 40 %
932 24-02-2020 11:17:18 6 C 40 %
933 24-02-2020 11:27:18 6.1 C 40 %
934 24-02-2020 11:37:18 6.1 C 40 %
935 24-02-2020 11:47:18 6.1 C 40 %
936 24-02-2020 11:57:18 6.5 C 40 %
937 24-02-2020 12:07:17 6.7 C 40 %
938 24-02-2020 12:17:17 6.9 C 40 %
939 24-02-2020 12:27:17 6.7 C 40 %
940 24-02-2020 12:37:18 6.8 C 40 %
941 24-02-2020 12:47:17 7.1 C 41 %
942 24-02-2020 12:57:18 7.3 C 40 %
943 24-02-2020 13:07:18 7.7 C 40 %
944 24-02-2020 13:17:18 7.9 C 40 %
945 24-02-2020 13:27:18 8.2 C 39 %
946 24-02-2020 13:37:18 8.2 C 39 %
947 24-02-2020 13:47:17 8.2 C 40 %
948 24-02-2020 13:57:17 8.4 C 40 %
949 24-02-2020 14:07:18 8.8 C 40 %
950 24-02-2020 14:17:17 9.3 C 40 %
Sensor: Nr:Datum:Temp:Feuchte:
Aussen-T/F 951 24-02-2020 14:27:18 9.6 C 39 %
952 24-02-2020 14:37:18 10.2 C 37 %
953 24-02-2020 14:47:17 10.8 C 37 %
954 24-02-2020 14:57:17 10.9 C 37 %
955 24-02-2020 15:07:18 10.7 C 37 %
956 24-02-2020 15:17:18 10.7 C 37 %
957 24-02-2020 15:27:18 10.8 C 37 %
958 24-02-2020 15:37:18 11 C 36 %
959 24-02-2020 15:47:17 11.3 C 36 %
960 24-02-2020 15:57:18 11.5 C 36 %
961 24-02-2020 16:07:18 11.5 C 35 %
962 24-02-2020 16:17:18 11.8 C 35 %
963 24-02-2020 16:27:18 11.9 C 35 %
964 24-02-2020 16:37:18 11.7 C 35 %
965 24-02-2020 16:47:17 11.3 C 35 %
966 24-02-2020 16:57:17 11.5 C 35 %
967 24-02-2020 17:07:18 11.5 C 35 %
968 24-02-2020 17:17:18 11.5 C 35 %
969 24-02-2020 17:27:18 11.5 C 34 %
970 24-02-2020 17:37:18 11.4 C 34 %
971 24-02-2020 17:47:18 11.5 C 33 %
972 24-02-2020 17:57:18 11.4 C 33 %
973 24-02-2020 18:07:18 11.3 C 33 %
974 24-02-2020 18:17:18 11.2 C 33 %
975 24-02-2020 18:27:18 11.2 C 33 %
Sensor: Nr:Datum:Temp:Feuchte:
Aussen-T/F 976 24-02-2020 18:37:17 11 C 33 %
977 24-02-2020 18:47:17 11 C 33 %
978 24-02-2020 18:57:17 11 C 33 %
979 24-02-2020 19:07:17 11.1 C 33 %
980 24-02-2020 19:17:17 10.8 C 34 %
981 24-02-2020 19:27:17 11.2 C 32 %
982 24-02-2020 19:37:18 11.2 C 32 %
983 24-02-2020 19:47:18 11.1 C 32 %
984 24-02-2020 19:57:18 11.3 C 32 %
985 24-02-2020 20:07:18 11.4 C 32 %
986 24-02-2020 20:17:18 11.2 C 31 %
987 24-02-2020 20:27:18 11.3 C 31 %
988 24-02-2020 20:37:18 11.2 C 31 %
989 24-02-2020 20:47:17 11.2 C 31 %
990 24-02-2020 20:57:18 11 C 31 %
991 24-02-2020 21:07:18 10.9 C 32 %
992 24-02-2020 21:18:17 11 C 32 %
993 24-02-2020 21:27:17 10.9 C 33 %
994 24-02-2020 21:37:17 10.9 C 33 %
995 24-02-2020 21:48:17 10.9 C 33 %
996 24-02-2020 21:57:17 10.8 C 33 %
997 24-02-2020 22:07:17 11 C 32 %
998 24-02-2020 22:17:17 10.9 C 33 %
999 24-02-2020 22:27:17 11 C 32 %
1000 24-02-2020 22:37:17 10.9 C 33 %
Sensor: Nr:Datum:Temp:Feuchte:
Aussen-T/F 1001 24-02-2020 22:47:17 11.1 C 32 %
1002 24-02-2020 22:57:17 11.1 C 32 %
1003 24-02-2020 23:08:17 11 C 32 %
1004 24-02-2020 23:18:17 10.9 C 33 %
1005 24-02-2020 23:28:17 11 C 32 %
1006 24-02-2020 23:37:18 10.9 C 33 %
1007 24-02-2020 23:48:17 10.8 C 33 %
1008 24-02-2020 23:58:17 10.4 C 34 %
1009 25-02-2020 00:08:17 10.5 C 34 %
1010 25-02-2020 00:17:17 10.4 C 34 %
1011 25-02-2020 00:27:17 10.2 C 35 %
1012 25-02-2020 00:37:18 10.4 C 35 %
1013 25-02-2020 00:47:17 10.6 C 35 %
1014 25-02-2020 00:57:17 10.5 C 35 %
1015 25-02-2020 01:08:17 10.5 C 35 %
1016 25-02-2020 01:18:17 10.5 C 35 %
1017 25-02-2020 01:28:17 10.5 C 35 %
1018 25-02-2020 01:38:17 10.6 C 35 %
1019 25-02-2020 01:48:17 10.4 C 35 %
1020 25-02-2020 01:58:17 10.5 C 35 %
1021 25-02-2020 02:08:17 10.4 C 35 %
1022 25-02-2020 02:18:17 10.3 C 35 %
1023 25-02-2020 02:28:17 10.4 C 35 %
1024 25-02-2020 02:38:17 10.3 C 35 %
1025 25-02-2020 02:48:17 10.3 C 35 %
Sensor: Nr:Datum:Temp:Feuchte:
Aussen-T/F 1026 25-02-2020 02:58:17 10.1 C 35 %
1027 25-02-2020 03:08:17 9.7 C 36 %
1028 25-02-2020 03:18:17 9.8 C 36 %
1029 25-02-2020 03:28:18 10 C 36 %
1030 25-02-2020 03:38:18 10 C 35 %
1031 25-02-2020 03:48:17 10 C 35 %
1032 25-02-2020 03:58:18 10 C 35 %
1033 25-02-2020 04:08:18 10 C 35 %
1034 25-02-2020 04:18:18 9.9 C 36 %
1035 25-02-2020 04:28:18 9.9 C 36 %
1036 25-02-2020 04:38:18 9.9 C 36 %
1037 25-02-2020 04:48:17 9.9 C 36 %
1038 25-02-2020 04:58:17 9.9 C 36 %
1039 25-02-2020 05:08:18 9.9 C 36 %
1040 25-02-2020 05:18:17 9.8 C 36 %
1041 25-02-2020 05:28:18 9.7 C 36 %
1042 25-02-2020 05:38:18 9.7 C 36 %
1043 25-02-2020 05:48:18 9.7 C 36 %
1044 25-02-2020 05:58:18 9.7 C 35 %
1045 25-02-2020 06:08:18 9.7 C 35 %
1046 25-02-2020 06:18:17 9.6 C 35 %
1047 25-02-2020 06:28:18 9.5 C 35 %
1048 25-02-2020 06:38:18 9.4 C 36 %
1049 25-02-2020 06:48:17 9.4 C 36 %
1050 25-02-2020 06:58:17 9.3 C 36 %
Sensor: Nr:Datum:Temp:Feuchte:
Aussen-T/F 1051 25-02-2020 07:08:17 9.2 C 36 %
1052 25-02-2020 07:18:17 9.1 C 36 %
1053 25-02-2020 07:28:18 9.1 C 36 %
1054 25-02-2020 07:38:18 8.6 C 38 %
1055 25-02-2020 07:48:17 8.4 C 40 %
1056 25-02-2020 07:58:17 8.2 C 42 %
1057 25-02-2020 08:08:18 8.1 C 43 %
1058 25-02-2020 08:18:17 8 C 44 %
1059 25-02-2020 08:28:17 8 C 42 %
1060 25-02-2020 08:38:17 8 C 42 %
1061 25-02-2020 08:48:17 8.1 C 42 %
1062 25-02-2020 08:58:17 8.2 C 41 %
1063 25-02-2020 09:08:18 8.2 C 41 %
1064 25-02-2020 09:18:17 8.2 C 40 %
1065 25-02-2020 09:28:17 8.5 C 38 %
1066 25-02-2020 09:38:18 8.7 C 38 %
1067 25-02-2020 09:48:17 8.7 C 36 %
1068 25-02-2020 09:58:17 8.6 C 34 %
1069 25-02-2020 10:08:17 8.6 C 33 %
1070 25-02-2020 10:18:17 8.2 C 33 %
1071 25-02-2020 10:28:17 8.7 C 33 %
1072 25-02-2020 10:38:18 8.7 C 33 %
1073 25-02-2020 10:48:17 9.2 C 32 %
1074 25-02-2020 10:58:17 9.6 C 31 %
1075 25-02-2020 11:08:18 9.1 C 32 %
Sensor: Nr:Datum:Temp:Feuchte:
Aussen-T/F 1076 25-02-2020 11:18:17 8 C 32 %
1077 25-02-2020 11:28:17 8.3 C 32 %
1078 25-02-2020 11:38:17 8.2 C 31 %
1079 25-02-2020 11:48:17 8.5 C 31 %
1080 25-02-2020 11:58:18 8.9 C 30 %
1081 25-02-2020 12:08:18 11.2 C 26 %
1082 25-02-2020 12:18:18 10.4 C 22 %
1083 25-02-2020 12:28:18 10.7 C 21 %
1084 25-02-2020 12:38:18 10.2 C 23 %
1085 25-02-2020 12:48:18 10.2 C 22 %
1086 25-02-2020 12:58:18 10.6 C 25 %
1087 25-02-2020 13:08:18 10.1 C 25 %
1088 25-02-2020 13:18:17 11.1 C 25 %
1089 25-02-2020 13:28:17 11.1 C 25 %
1090 25-02-2020 13:38:17 11.4 C 23 %
1091 25-02-2020 13:48:17 10 C 22 %
1092 25-02-2020 13:58:17 10.7 C 23 %
1093 25-02-2020 14:08:17 10.7 C 22 %
1094 25-02-2020 14:18:17 10.4 C 20 %
1095 25-02-2020 14:28:17 10.2 C 22 %
1096 25-02-2020 14:38:18 10.2 C 21 %
1097 25-02-2020 14:48:17 11 C 21 %
1098 25-02-2020 14:58:17 10.4 C 22 %
1099 25-02-2020 15:08:17 10.1 C 25 %
1100 25-02-2020 15:18:17 11.1 C 22 %
Sensor: Nr:Datum:Temp:Feuchte:
Aussen-T/F 1101 25-02-2020 15:28:17 11.1 C 22 %
1102 25-02-2020 15:38:17 11.2 C 20 %
1103 25-02-2020 15:48:18 11.5 C 20 %
1104 25-02-2020 15:58:18 11.7 C 20 %
1105 25-02-2020 16:08:18 10.3 C 21 %
1106 25-02-2020 16:18:18 10.1 C 21 %
1107 25-02-2020 16:28:18 10.1 C 20 %
1108 25-02-2020 16:38:18 12.4 C 20 %
1109 25-02-2020 16:48:17 11.5 C 20 %
1110 25-02-2020 16:58:18 10 C 20 %
1111 25-02-2020 17:08:18 9.9 C 20 %
1112 25-02-2020 17:18:17 10.8 C 20 %
1113 25-02-2020 17:28:18 9.5 C 25 %
1114 25-02-2020 17:38:18 9.1 C 25 %
1115 25-02-2020 17:48:18 9 C 25 %
1116 25-02-2020 17:58:18 8.9 C 27 %
1117 25-02-2020 18:08:18 8.8 C 26 %
1118 25-02-2020 18:18:18 8.5 C 27 %
1119 25-02-2020 18:28:18 8.4 C 28 %
1120 25-02-2020 18:38:18 8.6 C 27 %
1121 25-02-2020 18:48:17 8.4 C 28 %
1122 25-02-2020 18:58:17 7.1 C 31 %
1123 25-02-2020 19:08:18 6.5 C 35 %
1124 25-02-2020 19:18:18 6.3 C 35 %
1125 25-02-2020 19:28:18 6.2 C 35 %
Sensor: Nr:Datum:Temp:Feuchte:
Aussen-T/F 1126 25-02-2020 19:38:18 6 C 37 %
1127 25-02-2020 19:48:17 5.8 C 40 %
1128 25-02-2020 19:58:17 5.7 C 40 %
1129 25-02-2020 20:08:18 5.6 C 40 %
1130 25-02-2020 20:18:17 5.5 C 41 %
1131 25-02-2020 20:28:18 5.6 C 41 %
1132 25-02-2020 20:38:18 5.9 C 39 %
1133 25-02-2020 20:48:17 6 C 38 %
1134 25-02-2020 20:58:17 5.9 C 39 %
1135 25-02-2020 21:08:17 5.3 C 40 %
1136 25-02-2020 21:18:17 5.3 C 40 %
1137 25-02-2020 21:28:17 5.3 C 40 %
1138 25-02-2020 21:38:17 5.2 C 41 %
1139 25-02-2020 21:48:18 5.8 C 36 %
1140 25-02-2020 21:58:18 5.8 C 35 %
1141 25-02-2020 22:08:18 5.6 C 34 %
1142 25-02-2020 22:18:17 5.6 C 33 %
1143 25-02-2020 22:28:17 5.3 C 33 %
1144 25-02-2020 22:38:17 4.8 C 34 %
1145 25-02-2020 22:48:18 4.4 C 35 %
1146 25-02-2020 22:58:18 4.2 C 35 %
1147 25-02-2020 23:08:18 4.2 C 35 %
1148 25-02-2020 23:18:18 4.4 C 35 %
1149 25-02-2020 23:28:18 4.6 C 35 %
1150 25-02-2020 23:38:18 5.4 C 34 %
Sensor: Nr:Datum:Temp:Feuchte:
Aussen-T/F 1151 25-02-2020 23:48:17 5.5 C 34 %
1152 25-02-2020 23:58:17 5.4 C 33 %
1153 26-02-2020 00:08:17 5.3 C 35 %
1154 26-02-2020 00:18:17 5 C 35 %
1155 26-02-2020 00:28:17 4.9 C 36 %
1156 26-02-2020 00:38:18 5.1 C 35 %
1157 26-02-2020 00:48:17 5.4 C 35 %
1158 26-02-2020 00:58:17 5.3 C 35 %
1159 26-02-2020 01:08:17 5.4 C 35 %
1160 26-02-2020 01:18:17 5.5 C 35 %
1161 26-02-2020 01:28:17 5.4 C 35 %
1162 26-02-2020 01:38:17 5.3 C 35 %
1163 26-02-2020 01:48:17 5.1 C 35 %
1164 26-02-2020 01:58:17 5 C 35 %
1165 26-02-2020 02:08:18 5.2 C 35 %
1166 26-02-2020 02:18:18 5.2 C 34 %
1167 26-02-2020 02:28:18 5.2 C 34 %
1168 26-02-2020 02:38:17 5 C 34 %
1169 26-02-2020 02:48:18 5.1 C 33 %
1170 26-02-2020 02:58:18 5 C 32 %
1171 26-02-2020 03:08:17 4.8 C 33 %
1172 26-02-2020 03:18:17 4.7 C 33 %
1173 26-02-2020 03:28:17 4.3 C 34 %
1174 26-02-2020 03:38:18 3.8 C 35 %
1175 26-02-2020 03:48:18 3.7 C 35 %
Sensor: Nr:Datum:Temp:Feuchte:
Aussen-T/F 1176 26-02-2020 03:58:18 4 C 34 %
1177 26-02-2020 04:08:18 3.9 C 35 %
1178 26-02-2020 04:18:18 3.9 C 35 %
1179 26-02-2020 04:28:18 3.9 C 35 %
1180 26-02-2020 04:38:18 3.8 C 35 %
1181 26-02-2020 04:48:17 3.9 C 35 %
1182 26-02-2020 04:58:18 3.9 C 35 %
1183 26-02-2020 05:08:18 4 C 33 %
1184 26-02-2020 05:18:18 3.9 C 35 %
1185 26-02-2020 05:28:18 4 C 33 %
1186 26-02-2020 05:38:18 3.9 C 35 %
1187 26-02-2020 05:48:17 3.7 C 35 %
1188 26-02-2020 05:58:18 3.9 C 34 %
1189 26-02-2020 06:08:18 3.9 C 34 %
1190 26-02-2020 06:18:18 4 C 32 %
1191 26-02-2020 06:28:18 3.7 C 34 %
1192 26-02-2020 06:38:18 3.9 C 33 %
1193 26-02-2020 06:48:17 3.7 C 33 %
1194 26-02-2020 06:58:17 3.6 C 33 %
1195 26-02-2020 07:08:18 3.4 C 34 %
1196 26-02-2020 07:18:18 3.4 C 34 %
1197 26-02-2020 07:28:18 3.2 C 35 %
1198 26-02-2020 07:38:17 3.4 C 35 %
1199 26-02-2020 07:48:18 3.4 C 35 %
1200 26-02-2020 07:58:18 3.4 C 35 %
Sensor: Nr:Datum:Temp:Feuchte:
Aussen-T/F 1201 26-02-2020 08:08:18 3.5 C 35 %
1202 26-02-2020 08:18:17 3.5 C 35 %
1203 26-02-2020 08:28:17 3.6 C 35 %
1204 26-02-2020 08:38:18 3.6 C 34 %
1205 26-02-2020 08:48:18 3.5 C 35 %
1206 26-02-2020 08:58:18 3.3 C 35 %
1207 26-02-2020 09:08:17 2.9 C 36 %
1208 26-02-2020 09:18:17 2.9 C 37 %
1209 26-02-2020 09:28:17 3 C 37 %
1210 26-02-2020 09:38:18 3.2 C 36 %
1211 26-02-2020 09:48:18 3.6 C 36 %
1212 26-02-2020 09:58:18 3.4 C 36 %
1213 26-02-2020 10:08:18 3.4 C 36 %
1214 26-02-2020 10:18:17 3.4 C 36 %
1215 26-02-2020 10:28:17 3.3 C 37 %
1216 26-02-2020 10:38:17 3.5 C 36 %
1217 26-02-2020 10:48:17 4.2 C 35 %
1218 26-02-2020 10:58:17 4.4 C 35 %
1219 26-02-2020 11:08:17 4.5 C 34 %
1220 26-02-2020 11:18:17 5 C 33 %
1221 26-02-2020 11:28:17 5.1 C 33 %
1222 26-02-2020 11:38:18 5.4 C 32 %
1223 26-02-2020 11:48:18 5.3 C 32 %
1224 26-02-2020 11:58:18 5.9 C 32 %
1225 26-02-2020 12:08:17 6.1 C 31 %
Sensor: Nr:Datum:Temp:Feuchte:
Aussen-T/F 1226 26-02-2020 12:18:17 6.4 C 31 %
1227 26-02-2020 12:28:17 5.7 C 31 %
1228 26-02-2020 12:38:17 5.7 C 31 %
1229 26-02-2020 12:48:17 5.7 C 31 %
1230 26-02-2020 12:58:17 6.7 C 29 %
1231 26-02-2020 13:08:17 6.7 C 29 %
1232 26-02-2020 13:18:18 6.1 C 30 %
1233 26-02-2020 13:28:18 5 C 31 %
1234 26-02-2020 13:38:17 5.3 C 31 %
1235 26-02-2020 13:48:17 5.3 C 31 %
1236 26-02-2020 13:58:17 5.1 C 31 %
1237 26-02-2020 14:08:17 5.1 C 32 %
1238 26-02-2020 14:18:17 5.1 C 32 %
1239 26-02-2020 14:28:17 5.1 C 32 %
1240 26-02-2020 14:38:17 5.6 C 32 %
1241 26-02-2020 14:48:17 5.8 C 32 %
1242 26-02-2020 14:58:17 5.6 C 32 %
1243 26-02-2020 15:08:17 5.6 C 32 %
1244 26-02-2020 15:18:17 6.4 C 31 %
1245 26-02-2020 15:28:17 7.6 C 29 %
1246 26-02-2020 15:38:17 6.3 C 30 %
1247 26-02-2020 15:48:17 6.2 C 30 %
1248 26-02-2020 15:58:17 5.8 C 30 %
1249 26-02-2020 16:08:17 5.9 C 30 %
1250 26-02-2020 16:18:17 5.5 C 30 %
Sensor: Nr:Datum:Temp:Feuchte:
Aussen-T/F 1251 26-02-2020 16:28:17 5.5 C 30 %
1252 26-02-2020 16:38:17 5.4 C 30 %
1253 26-02-2020 16:48:18 5.6 C 30 %
1254 26-02-2020 16:58:18 5.4 C 30 %
1255 26-02-2020 17:08:18 5.3 C 30 %
1256 26-02-2020 17:18:18 5.1 C 30 %
1257 26-02-2020 17:28:18 5.1 C 30 %
1258 26-02-2020 17:38:17 4.8 C 30 %
1259 26-02-2020 17:48:18 4.5 C 31 %
1260 26-02-2020 17:58:18 4.2 C 31 %
1261 26-02-2020 18:08:18 4 C 32 %
1262 26-02-2020 18:18:18 4 C 32 %
1263 26-02-2020 18:28:18 4 C 32 %
1264 26-02-2020 18:38:18 4 C 32 %
1265 26-02-2020 18:48:18 4.1 C 32 %
1266 26-02-2020 18:58:18 4.1 C 32 %
1267 26-02-2020 19:08:18 4 C 32 %
1268 26-02-2020 19:18:17 4 C 33 %
1269 26-02-2020 19:28:17 3.9 C 35 %
1270 26-02-2020 19:38:17 3.8 C 35 %
1271 26-02-2020 19:48:17 3.6 C 35 %
1272 26-02-2020 19:58:17 3.4 C 35 %
1273 26-02-2020 20:08:17 3.3 C 35 %
1274 26-02-2020 20:18:17 3.6 C 35 %
1275 26-02-2020 20:28:17 3.6 C 35 %
Sensor: Nr:Datum:Temp:Feuchte:
Aussen-T/F 1276 26-02-2020 20:38:17 3.6 C 35 %
1277 26-02-2020 20:48:17 3.4 C 35 %
1278 26-02-2020 20:58:17 3.6 C 35 %
1279 26-02-2020 21:08:18 3.6 C 35 %
1280 26-02-2020 21:18:18 3.5 C 35 %
1281 26-02-2020 21:28:18 3.2 C 35 %
1282 26-02-2020 21:38:18 3.4 C 35 %
1283 26-02-2020 21:48:17 3.4 C 35 %
1284 26-02-2020 21:58:17 3.5 C 35 %
1285 26-02-2020 22:08:18 3.3 C 36 %
1286 26-02-2020 22:18:18 3.3 C 36 %
1287 26-02-2020 22:28:18 3.3 C 36 %
1288 26-02-2020 22:38:18 3.4 C 36 %
1289 26-02-2020 22:48:17 3.2 C 37 %
1290 26-02-2020 22:58:17 3.3 C 37 %
1291 26-02-2020 23:08:18 3.1 C 37 %
1292 26-02-2020 23:18:18 3 C 37 %
1293 26-02-2020 23:28:18 2.9 C 38 %
1294 26-02-2020 23:38:17 2.8 C 38 %
1295 26-02-2020 23:48:17 2.9 C 37 %
1296 26-02-2020 23:58:17 2.7 C 38 %
1297 27-02-2020 00:08:17 2.9 C 37 %
1298 27-02-2020 00:18:17 3.1 C 37 %
1299 27-02-2020 00:28:17 2.8 C 37 %
1300 27-02-2020 00:38:18 3.1 C 36 %
Sensor: Nr:Datum:Temp:Feuchte:
Aussen-T/F 1301 27-02-2020 00:48:18 2.9 C 37 %
1302 27-02-2020 00:58:18 2.8 C 37 %
1303 27-02-2020 01:08:18 2.3 C 38 %
1304 27-02-2020 01:18:18 2.2 C 38 %
1305 27-02-2020 01:28:18 2.2 C 38 %
1306 27-02-2020 01:38:18 2 C 38 %
1307 27-02-2020 01:48:17 2.6 C 38 %
1308 27-02-2020 01:58:17 2.7 C 38 %
1309 27-02-2020 02:08:18 2.6 C 38 %
1310 27-02-2020 02:18:17 2.9 C 37 %
1311 27-02-2020 02:28:17 2.9 C 37 %
1312 27-02-2020 02:38:17 2.5 C 38 %
1313 27-02-2020 02:48:17 2.7 C 38 %
1314 27-02-2020 02:58:17 3.1 C 36 %
1315 27-02-2020 03:08:18 3.1 C 37 %
1316 27-02-2020 03:18:17 2.6 C 40 %
1317 27-02-2020 03:28:17 2.6 C 40 %
1318 27-02-2020 03:38:17 2.6 C 40 %
1319 27-02-2020 03:48:17 2.7 C 40 %
1320 27-02-2020 03:58:17 2.7 C 40 %
1321 27-02-2020 04:08:18 2.7 C 40 %
1322 27-02-2020 04:18:18 2.7 C 40 %
1323 27-02-2020 04:28:18 2.6 C 40 %
1324 27-02-2020 04:38:18 2.7 C 39 %
1325 27-02-2020 04:48:17 2.3 C 40 %
Sensor: Nr:Datum:Temp:Feuchte:
Aussen-T/F 1326 27-02-2020 04:58:17 2.3 C 39 %
1327 27-02-2020 05:08:18 2.1 C 40 %
1328 27-02-2020 05:18:17 2.3 C 40 %
1329 27-02-2020 05:28:18 2 C 40 %
1330 27-02-2020 05:38:17 2 C 40 %
1331 27-02-2020 05:48:17 2.3 C 40 %
1332 27-02-2020 05:58:17 2.4 C 39 %
1333 27-02-2020 06:08:17 2.2 C 39 %
1334 27-02-2020 06:18:17 2.2 C 38 %
1335 27-02-2020 06:28:17 2.3 C 38 %
1336 27-02-2020 06:38:18 2.3 C 38 %
1337 27-02-2020 06:48:17 2.3 C 38 %
1338 27-02-2020 06:58:17 2.1 C 38 %
1339 27-02-2020 07:08:18 2.3 C 38 %
1340 27-02-2020 07:18:18 2.3 C 38 %
1341 27-02-2020 07:28:18 2.4 C 39 %
1342 27-02-2020 07:38:18 2.5 C 38 %
1343 27-02-2020 07:48:17 2.4 C 39 %
1344 27-02-2020 07:58:17 2.6 C 39 %
1345 27-02-2020 08:08:17 2.5 C 39 %
1346 27-02-2020 08:18:17 2.6 C 40 %
1347 27-02-2020 08:28:17 2.9 C 40 %
1348 27-02-2020 08:38:17 3.2 C 38 %
1349 27-02-2020 08:48:17 3.5 C 37 %
1350 27-02-2020 08:58:17 3.8 C 37 %
Sensor: Nr:Datum:Temp:Feuchte:
Aussen-T/F 1351 27-02-2020 09:08:17 4.2 C 35 %
1352 27-02-2020 09:18:17 4.3 C 35 %
1353 27-02-2020 09:28:17 4.6 C 35 %
1354 27-02-2020 09:38:17 4.7 C 35 %
1355 27-02-2020 09:48:17 4.9 C 35 %
1356 27-02-2020 09:58:17 5.2 C 34 %
1357 27-02-2020 10:08:17 5.1 C 34 %
1358 27-02-2020 10:18:17 5.3 C 33 %
1359 27-02-2020 10:28:17 5.2 C 33 %
1360 27-02-2020 10:38:17 5.4 C 33 %
1361 27-02-2020 10:48:17 5.4 C 33 %
1362 27-02-2020 10:58:17 5 C 33 %
1363 27-02-2020 11:08:17 4.6 C 35 %
1364 27-02-2020 11:18:17 4.2 C 35 %
1365 27-02-2020 11:28:17 3.7 C 36 %
1366 27-02-2020 11:38:17 3.7 C 38 %
1367 27-02-2020 11:48:18 3.9 C 39 %
1368 27-02-2020 11:58:18 3.9 C 39 %
1369 27-02-2020 12:08:18 3.8 C 39 %
1370 27-02-2020 12:18:18 3.9 C 39 %
1371 27-02-2020 12:28:18 3.8 C 40 %
1372 27-02-2020 12:38:18 3.8 C 40 %
1373 27-02-2020 12:48:17 3.5 C 40 %
1374 27-02-2020 12:58:17 3.4 C 41 %
1375 27-02-2020 13:08:18 3.3 C 41 %
Sensor: Nr:Datum:Temp:Feuchte:
Aussen-T/F 1376 27-02-2020 13:18:18 3.2 C 41 %
1377 27-02-2020 13:28:18 3 C 42 %
1378 27-02-2020 13:38:17 2.8 C 42 %
1379 27-02-2020 13:48:17 2.6 C 43 %
1380 27-02-2020 13:58:17 2.6 C 43 %
1381 27-02-2020 14:08:17 2.6 C 44 %
1382 27-02-2020 14:18:17 2.7 C 44 %
1383 27-02-2020 14:28:17 2.5 C 44 %
1384 27-02-2020 14:38:18 2.5 C 44 %
1385 27-02-2020 14:48:18 2.5 C 44 %
1386 27-02-2020 14:58:18 2.4 C 44 %
1387 27-02-2020 15:08:18 2.3 C 44 %
1388 27-02-2020 15:18:18 2.2 C 44 %
1389 27-02-2020 15:28:18 2.3 C 45 %
1390 27-02-2020 15:38:18 2.1 C 44 %
1391 27-02-2020 15:48:17 2.1 C 45 %
1392 27-02-2020 15:58:17 1.8 C 46 %
1393 27-02-2020 16:08:17 1.6 C 46 %
1394 27-02-2020 16:18:17 1.1 C 46 %
1395 27-02-2020 16:28:17 0.8 C 47 %
1396 27-02-2020 16:38:18 0.4 C 48 %
1397 27-02-2020 16:48:17 0.2 C 48 %
1398 27-02-2020 16:58:17 0.2 C 48 %
1399 27-02-2020 17:08:18 0 C 49 %
1400 27-02-2020 17:18:18 0 C 48 %
Sensor: Nr:Datum:Temp:Feuchte:
Aussen-T/F 1401 27-02-2020 17:28:18 0 C 48 %
1402 27-02-2020 17:38:17 0 C 48 %
1403 27-02-2020 17:48:17 0 C 48 %
1404 27-02-2020 17:58:17 0 C 48 %
1405 27-02-2020 18:08:18 0.1 C 48 %
1406 27-02-2020 18:18:17 0.1 C 48 %
1407 27-02-2020 18:28:17 0.1 C 48 %
1408 27-02-2020 18:38:17 0.1 C 48 %
1409 27-02-2020 18:48:18 0.1 C 48 %
1410 27-02-2020 18:58:18 0.1 C 48 %
1411 27-02-2020 19:08:18 0.3 C 48 %
1412 27-02-2020 19:18:18 0.4 C 48 %
1413 27-02-2020 19:28:18 0.3 C 48 %
1414 27-02-2020 19:38:18 0.6 C 48 %
1415 27-02-2020 19:48:18 0.6 C 48 %
1416 27-02-2020 19:58:18 0.6 C 48 %
1417 27-02-2020 20:08:18 0.7 C 48 %
1418 27-02-2020 20:18:18 0.6 C 48 %
1419 27-02-2020 20:28:18 0.8 C 48 %
1420 27-02-2020 20:38:17 0.6 C 48 %
1421 27-02-2020 20:48:17 0.5 C 48 %
1422 27-02-2020 20:58:17 0.6 C 48 %
1423 27-02-2020 21:08:17 0.6 C 48 %
1424 27-02-2020 21:18:17 0.7 C 47 %
1425 27-02-2020 21:28:17 0.7 C 47 %
Sensor: Nr:Datum:Temp:Feuchte:
Aussen-T/F 1426 27-02-2020 21:38:17 0.7 C 47 %
1427 27-02-2020 21:48:17 0.7 C 47 %
1428 27-02-2020 21:58:17 0.7 C 48 %
1429 27-02-2020 22:08:18 0.7 C 48 %
1430 27-02-2020 22:18:17 0.6 C 48 %
1431 27-02-2020 22:28:18 0.7 C 49 %
1432 27-02-2020 22:38:18 1 C 47 %
1433 27-02-2020 22:48:17 1 C 45 %
1434 27-02-2020 22:58:18 1 C 46 %
1435 27-02-2020 23:08:18 1.1 C 46 %
1436 27-02-2020 23:18:18 1.4 C 46 %
1437 27-02-2020 23:28:18 1.6 C 45 %
1438 27-02-2020 23:38:18 1.5 C 44 %
1439 27-02-2020 23:48:18 1.7 C 44 %
1440 27-02-2020 23:58:18 1.6 C 43 %
1441 28-02-2020 00:08:18 1.7 C 43 %
1442 28-02-2020 00:18:17 1.9 C 43 %
1443 28-02-2020 00:28:17 1.7 C 43 %
1444 28-02-2020 00:38:18 1.6 C 45 %
1445 28-02-2020 00:48:17 1.5 C 45 %
1446 28-02-2020 00:58:17 1.7 C 45 %
1447 28-02-2020 01:08:17 1.4 C 46 %
1448 28-02-2020 01:18:17 1.4 C 46 %
1449 28-02-2020 01:28:17 1.3 C 46 %
1450 28-02-2020 01:38:17 1.5 C 45 %
Sensor: Nr:Datum:Temp:Feuchte:
Aussen-T/F 1451 28-02-2020 01:48:18 1.5 C 45 %
1452 28-02-2020 01:58:18 1.4 C 45 %
1453 28-02-2020 02:08:18 1.4 C 46 %
1454 28-02-2020 02:18:18 1.4 C 45 %
1455 28-02-2020 02:28:18 1.5 C 45 %
1456 28-02-2020 02:38:18 1.4 C 44 %
1457 28-02-2020 02:48:17 1.4 C 44 %
1458 28-02-2020 02:58:18 1.4 C 43 %
1459 28-02-2020 03:08:18 1.5 C 42 %
1460 28-02-2020 03:18:18 1.3 C 43 %
1461 28-02-2020 03:28:18 1.1 C 43 %
1462 28-02-2020 03:38:18 1 C 43 %
1463 28-02-2020 03:48:17 0.9 C 44 %
1464 28-02-2020 03:58:17 1.1 C 44 %
1465 28-02-2020 04:08:17 1.2 C 43 %
1466 28-02-2020 04:18:17 1.3 C 43 %
1467 28-02-2020 04:28:18 1.3 C 43 %
1468 28-02-2020 04:38:18 1.3 C 43 %
1469 28-02-2020 04:48:17 1.3 C 43 %
1470 28-02-2020 04:58:17 1.4 C 42 %
1471 28-02-2020 05:08:17 1.2 C 42 %
1472 28-02-2020 05:18:17 1 C 43 %
1473 28-02-2020 05:28:17 0.9 C 45 %
1474 28-02-2020 05:38:17 1 C 43 %
1475 28-02-2020 05:48:17 1.1 C 42 %
Sensor: Nr:Datum:Temp:Feuchte:
Aussen-T/F 1476 28-02-2020 05:58:17 1.1 C 43 %
1477 28-02-2020 06:08:17 0.8 C 44 %
1478 28-02-2020 06:18:17 0.6 C 45 %
1479 28-02-2020 06:28:17 0.8 C 44 %
1480 28-02-2020 06:38:18 0.8 C 43 %
1481 28-02-2020 06:48:18 0.7 C 44 %
1482 28-02-2020 06:58:18 0.5 C 43 %
1483 28-02-2020 07:08:18 0.6 C 43 %
1484 28-02-2020 07:18:17 0.2 C 45 %
1485 28-02-2020 07:28:17 0.7 C 43 %
1486 28-02-2020 07:38:17 0.7 C 43 %
1487 28-02-2020 07:48:18 0.4 C 44 %
1488 28-02-2020 07:58:18 0.4 C 44 %
1489 28-02-2020 08:08:18 0.2 C 45 %
1490 28-02-2020 08:18:18 0.4 C 44 %
1491 28-02-2020 08:28:18 0.2 C 45 %
1492 28-02-2020 08:38:17 0.7 C 44 %
1493 28-02-2020 08:48:17 0.8 C 43 %
1494 28-02-2020 08:58:17 1.1 C 42 %
1495 28-02-2020 09:08:17 1.4 C 41 %
1496 28-02-2020 09:18:17 1.3 C 42 %
1497 28-02-2020 09:28:17 1.5 C 41 %
1498 28-02-2020 09:38:17 1.7 C 41 %
1499 28-02-2020 09:48:18 1.8 C 41 %
1500 28-02-2020 09:58:18 1.9 C 41 %
Sensor: Nr:Datum:Temp:Feuchte:
Aussen-T/F 1501 28-02-2020 10:08:18 2.1 C 40 %
1502 28-02-2020 10:18:18 2.5 C 40 %
1503 28-02-2020 10:28:18 2.8 C 39 %
1504 28-02-2020 10:38:17 3.2 C 37 %
1505 28-02-2020 10:48:17 3.1 C 37 %
1506 28-02-2020 10:58:17 3.3 C 37 %
1507 28-02-2020 11:08:17 3.6 C 37 %
1508 28-02-2020 11:18:17 3.8 C 37 %
1509 28-02-2020 11:28:17 4.2 C 36 %
1510 28-02-2020 11:38:17 4.5 C 36 %
1511 28-02-2020 11:48:18 3.8 C 37 %
1512 28-02-2020 11:58:18 4.1 C 35 %
1513 28-02-2020 12:08:18 4.3 C 35 %
1514 28-02-2020 12:18:18 4.3 C 36 %
1515 28-02-2020 12:28:18 4.6 C 35 %
1516 28-02-2020 12:38:18 5.1 C 34 %
1517 28-02-2020 12:48:18 6.3 C 33 %
1518 28-02-2020 12:58:18 6.5 C 33 %
1519 28-02-2020 13:08:18 6.8 C 32 %
1520 28-02-2020 13:18:18 7.2 C 31 %
1521 28-02-2020 13:28:18 6.7 C 31 %
1522 28-02-2020 13:38:18 7 C 30 %
1523 28-02-2020 13:48:17 7.8 C 29 %
1524 28-02-2020 13:58:17 8 C 28 %
1525 28-02-2020 14:08:18 8.1 C 27 %
Sensor: Nr:Datum:Temp:Feuchte:
Aussen-T/F 1526 28-02-2020 14:18:18 8 C 28 %
1527 28-02-2020 14:28:18 8.2 C 28 %
1528 28-02-2020 14:38:18 8.1 C 27 %
1529 28-02-2020 14:48:17 8.3 C 27 %
1530 28-02-2020 14:58:18 7.7 C 27 %
1531 28-02-2020 15:08:18 8 C 27 %
1532 28-02-2020 15:18:17 8 C 27 %
1533 28-02-2020 15:28:17 8.8 C 26 %
1534 28-02-2020 15:38:18 8.5 C 25 %
1535 28-02-2020 15:48:18 7.8 C 26 %
1536 28-02-2020 15:58:18 7.8 C 26 %
1537 28-02-2020 16:08:18 7.3 C 26 %
1538 28-02-2020 16:18:18 7.5 C 27 %
1539 28-02-2020 16:28:18 7 C 30 %
1540 28-02-2020 16:38:18 6.8 C 31 %
1541 28-02-2020 16:48:17 6.6 C 32 %
1542 28-02-2020 16:58:18 6.7 C 31 %
1543 28-02-2020 17:08:18 6.1 C 32 %
1544 28-02-2020 17:18:18 5.8 C 35 %
1545 28-02-2020 17:28:18 5.1 C 35 %
1546 28-02-2020 17:38:18 5.2 C 35 %
1547 28-02-2020 17:48:17 4.8 C 37 %
1548 28-02-2020 17:58:18 4.6 C 37 %
1549 28-02-2020 18:08:17 4.5 C 37 %
1550 28-02-2020 18:18:17 4.5 C 37 %
Sensor: Nr:Datum:Temp:Feuchte:
Aussen-T/F 1551 28-02-2020 18:28:17 4.7 C 36 %
1552 28-02-2020 18:38:18 5.1 C 34 %
1553 28-02-2020 18:48:17 5.1 C 33 %
1554 28-02-2020 18:58:17 4.9 C 35 %
1555 28-02-2020 19:08:17 5 C 32 %
1556 28-02-2020 19:18:17 5 C 32 %
1557 28-02-2020 19:28:18 4.8 C 35 %
1558 28-02-2020 19:38:17 5.3 C 33 %
1559 28-02-2020 19:48:17 5 C 34 %
1560 28-02-2020 19:58:17 5 C 34 %
1561 28-02-2020 20:08:17 4.7 C 35 %
1562 28-02-2020 20:18:18 4.9 C 33 %
1563 28-02-2020 20:28:18 4.5 C 35 %
1564 28-02-2020 20:38:18 4.4 C 36 %
1565 28-02-2020 20:48:17 4.1 C 36 %
1566 28-02-2020 20:58:17 4 C 38 %
1567 28-02-2020 21:08:18 3.7 C 40 %
1568 28-02-2020 21:18:18 3.7 C 41 %
1569 28-02-2020 21:28:18 3.8 C 40 %
1570 28-02-2020 21:38:18 3.8 C 40 %
1571 28-02-2020 21:48:17 4.2 C 37 %
1572 28-02-2020 21:58:17 4 C 38 %
1573 28-02-2020 22:08:18 3.9 C 39 %
1574 28-02-2020 22:18:18 3.7 C 40 %
1575 28-02-2020 22:28:18 3.7 C 41 %
Sensor: Nr:Datum:Temp:Feuchte:
Aussen-T/F 1576 28-02-2020 22:38:17 3.6 C 42 %
1577 28-02-2020 22:48:17 3.5 C 44 %
1578 28-02-2020 22:58:17 3.6 C 45 %
1579 28-02-2020 23:08:17 3.4 C 46 %
1580 28-02-2020 23:18:17 3.5 C 46 %
1581 28-02-2020 23:28:18 3.6 C 45 %
1582 28-02-2020 23:38:18 3.8 C 43 %
1583 28-02-2020 23:48:18 3.9 C 44 %
1584 28-02-2020 23:58:18 3.9 C 44 %
1585 29-02-2020 00:08:18 4.3 C 42 %
1586 29-02-2020 00:18:18 4.5 C 42 %
1587 29-02-2020 00:28:18 4.7 C 41 %
1588 29-02-2020 00:38:18 5.1 C 40 %
1589 29-02-2020 00:48:17 5 C 41 %
1590 29-02-2020 00:58:17 4.8 C 42 %
1591 29-02-2020 01:08:18 5 C 42 %
1592 29-02-2020 01:18:18 4.8 C 43 %
1593 29-02-2020 01:28:18 4.9 C 45 %
1594 29-02-2020 01:38:18 5 C 44 %
1595 29-02-2020 01:48:17 5.1 C 45 %
1596 29-02-2020 01:58:17 5.1 C 45 %
1597 29-02-2020 02:08:18 5.2 C 44 %
1598 29-02-2020 02:18:18 5.2 C 45 %
1599 29-02-2020 02:28:18 5.3 C 45 %
1600 29-02-2020 02:38:18 5.6 C 44 %
Sensor: Nr:Datum:Temp:Feuchte:
Aussen-T/F 1601 29-02-2020 02:48:17 5.9 C 43 %
1602 29-02-2020 02:58:17 7 C 41 %
1603 29-02-2020 03:08:18 7.5 C 40 %
1604 29-02-2020 03:18:18 7.8 C 39 %
1605 29-02-2020 03:28:18 8.5 C 38 %
1606 29-02-2020 03:38:18 8.3 C 38 %
1607 29-02-2020 03:48:17 8.8 C 38 %
1608 29-02-2020 03:58:17 8.9 C 38 %
1609 29-02-2020 04:08:18 9.1 C 37 %
1610 29-02-2020 04:18:17 9.4 C 37 %
1611 29-02-2020 04:28:18 9.5 C 37 %
1612 29-02-2020 04:38:18 9 C 37 %
1613 29-02-2020 04:48:17 9.3 C 37 %
1614 29-02-2020 04:58:17 9 C 37 %
1615 29-02-2020 05:08:18 9.1 C 37 %
1616 29-02-2020 05:18:17 9 C 37 %
1617 29-02-2020 05:28:17 9.2 C 36 %
1618 29-02-2020 05:38:17 8.6 C 37 %
1619 29-02-2020 05:48:18 8.8 C 37 %
1620 29-02-2020 05:58:18 9.1 C 36 %
1621 29-02-2020 06:08:17 8.8 C 37 %
1622 29-02-2020 06:18:17 8.4 C 37 %
1623 29-02-2020 06:28:17 8.6 C 37 %
1624 29-02-2020 06:38:17 8.7 C 37 %
1625 29-02-2020 06:48:17 8.6 C 37 %
Sensor: Nr:Datum:Temp:Feuchte:
Aussen-T/F 1626 29-02-2020 06:58:17 8.4 C 37 %
1627 29-02-2020 07:08:17 8.1 C 37 %
1628 29-02-2020 07:18:17 8 C 37 %
1629 29-02-2020 07:28:17 8.3 C 37 %
1630 29-02-2020 07:38:17 7.8 C 38 %
1631 29-02-2020 07:48:17 7.6 C 38 %
1632 29-02-2020 07:58:17 7.3 C 39 %
1633 29-02-2020 08:08:17 7.6 C 38 %
1634 29-02-2020 08:18:17 7.4 C 39 %
1635 29-02-2020 08:28:17 7.5 C 39 %
1636 29-02-2020 08:38:17 7.4 C 39 %
1637 29-02-2020 08:48:17 7.6 C 39 %
1638 29-02-2020 08:58:17 8 C 38 %
1639 29-02-2020 09:08:17 8.3 C 37 %
1640 29-02-2020 09:18:17 8.9 C 36 %
1641 29-02-2020 09:28:17 9.2 C 36 %
1642 29-02-2020 09:38:17 9.6 C 35 %
1643 29-02-2020 09:48:17 10 C 33 %
1644 29-02-2020 09:58:17 10 C 32 %
1645 29-02-2020 10:08:17 10 C 32 %
1646 29-02-2020 10:18:17 9.9 C 33 %
1647 29-02-2020 10:28:17 10.1 C 31 %
1648 29-02-2020 10:38:18 10.4 C 31 %
1649 29-02-2020 10:48:17 10.7 C 31 %
1650 29-02-2020 10:58:17 10.7 C 31 %
Sensor: Nr:Datum:Temp:Feuchte:
Aussen-T/F 1651 29-02-2020 11:08:18 11.1 C 30 %
1652 29-02-2020 11:18:17 12.1 C 30 %
1653 29-02-2020 11:28:17 13.9 C 25 %
1654 29-02-2020 11:38:17 13.7 C 23 %
1655 29-02-2020 11:48:17 13.4 C 24 %
1656 29-02-2020 11:58:17 14.3 C 23 %
1657 29-02-2020 12:08:17 15.5 C 20 %
1658 29-02-2020 12:18:18 15.4 C 20 %
1659 29-02-2020 12:28:18 15.1 C 20 %
1660 29-02-2020 12:38:17 16.2 C 20 %
1661 29-02-2020 12:48:17 15.1 C 20 %
1662 29-02-2020 12:58:17 15.4 C 20 %
1663 29-02-2020 13:08:17 15.5 C 20 %
1664 29-02-2020 13:18:17 15 C 20 %
1665 29-02-2020 13:28:17 14.8 C 20 %
1666 29-02-2020 13:38:18 15.4 C 20 %
1667 29-02-2020 13:48:18 15.6 C 20 %
1668 29-02-2020 13:58:18 16.4 C 20 %
1669 29-02-2020 14:08:18 15.1 C 20 %
1670 29-02-2020 14:18:17 15.1 C 20 %
1671 29-02-2020 14:28:17 14.8 C 21 %
1672 29-02-2020 14:38:17 13.1 C 26 %
1673 29-02-2020 14:48:17 12 C 32 %
1674 29-02-2020 14:58:17 10.5 C 38 %
1675 29-02-2020 15:08:17 10.4 C 39 %
Sensor: Nr:Datum:Temp:Feuchte:
Aussen-T/F 1676 29-02-2020 15:18:17 10.8 C 39 %
1677 29-02-2020 15:28:17 10.6 C 40 %
1678 29-02-2020 15:38:18 10.4 C 39 %
1679 29-02-2020 15:48:17 10.7 C 37 %
1680 29-02-2020 15:58:17 11.3 C 35 %
1681 29-02-2020 16:08:18 12.6 C 32 %
1682 29-02-2020 16:18:17 12 C 32 %
1683 29-02-2020 16:28:18 10.7 C 35 %
1684 29-02-2020 16:38:18 10.1 C 37 %
1685 29-02-2020 16:48:17 9.9 C 37 %
1686 29-02-2020 16:58:17 9.5 C 36 %
1687 29-02-2020 17:08:18 9 C 35 %
1688 29-02-2020 17:18:17 8.9 C 35 %
1689 29-02-2020 17:28:18 8.8 C 34 %
1690 29-02-2020 17:38:18 8.6 C 34 %
1691 29-02-2020 17:48:18 8.6 C 35 %
1692 29-02-2020 17:58:18 8.7 C 34 %
1693 29-02-2020 18:08:18 8.6 C 35 %
1694 29-02-2020 18:18:18 8.2 C 35 %
1695 29-02-2020 18:28:18 8.1 C 35 %
1696 29-02-2020 18:38:18 8 C 35 %
1697 29-02-2020 18:48:17 6.7 C 36 %
1698 29-02-2020 18:58:17 5.9 C 36 %
1699 29-02-2020 19:08:17 5.9 C 37 %
1700 29-02-2020 19:18:18 6 C 36 %
Sensor: Nr:Datum:Temp:Feuchte:
Aussen-T/F 1701 29-02-2020 19:28:18 6.3 C 35 %
1702 29-02-2020 19:38:18 6.7 C 34 %
1703 29-02-2020 19:48:18 6.6 C 34 %
1704 29-02-2020 19:58:18 6.7 C 34 %
1705 29-02-2020 20:08:18 6.6 C 34 %
1706 29-02-2020 20:18:18 6.3 C 34 %
1707 29-02-2020 20:28:18 6.3 C 34 %
1708 29-02-2020 20:38:18 5.9 C 35 %
1709 29-02-2020 20:48:18 5.7 C 35 %
1710 29-02-2020 20:58:18 5.3 C 35 %
1711 29-02-2020 21:08:18 5.2 C 35 %
1712 29-02-2020 21:18:17 5.7 C 34 %
1713 29-02-2020 21:28:17 5 C 35 %
1714 29-02-2020 21:38:17 5 C 35 %
1715 29-02-2020 21:48:17 4.3 C 36 %
1716 29-02-2020 21:58:17 3.9 C 38 %
1717 29-02-2020 22:08:17 3.7 C 38 %
1718 29-02-2020 22:18:18 3.4 C 39 %
1719 29-02-2020 22:28:18 3.3 C 40 %
1720 29-02-2020 22:38:18 3.3 C 41 %
1721 29-02-2020 22:48:17 3.7 C 40 %
1722 29-02-2020 22:58:18 4 C 39 %
1723 29-02-2020 23:08:18 4.2 C 38 %
1724 29-02-2020 23:18:18 4.4 C 38 %
1725 29-02-2020 23:28:18 4.5 C 38 %
Sensor: Nr:Datum:Temp:Feuchte:
Aussen-T/F 1726 29-02-2020 23:38:18 4.7 C 38 %
1727 29-02-2020 23:48:18 5.4 C 36 %
1728 29-02-2020 23:58:18 6.3 C 35 %
1729 01-03-2020 00:08:18 6.6 C 35 %
1730 01-03-2020 00:18:18 6.6 C 35 %
1731 01-03-2020 00:28:18 6.3 C 35 %
1732 01-03-2020 00:38:18 6.2 C 35 %
1733 01-03-2020 00:48:17 6.2 C 35 %
1734 01-03-2020 00:58:18 6.2 C 35 %
1735 01-03-2020 01:08:17 6.1 C 35 %
1736 01-03-2020 01:18:18 6 C 35 %
1737 01-03-2020 01:28:18 5.7 C 35 %
1738 01-03-2020 01:38:18 5.5 C 36 %
1739 01-03-2020 01:48:17 5.8 C 36 %
1740 01-03-2020 01:58:17 5.8 C 35 %
1741 01-03-2020 02:08:17 5.3 C 36 %
1742 01-03-2020 02:18:17 5.8 C 36 %
1743 01-03-2020 02:28:17 5.7 C 36 %
1744 01-03-2020 02:38:17 5.8 C 36 %
1745 01-03-2020 02:48:17 6.2 C 35 %
1746 01-03-2020 02:58:17 6.5 C 35 %
1747 01-03-2020 03:08:18 6.5 C 35 %
1748 01-03-2020 03:18:17 6.6 C 35 %
1749 01-03-2020 03:28:17 6.7 C 35 %
1750 01-03-2020 03:38:18 6.5 C 35 %
Sensor: Nr:Datum:Temp:Feuchte:
Aussen-T/F 1751 01-03-2020 03:48:17 6.4 C 35 %
1752 01-03-2020 03:58:17 6.8 C 35 %
1753 01-03-2020 04:08:17 6.6 C 35 %
1754 01-03-2020 04:18:17 6.9 C 34 %
1755 01-03-2020 04:28:17 7 C 33 %
1756 01-03-2020 04:38:18 6.9 C 34 %
1757 01-03-2020 04:48:17 7.1 C 33 %
1758 01-03-2020 04:58:17 7 C 33 %
1759 01-03-2020 05:08:17 7.1 C 33 %
1760 01-03-2020 05:18:18 6.8 C 34 %
1761 01-03-2020 05:28:18 7.2 C 32 %
1762 01-03-2020 05:38:18 6.8 C 34 %
1763 01-03-2020 05:48:17 6.9 C 34 %
1764 01-03-2020 05:58:18 6.6 C 34 %
1765 01-03-2020 06:08:18 6.7 C 34 %
1766 01-03-2020 06:18:17 6.8 C 34 %
1767 01-03-2020 06:28:17 7 C 33 %
1768 01-03-2020 06:38:17 7.1 C 33 %
1769 01-03-2020 06:48:17 6.4 C 35 %
1770 01-03-2020 06:58:17 5.9 C 36 %
1771 01-03-2020 07:08:17 5.4 C 38 %
1772 01-03-2020 07:18:17 5.4 C 39 %
1773 01-03-2020 07:28:18 5.2 C 39 %
1774 01-03-2020 07:38:18 5.1 C 41 %
1775 01-03-2020 07:48:18 5.2 C 41 %
Sensor: Nr:Datum:Temp:Feuchte:
Aussen-T/F 1776 01-03-2020 07:58:18 5.2 C 42 %
1777 01-03-2020 08:08:18 5.2 C 42 %
1778 01-03-2020 08:18:17 5.3 C 42 %
1779 01-03-2020 08:28:17 5 C 40 %
1780 01-03-2020 08:38:17 4.7 C 41 %
1781 01-03-2020 08:48:17 4 C 41 %
1782 01-03-2020 08:58:17 4 C 42 %
1783 01-03-2020 09:08:17 4.1 C 42 %
1784 01-03-2020 09:18:17 4.3 C 41 %
1785 01-03-2020 09:28:17 4.8 C 40 %
1786 01-03-2020 09:38:17 4.8 C 41 %
1787 01-03-2020 09:48:18 4.7 C 41 %
1788 01-03-2020 09:58:18 4.8 C 41 %
1789 01-03-2020 10:08:17 5.3 C 40 %
1790 01-03-2020 10:18:17 5.7 C 39 %
1791 01-03-2020 10:28:17 7.1 C 36 %
1792 01-03-2020 10:38:17 7.6 C 36 %
1793 01-03-2020 10:48:17 7.8 C 35 %
1794 01-03-2020 10:58:17 8 C 34 %
1795 01-03-2020 11:08:17 8.1 C 33 %
1796 01-03-2020 11:18:17 8.6 C 33 %
1797 01-03-2020 11:28:18 10 C 30 %
1798 01-03-2020 11:38:18 10.2 C 28 %
1799 01-03-2020 11:48:17 8.8 C 29 %
1800 01-03-2020 11:58:17 10.2 C 27 %
Sensor: Nr:Datum:Temp:Feuchte:
Aussen-T/F 1801 01-03-2020 12:08:17 8.9 C 30 %
1802 01-03-2020 12:18:17 9.3 C 28 %
1803 01-03-2020 12:28:17 9.7 C 27 %
1804 01-03-2020 12:38:18 9.2 C 28 %
1805 01-03-2020 12:48:18 11.4 C 26 %
1806 01-03-2020 12:58:18 12.3 C 21 %
1807 01-03-2020 13:08:18 11.4 C 24 %
1808 01-03-2020 13:18:17 10.4 C 25 %
1809 01-03-2020 13:28:17 10.4 C 25 %
1810 01-03-2020 13:38:17 10.6 C 22 %
1811 01-03-2020 13:48:17 10.2 C 22 %
1812 01-03-2020 13:58:17 10.8 C 22 %
1813 01-03-2020 14:08:18 10.1 C 23 %
1814 01-03-2020 14:18:18 9.9 C 25 %
1815 01-03-2020 14:28:18 10.9 C 25 %
1816 01-03-2020 14:38:18 10.5 C 23 %
1817 01-03-2020 14:48:17 10.9 C 25 %
1818 01-03-2020 14:58:18 10.1 C 25 %
1819 01-03-2020 15:08:18 10.1 C 25 %
1820 01-03-2020 15:18:17 12.6 C 20 %
1821 01-03-2020 15:28:17 11.9 C 22 %
1822 01-03-2020 15:38:18 12 C 20 %
1823 01-03-2020 15:48:18 12.8 C 20 %
1824 01-03-2020 15:58:18 11.7 C 21 %
1825 01-03-2020 16:08:18 10.8 C 25 %
Sensor: Nr:Datum:Temp:Feuchte:
Aussen-T/F 1826 01-03-2020 16:18:18 10.5 C 25 %
1827 01-03-2020 16:28:18 10.7 C 25 %
1828 01-03-2020 16:38:18 10.3 C 30 %
1829 01-03-2020 16:48:18 10.2 C 29 %
1830 01-03-2020 16:58:18 9.7 C 31 %
1831 01-03-2020 17:08:18 8.4 C 35 %
1832 01-03-2020 17:18:17 7.8 C 39 %
1833 01-03-2020 17:28:17 7.6 C 42 %
1834 01-03-2020 17:38:17 7.3 C 43 %
1835 01-03-2020 17:48:17 7 C 44 %
1836 01-03-2020 17:58:17 6.9 C 45 %
1837 01-03-2020 18:08:18 6.8 C 45 %
1838 01-03-2020 18:18:18 6.7 C 45 %
1839 01-03-2020 18:28:18 6.7 C 45 %
1840 01-03-2020 18:38:18 6.7 C 45 %
1841 01-03-2020 18:48:18 6.6 C 45 %
1842 01-03-2020 18:58:18 6.5 C 45 %
1843 01-03-2020 19:08:18 6.5 C 45 %
1844 01-03-2020 19:18:17 6.5 C 45 %
1845 01-03-2020 19:28:17 6.4 C 45 %
1846 01-03-2020 19:38:17 6.3 C 45 %
1847 01-03-2020 19:48:17 6.3 C 45 %
1848 01-03-2020 19:58:17 6.2 C 45 %
1849 01-03-2020 20:08:17 6.3 C 45 %
1850 01-03-2020 20:18:17 6.2 C 45 %
Sensor: Nr:Datum:Temp:Feuchte:
Aussen-T/F 1851 01-03-2020 20:28:17 6 C 45 %
1852 01-03-2020 20:38:17 5.8 C 45 %
1853 01-03-2020 20:48:17 5.7 C 45 %
1854 01-03-2020 20:58:17 5.6 C 45 %
1855 01-03-2020 21:08:17 5.6 C 45 %
1856 01-03-2020 21:18:17 5.5 C 45 %
1857 01-03-2020 21:28:17 5.4 C 45 %
1858 01-03-2020 21:38:17 5.7 C 45 %
1859 01-03-2020 21:48:17 5.8 C 45 %
1860 01-03-2020 21:58:17 5.9 C 45 %
1861 01-03-2020 22:08:17 6 C 45 %
1862 01-03-2020 22:18:17 6 C 45 %
1863 01-03-2020 22:28:17 6.1 C 45 %
1864 01-03-2020 22:38:18 6.2 C 45 %
1865 01-03-2020 22:48:17 6.2 C 45 %
1866 01-03-2020 22:58:17 6.3 C 45 %
1867 01-03-2020 23:08:18 6.4 C 45 %
1868 01-03-2020 23:18:18 5.8 C 45 %
1869 01-03-2020 23:28:18 4.3 C 40 %
1870 01-03-2020 23:38:18 3.1 C 41 %
1871 01-03-2020 23:48:18 2.9 C 44 %
1872 01-03-2020 23:58:18 3.1 C 44 %
1873 02-03-2020 00:08:18 3.3 C 44 %
1874 02-03-2020 00:18:17 3.3 C 43 %
1875 02-03-2020 00:28:17 3.5 C 43 %
Sensor: Nr:Datum:Temp:Feuchte:
Aussen-T/F 1876 02-03-2020 00:38:17 3.5 C 43 %
1877 02-03-2020 00:48:17 3.7 C 42 %
1878 02-03-2020 00:58:18 3.6 C 42 %
1879 02-03-2020 01:08:18 3.7 C 42 %
1880 02-03-2020 01:18:17 3.9 C 41 %
1881 02-03-2020 01:28:17 3.8 C 42 %
1882 02-03-2020 01:38:17 3.8 C 41 %
1883 02-03-2020 01:48:18 4 C 40 %
1884 02-03-2020 01:58:18 3.5 C 42 %
1885 02-03-2020 02:08:18 3.7 C 42 %
1886 02-03-2020 02:18:17 3.6 C 42 %
1887 02-03-2020 02:28:17 3.5 C 42 %
1888 02-03-2020 02:38:17 4 C 40 %
1889 02-03-2020 02:48:17 3.8 C 41 %
1890 02-03-2020 02:58:18 3.5 C 42 %
1891 02-03-2020 03:08:18 3.3 C 43 %
1892 02-03-2020 03:18:18 3.4 C 42 %
1893 02-03-2020 03:28:18 2.9 C 44 %
1894 02-03-2020 03:38:18 2.4 C 45 %
1895 02-03-2020 03:48:18 2.9 C 45 %
1896 02-03-2020 03:58:18 2.6 C 45 %
1897 02-03-2020 04:08:18 2.3 C 45 %
1898 02-03-2020 04:18:17 2 C 46 %
1899 02-03-2020 04:28:17 2.2 C 46 %
1900 02-03-2020 04:38:18 2.3 C 47 %
Sensor: Nr:Datum:Temp:Feuchte:
Aussen-T/F 1901 02-03-2020 04:48:18 2.2 C 46 %
1902 02-03-2020 04:58:18 1.9 C 48 %
1903 02-03-2020 05:08:18 1.7 C 48 %
1904 02-03-2020 05:18:17 1.5 C 48 %
1905 02-03-2020 05:28:17 1.3 C 48 %
1906 02-03-2020 05:38:18 1.4 C 48 %
1907 02-03-2020 05:48:18 1.4 C 48 %
1908 02-03-2020 05:58:18 1.3 C 48 %
1909 02-03-2020 06:08:18 1.1 C 48 %
1910 02-03-2020 06:18:18 1.3 C 48 %
1911 02-03-2020 06:28:18 1.3 C 48 %
1912 02-03-2020 06:38:18 1.4 C 48 %
1913 02-03-2020 06:48:17 1.4 C 48 %
1914 02-03-2020 06:58:17 1.5 C 48 %
1915 02-03-2020 07:08:18 1.5 C 48 %
1916 02-03-2020 07:18:18 1.7 C 48 %
1917 02-03-2020 07:28:18 1.8 C 48 %
1918 02-03-2020 07:38:18 2.1 C 47 %
1919 02-03-2020 07:48:18 2.3 C 47 %
1920 02-03-2020 07:58:18 2.5 C 47 %
1921 02-03-2020 08:08:18 2.5 C 47 %
1922 02-03-2020 08:18:17 2.7 C 47 %
1923 02-03-2020 08:28:17 3 C 46 %
1924 02-03-2020 08:38:18 3.2 C 46 %
1925 02-03-2020 08:48:18 3.5 C 46 %
Sensor: Nr:Datum:Temp:Feuchte:
Aussen-T/F 1926 02-03-2020 08:58:18 3.8 C 45 %
1927 02-03-2020 09:08:17 4.1 C 43 %
1928 02-03-2020 09:18:17 4.5 C 42 %
1929 02-03-2020 09:28:17 4.9 C 40 %
1930 02-03-2020 09:38:17 5.4 C 39 %
1931 02-03-2020 09:48:17 5.7 C 39 %
1932 02-03-2020 09:58:17 6.1 C 38 %
1933 02-03-2020 10:08:17 6.6 C 37 %
1934 02-03-2020 10:18:17 6.9 C 36 %
1935 02-03-2020 10:28:17 7.4 C 35 %
1936 02-03-2020 10:38:18 8.2 C 34 %
1937 02-03-2020 10:48:17 8.9 C 34 %
1938 02-03-2020 10:58:17 9 C 33 %
1939 02-03-2020 11:08:17 9 C 33 %
1940 02-03-2020 11:18:17 11.5 C 30 %
1941 02-03-2020 11:28:17 13 C 26 %
1942 02-03-2020 11:38:17 13.9 C 25 %
1943 02-03-2020 11:48:17 11.8 C 27 %
1944 02-03-2020 11:58:17 13.6 C 24 %
1945 02-03-2020 12:08:17 13.3 C 21 %
1946 02-03-2020 12:18:17 13.2 C 21 %
1947 02-03-2020 12:28:17 12.3 C 23 %
1948 02-03-2020 12:38:18 13 C 23 %
1949 02-03-2020 12:48:18 11.8 C 24 %
1950 02-03-2020 12:58:18 11.7 C 25 %
Sensor: Nr:Datum:Temp:Feuchte:
Aussen-T/F 1951 02-03-2020 13:08:18 12.4 C 23 %
1952 02-03-2020 13:18:18 14.7 C 20 %
1953 02-03-2020 13:28:18 14.2 C 20 %
1954 02-03-2020 13:38:17 15.6 C 20 %
1955 02-03-2020 13:48:17 14.1 C 20 %
1956 02-03-2020 13:58:17 12.3 C 21 %
1957 02-03-2020 14:08:17 11.8 C 23 %
1958 02-03-2020 14:18:17 12.1 C 23 %
1959 02-03-2020 14:28:17 11.7 C 25 %
1960 02-03-2020 14:38:17 11.2 C 25 %
1961 02-03-2020 14:48:17 10.9 C 25 %
1962 02-03-2020 14:58:17 10.8 C 26 %
1963 02-03-2020 15:08:18 10.9 C 26 %
1964 02-03-2020 15:18:18 10.9 C 26 %
1965 02-03-2020 15:28:18 10.2 C 26 %
1966 02-03-2020 15:38:18 9.2 C 30 %
1967 02-03-2020 15:48:17 8.7 C 33 %
1968 02-03-2020 15:58:18 8.4 C 36 %
1969 02-03-2020 16:08:18 8 C 40 %
1970 02-03-2020 16:18:18 7.6 C 41 %
1971 02-03-2020 16:28:18 7.3 C 42 %
1972 02-03-2020 16:38:18 7.2 C 43 %
1973 02-03-2020 16:48:17 7.1 C 43 %
1974 02-03-2020 16:58:17 7 C 44 %
1975 02-03-2020 17:08:17 6.9 C 45 %
Sensor: Nr:Datum:Temp:Feuchte:
Aussen-T/F 1976 02-03-2020 17:18:17 6.6 C 45 %
1977 02-03-2020 17:28:17 6.6 C 45 %
1978 02-03-2020 17:38:18 6.4 C 45 %
1979 02-03-2020 17:48:17 6.3 C 45 %
1980 02-03-2020 17:58:18 6.3 C 45 %
1981 02-03-2020 18:08:18 6.2 C 45 %
1982 02-03-2020 18:18:18 6.1 C 45 %
1983 02-03-2020 18:28:18 6 C 45 %
1984 02-03-2020 18:38:18 5.9 C 46 %
1985 02-03-2020 18:48:17 5.9 C 46 %
1986 02-03-2020 18:58:18 5.8 C 46 %
1987 02-03-2020 19:08:18 5.7 C 46 %
1988 02-03-2020 19:18:18 5.7 C 46 %
1989 02-03-2020 19:28:18 5.7 C 46 %
1990 02-03-2020 19:38:18 5.7 C 46 %
1991 02-03-2020 19:48:17 5.7 C 45 %
1992 02-03-2020 19:58:18 5.7 C 45 %
1993 02-03-2020 20:08:18 5.7 C 45 %
1994 02-03-2020 20:18:17 5.7 C 45 %
1995 02-03-2020 20:28:18 5.6 C 45 %
1996 02-03-2020 20:38:18 5.6 C 45 %
1997 02-03-2020 20:48:17 5.6 C 45 %
1998 02-03-2020 20:58:17 5.5 C 45 %
1999 02-03-2020 21:08:18 5.4 C 45 %
2000 02-03-2020 21:18:18 5.4 C 45 %
Sensor: Nr:Datum:Temp:Feuchte:
Aussen-T/F 2001 02-03-2020 21:28:18 5.4 C 45 %
2002 02-03-2020 21:38:18 5.4 C 45 %
2003 02-03-2020 21:48:18 5.4 C 45 %
2004 02-03-2020 21:58:18 5.4 C 45 %
2005 02-03-2020 22:08:18 5.4 C 45 %
2006 02-03-2020 22:18:17 5.4 C 45 %
2007 02-03-2020 22:28:17 5.5 C 45 %
2008 02-03-2020 22:38:17 5.4 C 45 %
2009 02-03-2020 22:48:17 5.5 C 45 %
2010 02-03-2020 22:58:17 5.5 C 45 %
2011 02-03-2020 23:08:17 5.5 C 45 %
2012 02-03-2020 23:18:17 5.2 C 45 %
2013 02-03-2020 23:28:17 5.2 C 45 %
2014 02-03-2020 23:38:17 5.2 C 45 %
2015 02-03-2020 23:48:17 5.3 C 45 %
2016 02-03-2020 23:58:17 5.3 C 45 %
2017 03-03-2020 00:08:18 5.2 C 45 %
2018 03-03-2020 00:18:18 5.1 C 44 %
2019 03-03-2020 00:28:18 5 C 44 %
2020 03-03-2020 00:38:18 5 C 44 %
2021 03-03-2020 00:48:17 4.9 C 45 %
2022 03-03-2020 00:58:17 4.9 C 45 %
2023 03-03-2020 01:08:17 5.1 C 44 %
2024 03-03-2020 01:18:17 5 C 43 %
2025 03-03-2020 01:28:17 5 C 43 %
Sensor: Nr:Datum:Temp:Feuchte:
Aussen-T/F 2026 03-03-2020 01:38:18 4.6 C 41 %
2027 03-03-2020 01:48:17 4.5 C 42 %
2028 03-03-2020 01:58:17 4.4 C 43 %
2029 03-03-2020 02:08:17 4.4 C 43 %
2030 03-03-2020 02:18:17 4.2 C 42 %
2031 03-03-2020 02:28:17 4.1 C 41 %
2032 03-03-2020 02:38:18 4.1 C 41 %
2033 03-03-2020 02:48:18 4.1 C 41 %
2034 03-03-2020 02:58:18 3.9 C 42 %
2035 03-03-2020 03:08:17 3.8 C 41 %
2036 03-03-2020 03:18:17 3.7 C 40 %
2037 03-03-2020 03:28:17 3.4 C 41 %
2038 03-03-2020 03:38:18 3.5 C 41 %
2039 03-03-2020 03:48:18 3 C 42 %
2040 03-03-2020 03:58:18 3.1 C 42 %
2041 03-03-2020 04:08:17 2.8 C 43 %
2042 03-03-2020 04:18:17 3.2 C 41 %
2043 03-03-2020 04:28:17 3.2 C 41 %
2044 03-03-2020 04:38:18 2.9 C 42 %
2045 03-03-2020 04:48:17 2.9 C 43 %
2046 03-03-2020 04:58:18 3.2 C 41 %
2047 03-03-2020 05:08:18 3.1 C 41 %
2048 03-03-2020 05:18:18 2.7 C 43 %
2049 03-03-2020 05:28:18 2.3 C 44 %
2050 03-03-2020 05:38:17 2.6 C 43 %
Sensor: Nr:Datum:Temp:Feuchte:
Aussen-T/F 2051 03-03-2020 05:48:18 2.7 C 42 %
2052 03-03-2020 05:58:18 2.4 C 44 %
2053 03-03-2020 06:08:17 3 C 42 %
2054 03-03-2020 06:18:18 3.1 C 41 %
2055 03-03-2020 06:28:18 2.8 C 42 %
2056 03-03-2020 06:38:17 2.6 C 43 %
2057 03-03-2020 06:48:18 2.7 C 42 %
2058 03-03-2020 06:58:18 2.8 C 42 %
2059 03-03-2020 07:08:18 2.8 C 42 %
2060 03-03-2020 07:18:18 2.6 C 43 %
2061 03-03-2020 07:28:18 2.7 C 43 %
2062 03-03-2020 07:38:18 2.6 C 43 %
2063 03-03-2020 07:48:17 2.5 C 43 %
2064 03-03-2020 07:58:17 2.5 C 43 %
2065 03-03-2020 08:08:18 2.7 C 43 %
2066 03-03-2020 08:18:18 3.3 C 41 %
2067 03-03-2020 08:28:18 3.2 C 41 %
2068 03-03-2020 08:38:17 3.5 C 40 %
2069 03-03-2020 08:48:17 3.6 C 40 %
2070 03-03-2020 08:58:18 3.4 C 40 %
2071 03-03-2020 09:08:18 3.5 C 40 %
2072 03-03-2020 09:18:17 3.2 C 40 %
2073 03-03-2020 09:28:17 3.5 C 40 %
2074 03-03-2020 09:38:17 3.6 C 40 %
2075 03-03-2020 09:48:18 4.1 C 39 %
Sensor: Nr:Datum:Temp:Feuchte:
Aussen-T/F 2076 03-03-2020 09:58:18 4.6 C 38 %
2077 03-03-2020 10:08:18 5.3 C 36 %
2078 03-03-2020 10:18:18 5.1 C 36 %
2079 03-03-2020 10:28:18 5.2 C 35 %
2080 03-03-2020 10:38:18 5.4 C 35 %
2081 03-03-2020 10:48:17 4.9 C 35 %
2082 03-03-2020 10:58:18 5 C 35 %
2083 03-03-2020 11:08:17 5.2 C 35 %
2084 03-03-2020 11:18:17 5.2 C 35 %
2085 03-03-2020 11:28:17 5.3 C 35 %
2086 03-03-2020 11:38:17 5.1 C 35 %
2087 03-03-2020 11:48:17 5.8 C 35 %
2088 03-03-2020 11:58:17 5.7 C 35 %
2089 03-03-2020 12:08:17 6.1 C 35 %
2090 03-03-2020 12:18:17 6.4 C 34 %
2091 03-03-2020 12:28:17 6.6 C 34 %
2092 03-03-2020 12:38:17 6.5 C 33 %
2093 03-03-2020 12:48:17 7.1 C 33 %
2094 03-03-2020 12:58:17 6.6 C 33 %
2095 03-03-2020 13:08:17 6.6 C 33 %
2096 03-03-2020 13:18:17 9.6 C 28 %
2097 03-03-2020 13:28:18 9.8 C 27 %
2098 03-03-2020 13:38:18 8.9 C 27 %
2099 03-03-2020 13:48:17 9.7 C 25 %
2100 03-03-2020 13:58:17 6.2 C 31 %
Sensor: Nr:Datum:Temp:Feuchte:
Aussen-T/F 2101 03-03-2020 14:08:18 5.8 C 35 %
2102 03-03-2020 14:18:18 5.4 C 39 %
2103 03-03-2020 14:28:18 5.7 C 38 %
2104 03-03-2020 14:38:18 5 C 37 %
2105 03-03-2020 14:48:18 4.7 C 39 %
2106 03-03-2020 14:58:18 4.7 C 40 %
2107 03-03-2020 15:08:18 4.7 C 39 %
2108 03-03-2020 15:18:18 6.8 C 36 %
2109 03-03-2020 15:28:18 6.9 C 35 %
2110 03-03-2020 15:38:18 8.9 C 32 %
2111 03-03-2020 15:48:17 8.9 C 30 %
2112 03-03-2020 15:58:17 7.4 C 32 %
2113 03-03-2020 16:08:18 11.8 C 23 %
2114 03-03-2020 16:18:18 9.3 C 25 %
2115 03-03-2020 16:28:18 7.4 C 30 %
2116 03-03-2020 16:38:18 7.2 C 30 %
2117 03-03-2020 16:48:17 7.3 C 31 %
2118 03-03-2020 16:58:17 7.6 C 30 %
2119 03-03-2020 17:08:17 6.7 C 32 %
2120 03-03-2020 17:18:17 6.7 C 33 %
2121 03-03-2020 17:28:18 6.5 C 34 %
2122 03-03-2020 17:38:18 6.4 C 34 %
2123 03-03-2020 17:48:17 6 C 35 %
2124 03-03-2020 17:58:18 5.4 C 36 %
2125 03-03-2020 18:08:18 4.3 C 38 %
Sensor: Nr:Datum:Temp:Feuchte:
Aussen-T/F 2126 03-03-2020 18:18:18 4.4 C 39 %
2127 03-03-2020 18:28:18 4 C 39 %
2128 03-03-2020 18:38:18 3.7 C 41 %
2129 03-03-2020 18:48:17 3.5 C 41 %
2130 03-03-2020 18:58:17 3.6 C 41 %
2131 03-03-2020 19:08:17 3.6 C 40 %
2132 03-03-2020 19:18:17 3.8 C 40 %
2133 03-03-2020 19:28:17 3.1 C 41 %
2134 03-03-2020 19:38:17 3.2 C 41 %
2135 03-03-2020 19:48:17 2.7 C 42 %
2136 03-03-2020 19:58:17 2.3 C 42 %
2137 03-03-2020 20:08:17 1.7 C 45 %
2138 03-03-2020 20:18:17 1.8 C 47 %
2139 03-03-2020 20:28:17 1.7 C 47 %
2140 03-03-2020 20:38:17 1.3 C 46 %
2141 03-03-2020 20:48:17 1.4 C 47 %
2142 03-03-2020 20:58:17 1.3 C 47 %
2143 03-03-2020 21:08:17 1.2 C 47 %
2144 03-03-2020 21:18:17 1.6 C 48 %
2145 03-03-2020 21:28:17 2 C 47 %
2146 03-03-2020 21:38:17 2.1 C 45 %
2147 03-03-2020 21:48:17 2 C 45 %
2148 03-03-2020 21:58:17 2.2 C 45 %
2149 03-03-2020 22:08:17 1.9 C 46 %
2150 03-03-2020 22:18:17 1.5 C 46 %
Sensor: Nr:Datum:Temp:Feuchte:
Aussen-T/F 2151 03-03-2020 22:28:17 1.4 C 47 %
2152 03-03-2020 22:38:17 1.2 C 47 %
2153 03-03-2020 22:48:17 1 C 47 %
2154 03-03-2020 22:58:17 1.2 C 48 %
2155 03-03-2020 23:08:17 1.7 C 48 %
2156 03-03-2020 23:18:18 2.3 C 46 %
2157 03-03-2020 23:28:18 2.4 C 44 %
2158 03-03-2020 23:38:17 2.6 C 44 %
2159 03-03-2020 23:48:17 2.7 C 43 %
2160 03-03-2020 23:58:17 2.8 C 43 %
2161 04-03-2020 00:08:17 3.1 C 42 %
2162 04-03-2020 00:18:18 3 C 41 %
2163 04-03-2020 00:28:18 2.9 C 42 %
2164 04-03-2020 00:38:18 3.1 C 41 %
2165 04-03-2020 00:48:17 2.5 C 42 %
2166 04-03-2020 00:58:17 2.3 C 44 %
2167 04-03-2020 01:08:17 2.6 C 43 %
2168 04-03-2020 01:18:17 2.6 C 42 %
2169 04-03-2020 01:28:17 2.4 C 42 %
2170 04-03-2020 01:38:17 2.5 C 42 %
2171 04-03-2020 01:48:17 2.6 C 42 %
2172 04-03-2020 01:58:17 2.6 C 42 %
2173 04-03-2020 02:08:17 2.7 C 42 %
2174 04-03-2020 02:18:17 2.8 C 42 %
2175 04-03-2020 02:28:18 2.7 C 42 %
Sensor: Nr:Datum:Temp:Feuchte:
Aussen-T/F 2176 04-03-2020 02:38:18 3.2 C 41 %
2177 04-03-2020 02:48:17 3.6 C 40 %
2178 04-03-2020 02:58:18 3.4 C 40 %
2179 04-03-2020 03:08:17 3.3 C 40 %
2180 04-03-2020 03:18:17 3 C 41 %
2181 04-03-2020 03:28:17 3.2 C 41 %
2182 04-03-2020 03:38:17 2.9 C 42 %
2183 04-03-2020 03:48:17 2.6 C 42 %
2184 04-03-2020 03:58:18 2.5 C 44 %
2185 04-03-2020 04:08:18 3.4 C 41 %
2186 04-03-2020 04:18:18 3.4 C 41 %
2187 04-03-2020 04:28:18 3.6 C 40 %
2188 04-03-2020 04:38:18 3.6 C 40 %
2189 04-03-2020 04:48:17 3.7 C 40 %
2190 04-03-2020 04:58:18 3.5 C 41 %
2191 04-03-2020 05:08:18 3.4 C 41 %
2192 04-03-2020 05:18:18 3.2 C 42 %
2193 04-03-2020 05:28:18 3.1 C 44 %
2194 04-03-2020 05:38:18 3.2 C 44 %
2195 04-03-2020 05:48:17 3.2 C 43 %
2196 04-03-2020 05:58:18 3.2 C 43 %
2197 04-03-2020 06:08:18 3.3 C 43 %
2198 04-03-2020 06:18:18 3.3 C 42 %
2199 04-03-2020 06:28:18 3.4 C 42 %
2200 04-03-2020 06:38:18 3.6 C 42 %
Sensor: Nr:Datum:Temp:Feuchte:
Aussen-T/F 2201 04-03-2020 06:48:17 3.6 C 42 %
2202 04-03-2020 06:58:17 3.7 C 41 %
2203 04-03-2020 07:08:17 3.7 C 41 %
2204 04-03-2020 07:18:17 3.9 C 41 %
2205 04-03-2020 07:28:17 3.9 C 41 %
2206 04-03-2020 07:38:18 4 C 40 %
2207 04-03-2020 07:48:17 3.9 C 41 %
2208 04-03-2020 07:58:17 3.7 C 41 %
2209 04-03-2020 08:08:18 3.3 C 42 %
2210 04-03-2020 08:18:17 3.4 C 42 %
2211 04-03-2020 08:28:17 3.8 C 41 %
2212 04-03-2020 08:38:18 3.7 C 41 %
2213 04-03-2020 08:48:18 4.1 C 40 %
2214 04-03-2020 08:58:18 3.7 C 41 %
2215 04-03-2020 09:08:18 3.9 C 41 %
2216 04-03-2020 09:18:18 4.2 C 40 %
2217 04-03-2020 09:28:18 4.6 C 40 %
2218 04-03-2020 09:38:18 4.7 C 39 %
2219 04-03-2020 09:48:17 5.1 C 38 %
2220 04-03-2020 09:58:18 5.4 C 37 %
2221 04-03-2020 10:08:18 5.6 C 37 %
2222 04-03-2020 10:18:18 5.8 C 37 %
2223 04-03-2020 10:28:18 6 C 36 %
2224 04-03-2020 10:38:17 6.6 C 36 %
2225 04-03-2020 10:48:18 6.4 C 36 %
Sensor: Nr:Datum:Temp:Feuchte:
Aussen-T/F 2226 04-03-2020 10:58:18 6.5 C 36 %
2227 04-03-2020 11:08:18 6.8 C 35 %
2228 04-03-2020 11:18:18 7.7 C 34 %
2229 04-03-2020 11:28:18 8.2 C 33 %
2230 04-03-2020 11:38:18 8.3 C 32 %
2231 04-03-2020 11:48:18 8.8 C 32 %
2232 04-03-2020 11:58:18 9.5 C 31 %
2233 04-03-2020 12:08:18 9.6 C 31 %
2234 04-03-2020 12:18:18 10.1 C 30 %
2235 04-03-2020 12:28:18 9 C 30 %
2236 04-03-2020 12:38:18 9.9 C 29 %
2237 04-03-2020 12:48:17 10.9 C 28 %
2238 04-03-2020 12:58:17 9.1 C 29 %
2239 04-03-2020 13:08:17 9.3 C 28 %
2240 04-03-2020 13:18:17 9.4 C 28 %
2241 04-03-2020 13:28:17 10.7 C 27 %
2242 04-03-2020 13:38:18 9.5 C 28 %
2243 04-03-2020 13:48:17 9.6 C 28 %
2244 04-03-2020 13:58:17 10.2 C 26 %
2245 04-03-2020 14:08:18 10.6 C 26 %
2246 04-03-2020 14:18:18 9.6 C 27 %
2247 04-03-2020 14:28:18 9.6 C 27 %
2248 04-03-2020 14:38:18 10.1 C 26 %
2249 04-03-2020 14:48:18 9.5 C 28 %
2250 04-03-2020 14:58:18 9 C 28 %
Sensor: Nr:Datum:Temp:Feuchte:
Aussen-T/F 2251 04-03-2020 15:08:18 9.4 C 28 %
2252 04-03-2020 15:18:18 9.5 C 28 %
2253 04-03-2020 15:28:18 9.7 C 27 %
2254 04-03-2020 15:38:18 9.4 C 29 %
2255 04-03-2020 15:48:17 9.5 C 28 %
2256 04-03-2020 15:58:18 10.6 C 26 %
2257 04-03-2020 16:08:17 10.1 C 26 %
2258 04-03-2020 16:18:17 10.9 C 26 %
2259 04-03-2020 16:28:17 10 C 26 %
2260 04-03-2020 16:38:17 10.9 C 26 %
2261 04-03-2020 16:48:17 11 C 25 %
2262 04-03-2020 16:58:17 11.5 C 25 %
2263 04-03-2020 17:08:17 10.6 C 25 %
2264 04-03-2020 17:18:17 8.8 C 27 %
2265 04-03-2020 17:28:18 8 C 29 %
2266 04-03-2020 17:38:18 7.3 C 32 %
2267 04-03-2020 17:48:17 6.4 C 35 %
2268 04-03-2020 17:58:17 5.7 C 36 %
2269 04-03-2020 18:08:17 5.2 C 37 %
2270 04-03-2020 18:18:17 4.8 C 38 %
2271 04-03-2020 18:28:17 4.7 C 39 %
2272 04-03-2020 18:38:17 4.5 C 39 %
2273 04-03-2020 18:48:17 4.3 C 39 %
2274 04-03-2020 18:58:17 4 C 39 %
2275 04-03-2020 19:08:17 3.9 C 40 %
Sensor: Nr:Datum:Temp:Feuchte:
Aussen-T/F 2276 04-03-2020 19:18:17 4 C 40 %
2277 04-03-2020 19:28:17 4.1 C 40 %
2278 04-03-2020 19:38:17 4.1 C 40 %
2279 04-03-2020 19:48:18 4 C 40 %
2280 04-03-2020 19:58:18 3.7 C 41 %
2281 04-03-2020 20:08:17 3.8 C 41 %
2282 04-03-2020 20:18:17 3.7 C 41 %
2283 04-03-2020 20:28:17 3.4 C 41 %
2284 04-03-2020 20:38:17 3.1 C 42 %
2285 04-03-2020 20:48:18 3.1 C 42 %
2286 04-03-2020 20:58:18 2.9 C 43 %
2287 04-03-2020 21:08:18 3.3 C 42 %
2288 04-03-2020 21:18:18 3 C 42 %
2289 04-03-2020 21:28:18 3.1 C 42 %
2290 04-03-2020 21:38:18 3.3 C 42 %
2291 04-03-2020 21:48:18 3.1 C 42 %
2292 04-03-2020 21:58:18 3.1 C 42 %
2293 04-03-2020 22:08:18 2.6 C 44 %
2294 04-03-2020 22:18:17 2.5 C 45 %
2295 04-03-2020 22:28:17 2.4 C 45 %
2296 04-03-2020 22:38:17 2.9 C 46 %
2297 04-03-2020 22:48:17 2.9 C 46 %
2298 04-03-2020 22:58:17 3.2 C 45 %
2299 04-03-2020 23:08:17 3.3 C 43 %
2300 04-03-2020 23:18:17 3.6 C 43 %
Sensor: Nr:Datum:Temp:Feuchte:
Aussen-T/F 2301 04-03-2020 23:28:18 3.5 C 43 %
2302 04-03-2020 23:38:18 3.6 C 43 %
2303 04-03-2020 23:48:18 3.7 C 45 %
2304 04-03-2020 23:58:18 3.6 C 45 %
2305 05-03-2020 00:08:18 3.6 C 46 %
2306 05-03-2020 00:18:18 3.6 C 46 %
2307 05-03-2020 00:28:18 3.8 C 47 %
2308 05-03-2020 00:38:17 3.8 C 47 %
2309 05-03-2020 00:48:17 3.6 C 47 %
2310 05-03-2020 00:58:17 3.5 C 47 %
2311 05-03-2020 01:08:17 3.5 C 47 %
2312 05-03-2020 01:18:17 3.5 C 47 %
2313 05-03-2020 01:28:17 3.4 C 47 %
2314 05-03-2020 01:38:17 3.4 C 47 %
2315 05-03-2020 01:48:18 3.5 C 47 %
2316 05-03-2020 01:58:18 3.5 C 47 %
2317 05-03-2020 02:08:18 3.6 C 46 %
2318 05-03-2020 02:18:18 3.7 C 46 %
2319 05-03-2020 02:28:18 3.7 C 45 %
2320 05-03-2020 02:38:18 3.7 C 44 %
2321 05-03-2020 02:48:18 3.9 C 43 %
2322 05-03-2020 02:58:18 3.9 C 43 %
2323 05-03-2020 03:08:18 4 C 42 %
2324 05-03-2020 03:18:17 4.1 C 42 %
2325 05-03-2020 03:28:17 4 C 41 %
Sensor: Nr:Datum:Temp:Feuchte:
Aussen-T/F 2326 05-03-2020 03:38:17 4.1 C 41 %
2327 05-03-2020 03:48:17 4 C 42 %
2328 05-03-2020 03:58:17 3.8 C 43 %
2329 05-03-2020 04:08:17 3.8 C 44 %
2330 05-03-2020 04:18:17 3.9 C 44 %
2331 05-03-2020 04:28:18 3.9 C 43 %
2332 05-03-2020 04:38:18 3.9 C 43 %
2333 05-03-2020 04:48:17 3.8 C 43 %
2334 05-03-2020 04:58:18 3.8 C 43 %
2335 05-03-2020 05:08:18 3.9 C 44 %
2336 05-03-2020 05:18:18 3.9 C 44 %
2337 05-03-2020 05:28:18 3.8 C 44 %
2338 05-03-2020 05:38:18 3.9 C 44 %
2339 05-03-2020 05:48:17 3.7 C 44 %
2340 05-03-2020 05:58:18 3.9 C 44 %
2341 05-03-2020 06:08:18 4 C 43 %
2342 05-03-2020 06:18:18 3.9 C 43 %
2343 05-03-2020 06:28:18 4 C 42 %
2344 05-03-2020 06:38:18 4 C 42 %
2345 05-03-2020 06:48:17 4.1 C 42 %
2346 05-03-2020 06:58:17 4.1 C 42 %
2347 05-03-2020 07:08:18 4.2 C 42 %
2348 05-03-2020 07:18:17 4.3 C 42 %
2349 05-03-2020 07:28:18 4.4 C 42 %
2350 05-03-2020 07:38:18 4.5 C 41 %
Sensor: Nr:Datum:Temp:Feuchte:
Aussen-T/F 2351 05-03-2020 07:48:17 4.7 C 41 %
2352 05-03-2020 07:58:17 4.8 C 41 %
2353 05-03-2020 08:08:18 4.7 C 41 %
2354 05-03-2020 08:18:18 4.8 C 41 %
2355 05-03-2020 08:28:18 4.8 C 41 %
2356 05-03-2020 08:38:17 5.1 C 40 %
2357 05-03-2020 08:48:17 5.3 C 40 %
2358 05-03-2020 08:58:17 5.4 C 40 %
2359 05-03-2020 09:08:17 5.9 C 40 %
2360 05-03-2020 09:18:17 6.1 C 38 %
2361 05-03-2020 09:28:17 6.4 C 38 %
2362 05-03-2020 09:38:17 6.4 C 38 %
2363 05-03-2020 09:48:17 6.6 C 38 %
2364 05-03-2020 09:58:17 6.6 C 38 %
2365 05-03-2020 10:08:18 6.9 C 38 %
2366 05-03-2020 10:18:17 6.4 C 38 %
2367 05-03-2020 10:28:17 6.3 C 38 %
2368 05-03-2020 10:38:18 6.2 C 38 %
2369 05-03-2020 10:48:18 6.3 C 39 %
2370 05-03-2020 10:58:18 6.7 C 38 %
2371 05-03-2020 11:08:17 7 C 38 %
2372 05-03-2020 11:18:17 7.1 C 37 %
2373 05-03-2020 11:28:17 7.3 C 37 %
2374 05-03-2020 11:38:18 7.7 C 37 %
2375 05-03-2020 11:48:18 7.8 C 37 %
Sensor: Nr:Datum:Temp:Feuchte:
Aussen-T/F 2376 05-03-2020 11:58:18 7.4 C 37 %
2377 05-03-2020 12:08:17 7.5 C 37 %
2378 05-03-2020 12:18:17 7.5 C 37 %
2379 05-03-2020 12:28:18 6.9 C 38 %
2380 05-03-2020 12:38:18 7.1 C 38 %
2381 05-03-2020 12:48:17 7 C 39 %
2382 05-03-2020 12:58:17 6.8 C 40 %
2383 05-03-2020 13:08:17 6.8 C 41 %
2384 05-03-2020 13:18:17 6.9 C 41 %
2385 05-03-2020 13:28:17 6.9 C 41 %
2386 05-03-2020 13:38:17 7 C 41 %
2387 05-03-2020 13:48:17 6.6 C 42 %
2388 05-03-2020 13:58:17 6.4 C 42 %
2389 05-03-2020 14:08:17 6.4 C 43 %
2390 05-03-2020 14:18:17 6.4 C 43 %
2391 05-03-2020 14:28:17 6.3 C 42 %
2392 05-03-2020 14:38:17 6.3 C 43 %
2393 05-03-2020 14:48:18 6.3 C 44 %
2394 05-03-2020 14:58:18 6.3 C 44 %
2395 05-03-2020 15:08:18 6.3 C 45 %
2396 05-03-2020 15:18:18 6.3 C 45 %
2397 05-03-2020 15:28:18 6.3 C 45 %
2398 05-03-2020 15:38:18 6.4 C 45 %
2399 05-03-2020 15:48:17 6.5 C 45 %
2400 05-03-2020 15:58:17 6.7 C 45 %
Sensor: Nr:Datum:Temp:Feuchte:
Aussen-T/F 2401 05-03-2020 16:08:17 6.7 C 44 %
2402 05-03-2020 16:18:17 6.7 C 43 %
2403 05-03-2020 16:28:17 6.5 C 43 %
2404 05-03-2020 16:38:17 6.4 C 43 %
2405 05-03-2020 16:48:18 6.3 C 44 %
2406 05-03-2020 16:58:18 6.2 C 45 %
2407 05-03-2020 17:08:17 6.1 C 45 %
2408 05-03-2020 17:18:17 6 C 45 %
2409 05-03-2020 17:28:17 6 C 45 %
2410 05-03-2020 17:38:17 5.9 C 46 %
2411 05-03-2020 17:48:17 5.9 C 46 %
2412 05-03-2020 17:58:17 5.9 C 46 %
2413 05-03-2020 18:08:18 5.8 C 46 %
2414 05-03-2020 18:18:17 5.9 C 46 %
2415 05-03-2020 18:28:17 5.8 C 46 %
2416 05-03-2020 18:38:17 5.7 C 46 %
2417 05-03-2020 18:48:17 5.7 C 46 %
2418 05-03-2020 18:58:17 5.7 C 46 %
2419 05-03-2020 19:08:18 5.7 C 46 %
2420 05-03-2020 19:18:17 5.6 C 46 %
2421 05-03-2020 19:28:17 5.5 C 46 %
2422 05-03-2020 19:38:17 5.5 C 46 %
2423 05-03-2020 19:48:18 5.7 C 46 %
2424 05-03-2020 19:58:18 5.7 C 46 %
2425 05-03-2020 20:08:17 5.8 C 45 %
Sensor: Nr:Datum:Temp:Feuchte:
Aussen-T/F 2426 05-03-2020 20:18:17 5.9 C 45 %
2427 05-03-2020 20:28:17 6.1 C 45 %
2428 05-03-2020 20:38:18 6.1 C 45 %
2429 05-03-2020 20:48:17 6 C 45 %
2430 05-03-2020 20:58:17 6 C 45 %
2431 05-03-2020 21:08:18 6.1 C 45 %
2432 05-03-2020 21:18:17 6.1 C 45 %
2433 05-03-2020 21:28:17 6.1 C 45 %
2434 05-03-2020 21:38:17 6.1 C 45 %
2435 05-03-2020 21:48:17 6 C 45 %
2436 05-03-2020 21:58:17 6.1 C 45 %
2437 05-03-2020 22:08:17 6 C 45 %
2438 05-03-2020 22:18:17 6.2 C 45 %
2439 05-03-2020 22:28:17 6.1 C 45 %
2440 05-03-2020 22:38:18 6 C 45 %
2441 05-03-2020 22:48:17 6.1 C 45 %
2442 05-03-2020 22:58:17 6 C 45 %
2443 05-03-2020 23:08:17 6.2 C 45 %
2444 05-03-2020 23:18:17 6.1 C 45 %
2445 05-03-2020 23:28:18 6.1 C 45 %
2446 05-03-2020 23:38:18 6.1 C 45 %
2447 05-03-2020 23:48:18 6.1 C 45 %
2448 05-03-2020 23:58:18 6.1 C 44 %
2449 06-03-2020 00:08:17 6.1 C 44 %
2450 06-03-2020 00:18:17 6.2 C 44 %
Sensor: Nr:Datum:Temp:Feuchte:
Aussen-T/F 2451 06-03-2020 00:28:18 6.2 C 44 %
2452 06-03-2020 00:38:18 6.2 C 44 %
2453 06-03-2020 00:48:17 6.3 C 44 %
2454 06-03-2020 00:58:17 6.4 C 44 %
2455 06-03-2020 01:08:18 6.6 C 44 %
2456 06-03-2020 01:18:17 6.7 C 44 %
2457 06-03-2020 01:28:17 7 C 43 %
2458 06-03-2020 01:38:18 7.1 C 43 %
2459 06-03-2020 01:48:17 7.3 C 40 %
2460 06-03-2020 01:58:18 6.9 C 40 %
2461 06-03-2020 02:08:18 6.9 C 40 %
2462 06-03-2020 02:18:18 6.9 C 40 %
2463 06-03-2020 02:28:18 6.5 C 40 %
2464 06-03-2020 02:38:17 6.4 C 41 %
2465 06-03-2020 02:48:17 6.4 C 40 %
2466 06-03-2020 02:58:17 6.4 C 40 %
2467 06-03-2020 03:08:17 6.2 C 40 %
2468 06-03-2020 03:18:18 6.2 C 40 %
2469 06-03-2020 03:28:18 6.4 C 40 %
2470 06-03-2020 03:38:18 6 C 40 %
2471 06-03-2020 03:48:17 5.8 C 41 %
2472 06-03-2020 03:58:18 5.6 C 43 %
2473 06-03-2020 04:08:17 5.5 C 44 %
2474 06-03-2020 04:18:17 5.4 C 45 %
2475 06-03-2020 04:28:17 5.5 C 45 %
Sensor: Nr:Datum:Temp:Feuchte:
Aussen-T/F 2476 06-03-2020 04:38:18 5.4 C 45 %
2477 06-03-2020 04:48:17 5.4 C 46 %
2478 06-03-2020 04:58:18 5.5 C 45 %
2479 06-03-2020 05:08:18 5.6 C 44 %
2480 06-03-2020 05:18:18 5.6 C 44 %
2481 06-03-2020 05:28:18 5.6 C 45 %
2482 06-03-2020 05:38:18 5.8 C 44 %
2483 06-03-2020 05:48:17 5.8 C 44 %
2484 06-03-2020 05:58:17 5.8 C 44 %
2485 06-03-2020 06:08:17 5.8 C 45 %
2486 06-03-2020 06:18:17 5.8 C 45 %
2487 06-03-2020 06:28:17 5.9 C 45 %
2488 06-03-2020 06:38:18 6 C 44 %
2489 06-03-2020 06:48:17 6 C 44 %
2490 06-03-2020 06:58:17 6.1 C 45 %
2491 06-03-2020 07:08:17 6 C 45 %
2492 06-03-2020 07:18:18 6 C 45 %
2493 06-03-2020 07:28:18 6 C 45 %
2494 06-03-2020 07:38:18 6 C 45 %
2495 06-03-2020 07:48:17 5.9 C 45 %
2496 06-03-2020 07:58:18 5.6 C 43 %
2497 06-03-2020 08:08:17 5.3 C 42 %
2498 06-03-2020 08:18:17 5 C 41 %
2499 06-03-2020 08:28:17 4.9 C 42 %
2500 06-03-2020 08:38:17 4.9 C 43 %
Sensor: Nr:Datum:Temp:Feuchte:
Aussen-T/F 2501 06-03-2020 08:48:18 4.8 C 44 %
2502 06-03-2020 08:58:18 4.8 C 44 %
2503 06-03-2020 09:08:17 4.9 C 44 %
2504 06-03-2020 09:18:17 4.9 C 43 %
2505 06-03-2020 09:28:17 4.9 C 42 %
2506 06-03-2020 09:38:18 4.8 C 42 %
2507 06-03-2020 09:48:18 4.9 C 42 %
2508 06-03-2020 09:58:18 4.8 C 41 %
2509 06-03-2020 10:08:18 4.9 C 41 %
2510 06-03-2020 10:18:18 4.7 C 42 %
2511 06-03-2020 10:28:18 4.7 C 41 %
2512 06-03-2020 10:38:18 4.7 C 41 %
2513 06-03-2020 10:48:17 4.8 C 41 %
2514 06-03-2020 10:58:18 4.9 C 41 %
2515 06-03-2020 11:08:18 5 C 40 %
2516 06-03-2020 11:18:18 5.2 C 40 %
2517 06-03-2020 11:28:18 5.3 C 40 %
2518 06-03-2020 11:38:18 5.1 C 40 %
2519 06-03-2020 11:48:17 4.9 C 41 %
2520 06-03-2020 11:58:17 4.7 C 41 %
2521 06-03-2020 12:08:17 4.6 C 41 %
2522 06-03-2020 12:18:17 4.5 C 41 %
2523 06-03-2020 12:28:17 4.6 C 41 %
2524 06-03-2020 12:38:18 4.4 C 41 %
2525 06-03-2020 12:48:18 4.6 C 41 %
Sensor: Nr:Datum:Temp:Feuchte:
Aussen-T/F 2526 06-03-2020 12:58:18 4.5 C 41 %
2527 06-03-2020 13:08:18 4.7 C 41 %
2528 06-03-2020 13:18:18 5 C 40 %
2529 06-03-2020 13:28:18 5.1 C 40 %
2530 06-03-2020 13:38:17 5.3 C 40 %
2531 06-03-2020 13:48:17 5.1 C 40 %
2532 06-03-2020 13:58:17 5 C 40 %
2533 06-03-2020 14:08:17 4.8 C 41 %
2534 06-03-2020 14:18:17 4.8 C 41 %
2535 06-03-2020 14:28:17 4.8 C 41 %
2536 06-03-2020 14:38:17 5 C 40 %
2537 06-03-2020 14:48:17 5.3 C 40 %
2538 06-03-2020 14:58:17 5.3 C 40 %
2539 06-03-2020 15:08:17 5.4 C 39 %
2540 06-03-2020 15:18:17 5.6 C 39 %
2541 06-03-2020 15:28:17 5.8 C 39 %
2542 06-03-2020 15:38:18 5.9 C 38 %
2543 06-03-2020 15:48:17 5.8 C 38 %
2544 06-03-2020 15:58:17 6 C 37 %
2545 06-03-2020 16:08:17 6.1 C 37 %
2546 06-03-2020 16:18:18 6.1 C 37 %
2547 06-03-2020 16:28:18 6.1 C 37 %
2548 06-03-2020 16:38:18 6.1 C 38 %
2549 06-03-2020 16:48:17 6 C 38 %
2550 06-03-2020 16:58:17 6.3 C 38 %
Sensor: Nr:Datum:Temp:Feuchte:
Aussen-T/F 2551 06-03-2020 17:08:18 6.5 C 38 %
2552 06-03-2020 17:18:18 6.9 C 37 %
2553 06-03-2020 17:28:18 6.8 C 37 %
2554 06-03-2020 17:38:18 6.8 C 37 %
2555 06-03-2020 17:48:17 6.9 C 37 %
2556 06-03-2020 17:58:18 6.7 C 37 %
2557 06-03-2020 18:08:18 6.8 C 37 %
2558 06-03-2020 18:18:18 6.6 C 37 %
2559 06-03-2020 18:28:18 5.9 C 38 %
2560 06-03-2020 18:38:18 6 C 37 %
2561 06-03-2020 18:48:17 6.5 C 37 %
2562 06-03-2020 18:58:18 6.4 C 37 %
2563 06-03-2020 19:08:18 6.5 C 37 %
2564 06-03-2020 19:18:18 6.3 C 37 %
2565 06-03-2020 19:28:18 6.2 C 37 %
2566 06-03-2020 19:38:18 6.3 C 37 %
2567 06-03-2020 19:48:17 6.3 C 37 %
2568 06-03-2020 19:58:17 6.2 C 36 %
2569 06-03-2020 20:08:18 6.2 C 36 %
2570 06-03-2020 20:18:18 5.9 C 37 %
2571 06-03-2020 20:28:18 5.7 C 37 %
2572 06-03-2020 20:38:18 5.5 C 38 %
2573 06-03-2020 20:48:17 5.4 C 38 %
2574 06-03-2020 20:58:17 5.2 C 38 %
2575 06-03-2020 21:08:17 5.3 C 38 %
Sensor: Nr:Datum:Temp:Feuchte:
Aussen-T/F 2576 06-03-2020 21:18:18 5.1 C 38 %
2577 06-03-2020 21:28:18 5.2 C 38 %
2578 06-03-2020 21:38:18 5.2 C 37 %
2579 06-03-2020 21:48:17 4.9 C 38 %
2580 06-03-2020 21:58:18 4.7 C 39 %
2581 06-03-2020 22:08:17 4.8 C 39 %
2582 06-03-2020 22:18:17 5.1 C 38 %
2583 06-03-2020 22:28:18 5 C 38 %
2584 06-03-2020 22:38:18 5.2 C 38 %
2585 06-03-2020 22:48:17 5.3 C 38 %
2586 06-03-2020 22:58:17 5.3 C 38 %
2587 06-03-2020 23:08:18 5.2 C 38 %
2588 06-03-2020 23:18:18 5.3 C 38 %
2589 06-03-2020 23:28:18 5.2 C 37 %
2590 06-03-2020 23:38:17 5.3 C 37 %
2591 06-03-2020 23:48:17 5.3 C 37 %
2592 06-03-2020 23:58:17 5.1 C 38 %
2593 07-03-2020 00:08:17 5.1 C 37 %
2594 07-03-2020 00:18:18 5.1 C 37 %
2595 07-03-2020 00:28:18 5.1 C 37 %
2596 07-03-2020 00:38:17 5.1 C 37 %
2597 07-03-2020 00:48:17 5.1 C 37 %
2598 07-03-2020 00:58:17 5 C 37 %
2599 07-03-2020 01:08:17 5.1 C 38 %
2600 07-03-2020 01:18:17 5.1 C 38 %
Sensor: Nr:Datum:Temp:Feuchte:
Aussen-T/F 2601 07-03-2020 01:28:17 5.1 C 38 %
2602 07-03-2020 01:38:18 5.3 C 37 %
2603 07-03-2020 01:48:18 5.2 C 38 %
2604 07-03-2020 01:58:18 5.2 C 38 %
2605 07-03-2020 02:08:18 5.2 C 38 %
2606 07-03-2020 02:18:17 5.3 C 38 %
2607 07-03-2020 02:28:17 5.1 C 38 %
2608 07-03-2020 02:38:17 5.1 C 38 %
2609 07-03-2020 02:48:18 5.1 C 38 %
2610 07-03-2020 02:58:18 5.1 C 38 %
2611 07-03-2020 03:08:18 4.9 C 39 %
2612 07-03-2020 03:18:17 4.7 C 40 %
2613 07-03-2020 03:28:17 4.6 C 40 %
2614 07-03-2020 03:38:17 4.7 C 40 %
2615 07-03-2020 03:48:17 4.7 C 39 %
2616 07-03-2020 03:58:17 4.6 C 40 %
2617 07-03-2020 04:08:18 4.6 C 40 %
2618 07-03-2020 04:18:17 4.7 C 40 %
2619 07-03-2020 04:28:17 4.8 C 39 %
2620 07-03-2020 04:38:18 4.7 C 39 %
2621 07-03-2020 04:48:17 4.7 C 39 %
2622 07-03-2020 04:58:18 4.7 C 39 %
2623 07-03-2020 05:08:18 4.6 C 39 %
2624 07-03-2020 05:18:18 4.6 C 39 %
2625 07-03-2020 05:28:18 4.6 C 39 %
Sensor: Nr:Datum:Temp:Feuchte:
Aussen-T/F 2626 07-03-2020 05:38:18 4.6 C 39 %
2627 07-03-2020 05:48:18 4.5 C 39 %
2628 07-03-2020 05:58:18 4.5 C 39 %
2629 07-03-2020 06:08:17 4.6 C 39 %
2630 07-03-2020 06:18:17 4.6 C 40 %
2631 07-03-2020 06:28:17 4.6 C 39 %
2632 07-03-2020 06:38:18 4.5 C 39 %
2633 07-03-2020 06:48:17 4.5 C 39 %
2634 07-03-2020 06:58:17 4.5 C 39 %
2635 07-03-2020 07:08:18 4.5 C 39 %
2636 07-03-2020 07:18:18 4.4 C 39 %
2637 07-03-2020 07:28:18 4.4 C 39 %
2638 07-03-2020 07:38:18 4.3 C 40 %
2639 07-03-2020 07:48:17 4 C 40 %
2640 07-03-2020 07:58:17 3.7 C 42 %
2641 07-03-2020 08:08:18 3.7 C 45 %
2642 07-03-2020 08:18:17 3.7 C 44 %
2643 07-03-2020 08:28:17 3.9 C 43 %
2644 07-03-2020 08:38:17 4 C 42 %
2645 07-03-2020 08:48:17 4.4 C 41 %
2646 07-03-2020 08:58:17 4.7 C 40 %
2647 07-03-2020 09:08:17 5.1 C 38 %
2648 07-03-2020 09:18:17 5.3 C 37 %
2649 07-03-2020 09:28:17 5.6 C 37 %
2650 07-03-2020 09:38:17 5.7 C 36 %
Sensor: Nr:Datum:Temp:Feuchte:
Aussen-T/F 2651 07-03-2020 09:48:17 6.3 C 36 %
2652 07-03-2020 09:58:17 6.5 C 35 %
2653 07-03-2020 10:08:17 6.1 C 35 %
2654 07-03-2020 10:18:17 5.7 C 36 %
2655 07-03-2020 10:28:17 6.5 C 36 %
2656 07-03-2020 10:38:17 6.4 C 35 %
2657 07-03-2020 10:48:18 7 C 35 %
2658 07-03-2020 10:58:18 7.3 C 35 %
2659 07-03-2020 11:08:18 7.3 C 34 %
2660 07-03-2020 11:18:18 7.8 C 32 %
2661 07-03-2020 11:28:18 7.6 C 31 %
2662 07-03-2020 11:38:18 7.8 C 30 %
2663 07-03-2020 11:48:17 9.7 C 25 %
2664 07-03-2020 11:58:18 7.6 C 29 %
2665 07-03-2020 12:08:18 7.6 C 29 %
2666 07-03-2020 12:18:18 7.8 C 29 %
2667 07-03-2020 12:28:18 7.8 C 30 %
2668 07-03-2020 12:38:17 8.2 C 30 %
2669 07-03-2020 12:48:18 7.5 C 28 %
2670 07-03-2020 12:58:18 8 C 27 %
2671 07-03-2020 13:08:17 9.5 C 26 %
2672 07-03-2020 13:18:18 9.1 C 21 %
2673 07-03-2020 13:28:18 9.1 C 25 %
2674 07-03-2020 13:38:18 8.8 C 26 %
2675 07-03-2020 13:48:18 9.1 C 26 %
Sensor: Nr:Datum:Temp:Feuchte:
Aussen-T/F 2676 07-03-2020 13:58:18 10 C 25 %
2677 07-03-2020 14:08:17 8.9 C 26 %
2678 07-03-2020 14:18:17 10.5 C 20 %
2679 07-03-2020 14:28:17 10.1 C 20 %
2680 07-03-2020 14:38:18 9.8 C 20 %
2681 07-03-2020 14:48:17 11.6 C 20 %
2682 07-03-2020 14:58:18 11.5 C 20 %
2683 07-03-2020 15:08:18 12.4 C 20 %
2684 07-03-2020 15:18:18 11.1 C 20 %
2685 07-03-2020 15:28:18 9.8 C 20 %
2686 07-03-2020 15:38:17 12.4 C 20 %
2687 07-03-2020 15:48:18 10.8 C 20 %
2688 07-03-2020 15:58:18 9.5 C 20 %
2689 07-03-2020 16:08:17 11.7 C 20 %
2690 07-03-2020 16:18:17 10.4 C 20 %
2691 07-03-2020 16:28:17 9.6 C 20 %
2692 07-03-2020 16:38:17 9.1 C 20 %
2693 07-03-2020 16:48:18 8.9 C 20 %
2694 07-03-2020 16:58:18 8.8 C 20 %
2695 07-03-2020 17:08:18 8.8 C 20 %
2696 07-03-2020 17:18:18 8.5 C 20 %
2697 07-03-2020 17:28:18 8.5 C 20 %
2698 07-03-2020 17:38:18 8.6 C 25 %
2699 07-03-2020 17:48:18 8.4 C 25 %
2700 07-03-2020 17:58:18 7.1 C 31 %
Sensor: Nr:Datum:Temp:Feuchte:
Aussen-T/F 2701 07-03-2020 18:08:17 6.7 C 31 %
2702 07-03-2020 18:19:17 6.3 C 33 %
2703 07-03-2020 18:28:17 5.7 C 34 %
2704 07-03-2020 18:38:18 5.2 C 35 %
2705 07-03-2020 18:48:18 4.9 C 36 %
2706 07-03-2020 18:58:18 5 C 35 %
2707 07-03-2020 19:08:17 4.9 C 36 %
2708 07-03-2020 19:18:17 4.7 C 36 %
2709 07-03-2020 19:28:17 4.4 C 37 %
2710 07-03-2020 19:38:17 4.5 C 37 %
2711 07-03-2020 19:48:18 4.7 C 37 %
2712 07-03-2020 19:58:18 4.5 C 37 %
2713 07-03-2020 20:08:18 4.2 C 38 %
2714 07-03-2020 20:18:17 4.4 C 38 %
2715 07-03-2020 20:28:17 4.6 C 39 %
2716 07-03-2020 20:38:17 4.6 C 38 %
2717 07-03-2020 20:49:17 4.5 C 38 %
2718 07-03-2020 20:59:17 4.5 C 38 %
2719 07-03-2020 21:09:17 4.5 C 39 %
2720 07-03-2020 21:18:17 4.5 C 39 %
2721 07-03-2020 21:28:17 4.7 C 39 %
2722 07-03-2020 21:38:17 4.7 C 38 %
2723 07-03-2020 21:48:18 5.1 C 37 %
2724 07-03-2020 21:58:18 5.1 C 37 %
2725 07-03-2020 22:08:17 5.3 C 37 %
Sensor: Nr:Datum:Temp:Feuchte:
Aussen-T/F 2726 07-03-2020 22:18:18 5.5 C 36 %
2727 07-03-2020 22:28:18 5.6 C 36 %
2728 07-03-2020 22:38:17 5.5 C 36 %
2729 07-03-2020 22:49:17 5.5 C 36 %
2730 07-03-2020 22:59:17 5.8 C 36 %
2731 07-03-2020 23:09:17 6.2 C 35 %
2732 07-03-2020 23:19:17 6.3 C 35 %
2733 07-03-2020 23:29:17 6.4 C 35 %
2734 07-03-2020 23:38:17 6.4 C 34 %
2735 07-03-2020 23:48:18 6.4 C 34 %
2736 07-03-2020 23:58:18 6.5 C 34 %
2737 08-03-2020 00:08:18 6.5 C 35 %
2738 08-03-2020 00:18:18 6.4 C 35 %
2739 08-03-2020 00:28:18 6.8 C 35 %
2740 08-03-2020 00:38:18 6.7 C 35 %
2741 08-03-2020 00:48:18 7 C 34 %
2742 08-03-2020 00:58:18 7.1 C 35 %
2743 08-03-2020 01:08:17 7.1 C 34 %
2744 08-03-2020 01:18:17 6.8 C 35 %
2745 08-03-2020 01:28:17 6.9 C 35 %
2746 08-03-2020 01:38:17 6.7 C 35 %
2747 08-03-2020 01:49:17 6.9 C 35 %
2748 08-03-2020 01:59:17 6.7 C 35 %
2749 08-03-2020 02:09:17 6.8 C 35 %
2750 08-03-2020 02:19:17 7 C 35 %
Sensor: Nr:Datum:Temp:Feuchte:
Aussen-T/F 2751 08-03-2020 02:29:17 6.9 C 35 %
2752 08-03-2020 02:38:17 7.3 C 35 %
2753 08-03-2020 02:48:17 7.2 C 35 %
2754 08-03-2020 02:58:17 7 C 35 %
2755 08-03-2020 03:08:18 7.1 C 35 %
2756 08-03-2020 03:19:17 6.7 C 35 %
2757 08-03-2020 03:29:17 6.4 C 36 %
2758 08-03-2020 03:39:17 6.5 C 36 %
2759 08-03-2020 03:48:18 6.6 C 36 %
2760 08-03-2020 03:58:18 6.8 C 35 %
2761 08-03-2020 04:08:18 7 C 35 %
2762 08-03-2020 04:19:17 7.1 C 35 %
2763 08-03-2020 04:29:17 7 C 35 %
2764 08-03-2020 04:39:17 7 C 35 %
2765 08-03-2020 04:49:17 6.8 C 35 %
2766 08-03-2020 04:59:17 6.9 C 35 %
2767 08-03-2020 05:09:17 7 C 35 %
2768 08-03-2020 05:19:17 6.8 C 35 %
2769 08-03-2020 05:29:17 6.5 C 35 %
2770 08-03-2020 05:39:17 6.8 C 35 %
2771 08-03-2020 05:49:17 6.6 C 35 %
2772 08-03-2020 05:59:17 6.4 C 35 %
2773 08-03-2020 06:09:17 6.4 C 35 %
2774 08-03-2020 06:19:17 5.9 C 37 %
2775 08-03-2020 06:29:18 6.3 C 36 %
Sensor: Nr:Datum:Temp:Feuchte:
Aussen-T/F 2776 08-03-2020 06:39:18 6.6 C 36 %
2777 08-03-2020 06:49:17 6.9 C 36 %
2778 08-03-2020 06:59:17 7.3 C 35 %
2779 08-03-2020 07:09:17 7.4 C 35 %
2780 08-03-2020 07:19:17 7.7 C 35 %
2781 08-03-2020 07:29:17 7.8 C 35 %
2782 08-03-2020 07:39:17 7.9 C 35 %
2783 08-03-2020 07:49:17 8 C 35 %
2784 08-03-2020 07:59:17 8.2 C 34 %
2785 08-03-2020 08:09:17 8.2 C 34 %
2786 08-03-2020 08:19:17 8.4 C 34 %
2787 08-03-2020 08:29:17 8.6 C 34 %
2788 08-03-2020 08:39:17 8.5 C 35 %
2789 08-03-2020 08:49:17 8.6 C 34 %
2790 08-03-2020 08:59:17 8.6 C 34 %
2791 08-03-2020 09:09:17 8.6 C 34 %
2792 08-03-2020 09:19:17 8.8 C 34 %
2793 08-03-2020 09:29:18 9.2 C 33 %
2794 08-03-2020 09:39:17 9.6 C 33 %
2795 08-03-2020 09:49:17 10.3 C 32 %
2796 08-03-2020 09:59:17 10.2 C 32 %
2797 08-03-2020 10:09:17 9.9 C 33 %
2798 08-03-2020 10:19:17 10.1 C 32 %
2799 08-03-2020 10:29:17 10.1 C 32 %
2800 08-03-2020 10:39:17 11.4 C 30 %
Sensor: Nr:Datum:Temp:Feuchte:
Aussen-T/F 2801 08-03-2020 10:49:17 11.2 C 30 %
2802 08-03-2020 10:59:18 11.9 C 30 %
2803 08-03-2020 11:09:17 11.9 C 28 %
2804 08-03-2020 11:19:16 11.9 C 29 %
2805 08-03-2020 11:29:16 12.1 C 27 %
2806 08-03-2020 11:39:17 12.5 C 26 %
2807 08-03-2020 11:49:16 12.5 C 26 %
2808 08-03-2020 11:59:16 13.4 C 25 %
2809 08-03-2020 12:09:17 12.8 C 25 %
2810 08-03-2020 12:19:17 13.1 C 25 %
2811 08-03-2020 12:29:17 13.5 C 23 %
2812 08-03-2020 12:39:17 13.2 C 24 %
2813 08-03-2020 12:49:17 14.1 C 22 %
2814 08-03-2020 12:59:18 13.2 C 22 %
2815 08-03-2020 13:09:17 12.2 C 25 %
2816 08-03-2020 13:19:16 12.3 C 25 %
2817 08-03-2020 13:29:16 12.3 C 25 %
2818 08-03-2020 13:39:16 12.7 C 25 %
2819 08-03-2020 13:49:17 12.7 C 25 %
2820 08-03-2020 13:59:17 12.5 C 25 %
2821 08-03-2020 14:09:17 13 C 23 %
2822 08-03-2020 14:19:16 12.8 C 25 %
2823 08-03-2020 14:29:16 12.5 C 25 %
2824 08-03-2020 14:39:16 12.8 C 25 %
2825 08-03-2020 14:49:16 12.7 C 25 %
Sensor: Nr:Datum:Temp:Feuchte:
Aussen-T/F 2826 08-03-2020 14:59:16 12.3 C 25 %
2827 08-03-2020 15:09:16 12.8 C 25 %
2828 08-03-2020 15:19:17 12.5 C 25 %
2829 08-03-2020 15:29:17 12.5 C 25 %
2830 08-03-2020 15:39:17 12.1 C 25 %
2831 08-03-2020 15:49:17 12 C 25 %
2832 08-03-2020 15:59:17 12.1 C 25 %
2833 08-03-2020 16:09:17 12.5 C 25 %
2834 08-03-2020 16:19:17 12.4 C 25 %
2835 08-03-2020 16:29:17 12.1 C 25 %
2836 08-03-2020 16:39:17 12.2 C 26 %
2837 08-03-2020 16:49:17 12.2 C 26 %
2838 08-03-2020 16:59:17 12 C 26 %
2839 08-03-2020 17:09:17 12.6 C 25 %
2840 08-03-2020 17:19:17 12.4 C 26 %
2841 08-03-2020 17:29:17 12.3 C 26 %
2842 08-03-2020 17:39:17 12 C 26 %
2843 08-03-2020 17:49:16 11.5 C 28 %
2844 08-03-2020 17:59:16 11.4 C 29 %
2845 08-03-2020 18:09:17 11.1 C 30 %
2846 08-03-2020 18:19:17 10.9 C 31 %
2847 08-03-2020 18:29:18 10.7 C 31 %
2848 08-03-2020 18:39:17 10.4 C 32 %
2849 08-03-2020 18:49:16 10.2 C 32 %
2850 08-03-2020 18:59:16 9.6 C 35 %
Sensor: Nr:Datum:Temp:Feuchte:
Aussen-T/F 2851 08-03-2020 19:09:17 9.9 C 35 %
2852 08-03-2020 19:19:16 9.8 C 35 %
2853 08-03-2020 19:29:16 9.6 C 36 %
2854 08-03-2020 19:39:17 9.4 C 36 %
2855 08-03-2020 19:49:16 9.5 C 36 %
2856 08-03-2020 19:59:16 9.5 C 36 %
2857 08-03-2020 20:09:16 9.4 C 36 %
2858 08-03-2020 20:19:16 9.3 C 36 %
2859 08-03-2020 20:29:16 9.3 C 37 %
2860 08-03-2020 20:39:17 9.2 C 37 %
2861 08-03-2020 20:49:16 9.2 C 37 %
2862 08-03-2020 20:59:16 9 C 37 %
2863 08-03-2020 21:09:17 9 C 37 %
2864 08-03-2020 21:19:17 9.1 C 37 %
2865 08-03-2020 21:29:17 9.1 C 37 %
2866 08-03-2020 21:39:17 9.3 C 37 %
2867 08-03-2020 21:49:17 9.3 C 37 %
2868 08-03-2020 21:59:17 9.3 C 37 %
2869 08-03-2020 22:09:17 9.3 C 37 %
2870 08-03-2020 22:19:16 9.3 C 37 %
2871 08-03-2020 22:29:16 8.9 C 37 %
2872 08-03-2020 22:39:17 9.2 C 37 %
2873 08-03-2020 22:49:16 8.7 C 37 %
2874 08-03-2020 22:59:16 9 C 37 %
2875 08-03-2020 23:09:16 9.3 C 37 %
Sensor: Nr:Datum:Temp:Feuchte:
Aussen-T/F 2876 08-03-2020 23:19:16 7.9 C 39 %
2877 08-03-2020 23:29:16 7.8 C 40 %
2878 08-03-2020 23:39:16 7.9 C 40 %
2879 08-03-2020 23:49:16 7.9 C 39 %
2880 08-03-2020 23:59:16 7.6 C 40 %
2881 09-03-2020 00:09:17 7.3 C 41 %
2882 09-03-2020 00:19:16 7 C 41 %
2883 09-03-2020 00:29:16 6.8 C 43 %
2884 09-03-2020 00:39:16 6.8 C 44 %
2885 09-03-2020 00:49:16 6.6 C 45 %
2886 09-03-2020 00:59:16 6.8 C 43 %
2887 09-03-2020 01:09:16 6.9 C 42 %
2888 09-03-2020 01:19:16 6.9 C 43 %
2889 09-03-2020 01:29:16 6.7 C 45 %
2890 09-03-2020 01:39:16 6.8 C 43 %
2891 09-03-2020 01:49:16 6.9 C 42 %
2892 09-03-2020 01:59:16 6.7 C 43 %
2893 09-03-2020 02:09:16 6.6 C 43 %
2894 09-03-2020 02:19:16 6.4 C 44 %
2895 09-03-2020 02:29:16 6.3 C 45 %
2896 09-03-2020 02:39:16 6.2 C 45 %
2897 09-03-2020 02:49:17 6.4 C 45 %
2898 09-03-2020 02:59:17 6.4 C 44 %
2899 09-03-2020 03:09:17 6.1 C 44 %
2900 09-03-2020 03:19:17 6.5 C 43 %
Sensor: Nr:Datum:Temp:Feuchte:
Aussen-T/F 2901 09-03-2020 03:29:17 6.7 C 42 %
2902 09-03-2020 03:39:17 6.4 C 42 %
2903 09-03-2020 03:49:17 6.2 C 43 %
2904 09-03-2020 03:59:17 6 C 44 %
2905 09-03-2020 04:09:17 5.7 C 45 %
2906 09-03-2020 04:19:17 5.5 C 45 %
2907 09-03-2020 04:29:17 6.1 C 44 %
2908 09-03-2020 04:39:18 6.3 C 43 %
2909 09-03-2020 04:49:17 6.2 C 43 %
2910 09-03-2020 04:59:17 6.2 C 43 %
2911 09-03-2020 05:09:18 6.2 C 43 %
2912 09-03-2020 05:19:17 6 C 43 %
2913 09-03-2020 05:29:17 5.8 C 44 %
2914 09-03-2020 05:39:17 5.6 C 44 %
2915 09-03-2020 05:49:17 5.2 C 44 %
2916 09-03-2020 05:59:17 5.3 C 43 %
2917 09-03-2020 06:09:17 5 C 43 %
2918 09-03-2020 06:19:17 5.2 C 43 %
2919 09-03-2020 06:29:17 5.1 C 43 %
2920 09-03-2020 06:39:18 5.4 C 42 %
2921 09-03-2020 06:49:17 5.7 C 41 %
2922 09-03-2020 06:59:18 5.7 C 41 %
2923 09-03-2020 07:09:18 5 C 42 %
2924 09-03-2020 07:19:18 4.7 C 44 %
2925 09-03-2020 07:29:18 5.7 C 42 %
Sensor: Nr:Datum:Temp:Feuchte:
Aussen-T/F 2926 09-03-2020 07:39:17 5.8 C 41 %
2927 09-03-2020 07:49:17 5.4 C 41 %
2928 09-03-2020 07:59:17 5.4 C 42 %
2929 09-03-2020 08:09:17 5.4 C 42 %
2930 09-03-2020 08:19:17 5 C 43 %
2931 09-03-2020 08:29:17 5.3 C 43 %
2932 09-03-2020 08:39:18 6.1 C 41 %
2933 09-03-2020 08:49:17 6.8 C 40 %
2934 09-03-2020 08:59:17 7.3 C 38 %
2935 09-03-2020 09:09:17 7.4 C 38 %
2936 09-03-2020 09:19:17 7.7 C 37 %
2937 09-03-2020 09:29:17 8 C 37 %
2938 09-03-2020 09:39:17 8.1 C 37 %
2939 09-03-2020 09:49:17 8 C 37 %
2940 09-03-2020 09:59:17 7.8 C 37 %
2941 09-03-2020 10:09:17 8.3 C 36 %
2942 09-03-2020 10:19:17 8.2 C 36 %
2943 09-03-2020 10:29:17 8.5 C 36 %
2944 09-03-2020 10:39:17 8.6 C 36 %
2945 09-03-2020 10:49:17 8.5 C 36 %
2946 09-03-2020 10:59:17 8.1 C 36 %
2947 09-03-2020 11:09:17 8.1 C 36 %
2948 09-03-2020 11:19:17 8.5 C 36 %
2949 09-03-2020 11:29:17 9.7 C 34 %
2950 09-03-2020 11:39:17 9.1 C 34 %
Sensor: Nr:Datum:Temp:Feuchte:
Aussen-T/F 2951 09-03-2020 11:49:17 10.1 C 33 %
2952 09-03-2020 11:59:17 10.6 C 29 %
2953 09-03-2020 12:09:18 10.9 C 27 %
2954 09-03-2020 12:19:18 11.2 C 25 %
2955 09-03-2020 12:29:18 10.1 C 26 %
2956 09-03-2020 12:39:18 10.3 C 26 %
2957 09-03-2020 12:49:17 11 C 25 %
2958 09-03-2020 12:59:17 10.1 C 26 %
2959 09-03-2020 13:09:17 11.6 C 26 %
2960 09-03-2020 13:19:17 9.8 C 29 %
2961 09-03-2020 13:29:17 9.5 C 31 %
2962 09-03-2020 13:39:17 10.5 C 30 %
2963 09-03-2020 13:49:17 10.4 C 29 %
2964 09-03-2020 13:59:17 10.5 C 29 %
2965 09-03-2020 14:09:17 11.6 C 27 %
2966 09-03-2020 14:19:17 11.5 C 26 %
2967 09-03-2020 14:29:17 10.4 C 27 %
2968 09-03-2020 14:39:17 11.6 C 26 %
2969 09-03-2020 14:49:17 12.8 C 20 %
2970 09-03-2020 14:59:17 13.6 C 20 %
2971 09-03-2020 15:09:18 12.6 C 20 %
2972 09-03-2020 15:19:18 13 C 20 %
2973 09-03-2020 15:29:18 12.9 C 20 %
2974 09-03-2020 15:39:18 14.4 C 20 %
2975 09-03-2020 15:49:17 14 C 20 %
Sensor: Nr:Datum:Temp:Feuchte:
Aussen-T/F 2976 09-03-2020 15:59:17 12.5 C 20 %
2977 09-03-2020 16:09:18 11.2 C 20 %
2978 09-03-2020 16:19:17 10.5 C 22 %
2979 09-03-2020 16:29:17 10.7 C 23 %
2980 09-03-2020 16:39:17 13.3 C 20 %
2981 09-03-2020 16:49:17 14.2 C 20 %
2982 09-03-2020 16:59:18 14.1 C 20 %
2983 09-03-2020 17:09:18 12.2 C 20 %
2984 09-03-2020 17:19:17 10.1 C 20 %
2985 09-03-2020 17:29:17 9.9 C 25 %
2986 09-03-2020 17:39:18 9.8 C 25 %
2987 09-03-2020 17:49:17 9.7 C 27 %
2988 09-03-2020 17:59:18 9.7 C 26 %
2989 09-03-2020 18:09:18 9.5 C 27 %
2990 09-03-2020 18:19:17 9.2 C 28 %
2991 09-03-2020 18:29:17 8.9 C 30 %
2992 09-03-2020 18:39:17 8.7 C 30 %
2993 09-03-2020 18:49:17 8.1 C 30 %
2994 09-03-2020 18:59:17 7.7 C 32 %
2995 09-03-2020 19:09:18 7.5 C 33 %
2996 09-03-2020 19:19:17 7.4 C 33 %
2997 09-03-2020 19:29:17 7.6 C 33 %
2998 09-03-2020 19:39:17 7.4 C 34 %
2999 09-03-2020 19:49:18 7.3 C 33 %
3000 09-03-2020 19:59:18 7.2 C 34 %
Sensor: Nr:Datum:Temp:Feuchte:
Aussen-T/F 3001 09-03-2020 20:09:17 6.5 C 36 %
3002 09-03-2020 20:19:17 6.9 C 35 %
3003 09-03-2020 20:29:17 6.5 C 36 %
3004 09-03-2020 20:39:18 6.5 C 36 %
3005 09-03-2020 20:49:18 6.7 C 36 %
3006 09-03-2020 20:59:18 6.8 C 35 %
3007 09-03-2020 21:09:17 5.9 C 37 %
3008 09-03-2020 21:19:17 5.6 C 38 %
3009 09-03-2020 21:29:17 5.5 C 38 %
3010 09-03-2020 21:39:17 5.4 C 38 %
3011 09-03-2020 21:49:18 5.4 C 38 %
3012 09-03-2020 21:59:18 5.6 C 38 %
3013 09-03-2020 22:09:18 5.4 C 38 %
3014 09-03-2020 22:19:17 5.6 C 38 %
3015 09-03-2020 22:29:17 5.8 C 38 %
3016 09-03-2020 22:39:17 5.8 C 38 %
3017 09-03-2020 22:49:17 5.4 C 38 %
3018 09-03-2020 22:59:17 5.1 C 39 %
3019 09-03-2020 23:09:18 5.1 C 39 %
3020 09-03-2020 23:19:17 5.2 C 39 %
3021 09-03-2020 23:29:17 5 C 39 %
3022 09-03-2020 23:39:17 4.6 C 40 %
3023 09-03-2020 23:49:17 4.6 C 41 %
3024 09-03-2020 23:59:17 4.5 C 41 %
3025 10-03-2020 00:09:17 4.6 C 41 %
Sensor: Nr:Datum:Temp:Feuchte:
Aussen-T/F 3026 10-03-2020 00:19:18 4.7 C 41 %
3027 10-03-2020 00:29:18 5.1 C 40 %
3028 10-03-2020 00:39:18 5.5 C 40 %
3029 10-03-2020 00:49:18 5.5 C 40 %
3030 10-03-2020 00:59:18 5.8 C 39 %
3031 10-03-2020 01:09:18 5.8 C 39 %
3032 10-03-2020 01:19:17 5.9 C 39 %
3033 10-03-2020 01:29:18 6 C 38 %
3034 10-03-2020 01:39:18 6.3 C 38 %
3035 10-03-2020 01:49:17 6.7 C 37 %
3036 10-03-2020 01:59:17 6.6 C 37 %
3037 10-03-2020 02:09:18 6.7 C 37 %
3038 10-03-2020 02:19:17 6.6 C 37 %
3039 10-03-2020 02:29:18 6.7 C 37 %
3040 10-03-2020 02:39:18 6.8 C 37 %
3041 10-03-2020 02:49:17 6.9 C 37 %
3042 10-03-2020 02:59:17 7.1 C 37 %
3043 10-03-2020 03:09:18 6.6 C 38 %
3044 10-03-2020 03:19:18 6.5 C 38 %
3045 10-03-2020 03:29:18 6.3 C 39 %
3046 10-03-2020 03:39:18 6.2 C 39 %
3047 10-03-2020 03:49:17 6 C 40 %
3048 10-03-2020 03:59:17 6 C 40 %
3049 10-03-2020 04:09:17 5.8 C 40 %
3050 10-03-2020 04:19:17 5.8 C 40 %
Sensor: Nr:Datum:Temp:Feuchte:
Aussen-T/F 3051 10-03-2020 04:29:17 5.6 C 41 %
3052 10-03-2020 04:39:17 5.9 C 40 %
3053 10-03-2020 04:49:17 5.6 C 41 %
3054 10-03-2020 04:59:17 5.5 C 41 %
3055 10-03-2020 05:09:17 5.5 C 41 %
3056 10-03-2020 05:19:17 5.2 C 41 %
3057 10-03-2020 05:29:18 5.2 C 41 %
3058 10-03-2020 05:39:18 5.1 C 42 %
3059 10-03-2020 05:49:18 5.1 C 42 %
3060 10-03-2020 05:59:18 5 C 42 %
3061 10-03-2020 06:09:17 4.9 C 43 %
3062 10-03-2020 06:19:17 5 C 42 %
3063 10-03-2020 06:29:17 4.9 C 43 %
3064 10-03-2020 06:39:18 5 C 44 %
3065 10-03-2020 06:49:17 5.1 C 43 %
3066 10-03-2020 06:59:17 5 C 43 %
3067 10-03-2020 07:09:18 5.1 C 42 %
3068 10-03-2020 07:19:18 5.3 C 42 %
3069 10-03-2020 07:29:18 5.8 C 41 %
3070 10-03-2020 07:39:18 5.8 C 42 %
3071 10-03-2020 07:49:18 5.7 C 41 %
3072 10-03-2020 07:59:18 5.9 C 41 %
3073 10-03-2020 08:09:18 6 C 41 %
3074 10-03-2020 08:19:18 6 C 41 %
3075 10-03-2020 08:29:18 6.3 C 41 %
Sensor: Nr:Datum:Temp:Feuchte:
Aussen-T/F 3076 10-03-2020 08:39:18 6.5 C 40 %
3077 10-03-2020 08:49:18 6.3 C 41 %
3078 10-03-2020 08:59:18 6.5 C 41 %
3079 10-03-2020 09:09:17 6.6 C 41 %
3080 10-03-2020 09:19:17 6.6 C 41 %
3081 10-03-2020 09:29:17 6.7 C 42 %
3082 10-03-2020 09:39:17 6.8 C 42 %
3083 10-03-2020 09:49:17 6.9 C 42 %
3084 10-03-2020 09:59:17 7.1 C 41 %
3085 10-03-2020 10:09:18 7.2 C 41 %
3086 10-03-2020 10:19:18 7.3 C 41 %
3087 10-03-2020 10:29:18 7.4 C 41 %
3088 10-03-2020 10:39:18 7.5 C 41 %
3089 10-03-2020 10:49:18 7.8 C 41 %
3090 10-03-2020 10:59:18 7.9 C 41 %
3091 10-03-2020 11:09:18 8.1 C 41 %
3092 10-03-2020 11:19:18 8.2 C 40 %
3093 10-03-2020 11:29:18 8.4 C 40 %
3094 10-03-2020 11:39:18 8.5 C 41 %
3095 10-03-2020 11:49:17 8.7 C 41 %
3096 10-03-2020 11:59:17 8.9 C 41 %
3097 10-03-2020 12:09:17 8.9 C 40 %
3098 10-03-2020 12:19:17 8.9 C 41 %
3099 10-03-2020 12:29:18 9 C 41 %
3100 10-03-2020 12:39:18 9.1 C 41 %
Sensor: Nr:Datum:Temp:Feuchte:
Aussen-T/F 3101 10-03-2020 12:49:17 9.1 C 41 %
3102 10-03-2020 12:59:17 9.3 C 41 %
3103 10-03-2020 13:09:18 9.4 C 40 %
3104 10-03-2020 13:19:17 9.5 C 41 %
3105 10-03-2020 13:29:18 9.5 C 41 %
3106 10-03-2020 13:39:18 9.5 C 41 %
3107 10-03-2020 13:49:17 9.7 C 41 %
3108 10-03-2020 13:59:18 9.8 C 41 %
3109 10-03-2020 14:09:18 9.9 C 41 %
3110 10-03-2020 14:19:18 10.2 C 40 %
3111 10-03-2020 14:29:18 10.5 C 40 %
3112 10-03-2020 14:39:18 10.8 C 40 %
3113 10-03-2020 14:49:17 10.9 C 40 %
3114 10-03-2020 14:59:17 11.3 C 38 %
3115 10-03-2020 15:09:18 11.3 C 38 %
3116 10-03-2020 15:19:18 11.4 C 38 %
3117 10-03-2020 15:29:18 11.8 C 38 %
3118 10-03-2020 15:39:18 12.3 C 37 %
3119 10-03-2020 15:49:17 12.3 C 36 %
3120 10-03-2020 15:59:18 12.5 C 37 %
3121 10-03-2020 16:09:18 13 C 35 %
3122 10-03-2020 16:19:18 12.6 C 36 %
3123 10-03-2020 16:29:18 12.5 C 37 %
3124 10-03-2020 16:39:18 12.4 C 37 %
3125 10-03-2020 16:49:17 12.5 C 37 %
Sensor: Nr:Datum:Temp:Feuchte:
Aussen-T/F 3126 10-03-2020 16:59:18 12.5 C 37 %
3127 10-03-2020 17:09:18 12.7 C 37 %
3128 10-03-2020 17:19:17 12.6 C 37 %
3129 10-03-2020 17:29:18 12.7 C 37 %
3130 10-03-2020 17:39:18 12.6 C 37 %
3131 10-03-2020 17:49:17 12.5 C 37 %
3132 10-03-2020 17:59:18 12.5 C 38 %
3133 10-03-2020 18:09:18 12.3 C 38 %
3134 10-03-2020 18:19:17 12.3 C 38 %
3135 10-03-2020 18:29:18 12.3 C 38 %
3136 10-03-2020 18:39:18 12.5 C 38 %
3137 10-03-2020 18:49:17 12.4 C 38 %
3138 10-03-2020 18:59:17 12.3 C 38 %
3139 10-03-2020 19:09:18 12.5 C 38 %
3140 10-03-2020 19:19:17 12.3 C 38 %
3141 10-03-2020 19:29:17 12.4 C 38 %
3142 10-03-2020 19:39:17 12.5 C 38 %
3143 10-03-2020 19:49:17 12.5 C 38 %
3144 10-03-2020 19:59:17 12.5 C 38 %
3145 10-03-2020 20:09:17 12.5 C 38 %
3146 10-03-2020 20:19:17 12.7 C 38 %
3147 10-03-2020 20:29:18 12.8 C 38 %
3148 10-03-2020 20:39:18 12.8 C 38 %
3149 10-03-2020 20:49:17 12.9 C 38 %
3150 10-03-2020 20:59:17 13.1 C 37 %
Sensor: Nr:Datum:Temp:Feuchte:
Aussen-T/F 3151 10-03-2020 21:09:18 12.8 C 38 %
3152 10-03-2020 21:19:17 13.2 C 37 %
3153 10-03-2020 21:29:18 13.2 C 37 %
3154 10-03-2020 21:39:18 13.2 C 37 %
3155 10-03-2020 21:49:17 13.2 C 37 %
3156 10-03-2020 21:59:18 13.1 C 37 %
3157 10-03-2020 22:09:18 12.8 C 39 %
3158 10-03-2020 22:19:18 12.5 C 40 %
3159 10-03-2020 22:29:18 12.5 C 40 %
3160 10-03-2020 22:39:18 12.7 C 40 %
3161 10-03-2020 22:49:17 12.5 C 40 %
3162 10-03-2020 22:59:17 12.5 C 40 %
3163 10-03-2020 23:09:18 12.8 C 40 %
3164 10-03-2020 23:19:18 12.8 C 39 %
3165 10-03-2020 23:29:18 12.8 C 39 %
3166 10-03-2020 23:39:18 12.8 C 39 %
3167 10-03-2020 23:49:17 12.9 C 39 %
3168 10-03-2020 23:59:17 13.1 C 37 %
3169 11-03-2020 00:09:17 13.5 C 36 %
3170 11-03-2020 00:19:17 13.5 C 36 %
3171 11-03-2020 00:29:17 13.6 C 36 %
3172 11-03-2020 00:39:18 13.7 C 36 %
3173 11-03-2020 00:49:17 13.7 C 36 %
3174 11-03-2020 00:59:17 13.7 C 36 %
3175 11-03-2020 01:09:17 13.5 C 36 %
Sensor: Nr:Datum:Temp:Feuchte:
Aussen-T/F 3176 11-03-2020 01:19:17 13.4 C 37 %
3177 11-03-2020 01:29:17 13.4 C 37 %
3178 11-03-2020 01:39:17 13.3 C 37 %
3179 11-03-2020 01:49:17 13 C 38 %
3180 11-03-2020 01:59:17 12.9 C 39 %
3181 11-03-2020 02:09:17 13.2 C 38 %
3182 11-03-2020 02:19:17 13.1 C 38 %
3183 11-03-2020 02:29:17 13.1 C 38 %
3184 11-03-2020 02:39:17 13.2 C 37 %
3185 11-03-2020 02:49:17 13.4 C 37 %
3186 11-03-2020 02:59:17 13.5 C 37 %
3187 11-03-2020 03:09:17 13.1 C 37 %
3188 11-03-2020 03:19:18 13 C 38 %
3189 11-03-2020 03:29:18 13.2 C 37 %
3190 11-03-2020 03:39:18 13.4 C 37 %
3191 11-03-2020 03:49:17 13.5 C 37 %
3192 11-03-2020 03:59:18 13.4 C 37 %
3193 11-03-2020 04:09:18 13.4 C 37 %
3194 11-03-2020 04:19:18 13.4 C 37 %
3195 11-03-2020 04:29:18 13.4 C 37 %
3196 11-03-2020 04:39:17 13.4 C 37 %
3197 11-03-2020 04:49:17 13.5 C 36 %
3198 11-03-2020 04:59:17 13.4 C 37 %
3199 11-03-2020 05:09:17 13.1 C 37 %
3200 11-03-2020 05:19:17 13.1 C 37 %
Sensor: Nr:Datum:Temp:Feuchte:
Aussen-T/F 3201 11-03-2020 05:29:17 13.1 C 37 %
3202 11-03-2020 05:39:17 13.1 C 37 %
3203 11-03-2020 05:49:18 13 C 37 %
3204 11-03-2020 05:59:18 12.9 C 38 %
3205 11-03-2020 06:09:18 13.1 C 37 %
3206 11-03-2020 06:19:17 13.2 C 37 %
3207 11-03-2020 06:29:17 13.2 C 36 %
3208 11-03-2020 06:39:18 13.2 C 36 %
3209 11-03-2020 06:49:17 13.6 C 36 %
3210 11-03-2020 06:59:17 13.4 C 36 %
3211 11-03-2020 07:09:17 13.2 C 36 %
3212 11-03-2020 07:19:17 13.1 C 36 %
3213 11-03-2020 07:29:17 13.1 C 36 %
3214 11-03-2020 07:39:17 13.1 C 36 %
3215 11-03-2020 07:49:17 13.1 C 36 %
3216 11-03-2020 07:59:18 12.9 C 37 %
3217 11-03-2020 08:09:18 12.8 C 37 %
3218 11-03-2020 08:19:18 12.6 C 37 %
3219 11-03-2020 08:29:18 12.6 C 37 %
3220 11-03-2020 08:39:18 12.7 C 37 %
3221 11-03-2020 08:49:18 12.8 C 37 %
3222 11-03-2020 08:59:18 12.7 C 37 %
3223 11-03-2020 09:09:18 13 C 36 %
3224 11-03-2020 09:19:18 13.2 C 36 %
3225 11-03-2020 09:29:18 13.6 C 36 %
Sensor: Nr:Datum:Temp:Feuchte:
Aussen-T/F 3226 11-03-2020 09:39:18 13.8 C 36 %
3227 11-03-2020 09:49:18 14 C 35 %
3228 11-03-2020 09:59:18 13.9 C 35 %
3229 11-03-2020 10:09:18 13.7 C 36 %
3230 11-03-2020 10:19:17 13.8 C 36 %
3231 11-03-2020 10:29:17 14 C 35 %
3232 11-03-2020 10:39:18 14.3 C 35 %
3233 11-03-2020 10:49:18 14.4 C 35 %
3234 11-03-2020 10:59:18 14.5 C 35 %
3235 11-03-2020 11:09:17 14.9 C 35 %
3236 11-03-2020 11:19:17 14.6 C 35 %
3237 11-03-2020 11:29:17 15.8 C 33 %
3238 11-03-2020 11:39:17 15.8 C 33 %
3239 11-03-2020 11:49:17 15.6 C 33 %
3240 11-03-2020 11:59:17 15.9 C 33 %
3241 11-03-2020 12:09:18 15.9 C 33 %
3242 11-03-2020 12:19:18 16.4 C 32 %
3243 11-03-2020 12:29:18 16.5 C 32 %
3244 11-03-2020 12:39:18 16.3 C 32 %
3245 11-03-2020 12:49:18 16.5 C 32 %
3246 11-03-2020 12:59:18 16.3 C 32 %
3247 11-03-2020 13:09:17 16 C 32 %
3248 11-03-2020 13:19:17 17 C 31 %
3249 11-03-2020 13:29:17 16.8 C 31 %
3250 11-03-2020 13:39:17 17.7 C 31 %
Sensor: Nr:Datum:Temp:Feuchte:
Aussen-T/F 3251 11-03-2020 13:49:17 15.8 C 32 %
3252 11-03-2020 13:59:17 16.1 C 31 %
3253 11-03-2020 14:09:17 16.3 C 31 %
3254 11-03-2020 14:19:17 16.1 C 31 %
3255 11-03-2020 14:29:17 16.6 C 31 %
3256 11-03-2020 14:39:17 15.7 C 31 %
3257 11-03-2020 14:49:17 16.2 C 31 %
3258 11-03-2020 14:59:17 15.8 C 31 %
3259 11-03-2020 15:09:17 16.5 C 31 %
3260 11-03-2020 15:19:17 15.6 C 32 %
3261 11-03-2020 15:29:18 16.4 C 31 %
3262 11-03-2020 15:39:18 17.5 C 30 %
3263 11-03-2020 15:49:17 15.1 C 32 %
3264 11-03-2020 15:59:17 15.6 C 33 %
3265 11-03-2020 16:09:18 15 C 33 %
3266 11-03-2020 16:19:18 14.7 C 35 %
3267 11-03-2020 16:29:18 15.1 C 34 %
3268 11-03-2020 16:39:17 14.5 C 35 %
3269 11-03-2020 16:49:18 14.5 C 35 %
3270 11-03-2020 16:59:18 14.5 C 34 %
3271 11-03-2020 17:09:18 14.1 C 35 %
3272 11-03-2020 17:19:18 14 C 35 %
3273 11-03-2020 17:29:18 13.2 C 38 %
3274 11-03-2020 17:39:17 13.2 C 38 %
3275 11-03-2020 17:49:18 13.2 C 38 %
Sensor: Nr:Datum:Temp:Feuchte:
Aussen-T/F 3276 11-03-2020 17:59:18 13.4 C 37 %
3277 11-03-2020 18:09:18 13.5 C 37 %
3278 11-03-2020 18:19:17 13.5 C 36 %
3279 11-03-2020 18:29:17 13.3 C 36 %
3280 11-03-2020 18:39:17 13.4 C 36 %
3281 11-03-2020 18:49:17 13.5 C 36 %
3282 11-03-2020 18:59:17 13.4 C 36 %
3283 11-03-2020 19:09:17 13.2 C 37 %
3284 11-03-2020 19:19:17 13.1 C 37 %
3285 11-03-2020 19:29:17 13.1 C 37 %
3286 11-03-2020 19:39:18 13.4 C 36 %
3287 11-03-2020 19:49:17 13.3 C 36 %
3288 11-03-2020 19:59:17 13.2 C 36 %
3289 11-03-2020 20:09:17 13.4 C 36 %
3290 11-03-2020 20:19:17 13.6 C 36 %
3291 11-03-2020 20:29:18 13.6 C 36 %
3292 11-03-2020 20:39:18 13.6 C 36 %
3293 11-03-2020 20:49:17 13.5 C 36 %
3294 11-03-2020 20:59:17 13.3 C 36 %
3295 11-03-2020 21:09:18 13.2 C 36 %
3296 11-03-2020 21:19:17 13.4 C 36 %
3297 11-03-2020 21:29:17 13.5 C 36 %
3298 11-03-2020 21:39:18 13.7 C 36 %
3299 11-03-2020 21:49:17 14 C 35 %
3300 11-03-2020 21:59:17 14 C 35 %
Sensor: Nr:Datum:Temp:Feuchte:
Aussen-T/F 3301 11-03-2020 22:09:18 14.1 C 34 %
3302 11-03-2020 22:19:18 14 C 34 %
3303 11-03-2020 22:29:18 13.9 C 35 %
3304 11-03-2020 22:39:17 13.9 C 35 %
3305 11-03-2020 22:49:18 13.8 C 35 %
3306 11-03-2020 22:59:18 13.8 C 35 %
3307 11-03-2020 23:09:18 13.8 C 34 %
3308 11-03-2020 23:19:18 13.9 C 34 %
3309 11-03-2020 23:29:18 13.8 C 34 %
3310 11-03-2020 23:39:17 13.8 C 34 %
3311 11-03-2020 23:49:17 13.8 C 34 %
3312 11-03-2020 23:59:17 13.7 C 34 %
3313 12-03-2020 00:09:17 13.6 C 34 %
3314 12-03-2020 00:19:17 13.6 C 34 %
3315 12-03-2020 00:29:17 13.6 C 34 %
3316 12-03-2020 00:39:18 13.7 C 34 %
3317 12-03-2020 00:49:17 13.8 C 34 %
3318 12-03-2020 00:59:17 13.9 C 34 %
3319 12-03-2020 01:09:18 13.9 C 34 %
3320 12-03-2020 01:19:17 13.8 C 34 %
3321 12-03-2020 01:29:17 13.9 C 34 %
3322 12-03-2020 01:39:18 13.8 C 34 %
3323 12-03-2020 01:49:17 13.7 C 34 %
3324 12-03-2020 01:59:17 13.8 C 34 %
3325 12-03-2020 02:09:18 13.7 C 34 %
Sensor: Nr:Datum:Temp:Feuchte:
Aussen-T/F 3326 12-03-2020 02:19:17 13.7 C 34 %
3327 12-03-2020 02:29:18 13.6 C 34 %
3328 12-03-2020 02:39:18 13.6 C 33 %
3329 12-03-2020 02:49:18 13.6 C 33 %
3330 12-03-2020 02:59:18 13.5 C 33 %
3331 12-03-2020 03:09:18 13.5 C 33 %
3332 12-03-2020 03:19:18 13.5 C 32 %
3333 12-03-2020 03:29:18 13.5 C 32 %
3334 12-03-2020 03:39:17 13.4 C 32 %
3335 12-03-2020 03:49:17 13.2 C 32 %
3336 12-03-2020 03:59:17 13.1 C 32 %
3337 12-03-2020 04:09:17 13.1 C 32 %
3338 12-03-2020 04:19:17 13.1 C 32 %
3339 12-03-2020 04:29:17 13 C 32 %
3340 12-03-2020 04:39:17 13 C 32 %
3341 12-03-2020 04:49:17 13 C 32 %
3342 12-03-2020 04:59:17 13 C 32 %
3343 12-03-2020 05:09:17 12.7 C 33 %
3344 12-03-2020 05:19:17 12.7 C 33 %
3345 12-03-2020 05:29:17 12.6 C 34 %
3346 12-03-2020 05:39:18 12.5 C 34 %
3347 12-03-2020 05:49:17 12.5 C 34 %
3348 12-03-2020 05:59:17 12.3 C 34 %
3349 12-03-2020 06:09:18 12.2 C 34 %
3350 12-03-2020 06:19:18 12.1 C 34 %
Sensor: Nr:Datum:Temp:Feuchte:
Aussen-T/F 3351 12-03-2020 06:29:18 12 C 34 %
3352 12-03-2020 06:39:18 12 C 35 %
3353 12-03-2020 06:49:17 12 C 35 %
3354 12-03-2020 06:59:17 11.9 C 35 %
3355 12-03-2020 07:09:18 11.9 C 35 %
3356 12-03-2020 07:19:18 12 C 35 %
3357 12-03-2020 07:29:18 12 C 35 %
3358 12-03-2020 07:39:18 12 C 35 %
3359 12-03-2020 07:49:17 11.2 C 38 %
3360 12-03-2020 07:59:17 11 C 39 %
3361 12-03-2020 08:09:18 10.8 C 41 %
3362 12-03-2020 08:19:18 10.7 C 42 %
3363 12-03-2020 08:29:18 10.4 C 40 %
3364 12-03-2020 08:39:18 10.1 C 39 %
3365 12-03-2020 08:49:17 10.4 C 38 %
3366 12-03-2020 08:59:17 10.2 C 38 %
3367 12-03-2020 09:09:18 10.4 C 38 %
3368 12-03-2020 09:19:17 10.5 C 37 %
3369 12-03-2020 09:29:17 10.9 C 36 %
3370 12-03-2020 09:39:17 10.8 C 36 %
3371 12-03-2020 09:49:18 11 C 36 %
3372 12-03-2020 09:59:18 11.5 C 35 %
3373 12-03-2020 10:09:18 11.7 C 34 %
3374 12-03-2020 10:19:17 11.5 C 34 %
3375 12-03-2020 10:29:17 11.5 C 34 %
Sensor: Nr:Datum:Temp:Feuchte:
Aussen-T/F 3376 12-03-2020 10:39:17 11.8 C 33 %
3377 12-03-2020 10:49:17 11.3 C 33 %
3378 12-03-2020 10:59:17 11.3 C 32 %
3379 12-03-2020 11:09:18 11.6 C 28 %
3380 12-03-2020 11:19:17 11.5 C 27 %
3381 12-03-2020 11:29:17 11.7 C 26 %
3382 12-03-2020 11:39:17 11.9 C 23 %
3383 12-03-2020 11:49:18 11.9 C 20 %
3384 12-03-2020 11:59:18 12.3 C 20 %
3385 12-03-2020 12:09:18 12.2 C 20 %
3386 12-03-2020 12:19:18 12.4 C 20 %
3387 12-03-2020 12:29:18 12.8 C 20 %
3388 12-03-2020 12:39:17 12.4 C 20 %
3389 12-03-2020 12:49:17 12.1 C 20 %
3390 12-03-2020 12:59:18 12 C 20 %
3391 12-03-2020 13:09:18 12.2 C 20 %
3392 12-03-2020 13:19:17 12.3 C 20 %
3393 12-03-2020 13:29:17 12.3 C 20 %
3394 12-03-2020 13:39:17 12.7 C 20 %
3395 12-03-2020 13:49:17 12.5 C 20 %
3396 12-03-2020 13:59:17 12.4 C 20 %
3397 12-03-2020 14:09:17 12.2 C 20 %
3398 12-03-2020 14:19:17 12.2 C 20 %
3399 12-03-2020 14:29:18 12.2 C 20 %
3400 12-03-2020 14:39:18 13.4 C 20 %
Sensor: Nr:Datum:Temp:Feuchte:
Aussen-T/F 3401 12-03-2020 14:49:17 13 C 20 %
3402 12-03-2020 14:59:17 11.8 C 20 %
3403 12-03-2020 15:09:17 11.9 C 20 %
3404 12-03-2020 15:19:17 11.8 C 20 %
3405 12-03-2020 15:29:18 11.9 C 20 %
3406 12-03-2020 15:39:18 11.8 C 20 %
3407 12-03-2020 15:49:17 11.7 C 20 %
3408 12-03-2020 15:59:18 11.6 C 20 %
3409 12-03-2020 16:09:18 11.5 C 20 %
3410 12-03-2020 16:19:18 11.7 C 20 %
3411 12-03-2020 16:29:18 11.7 C 20 %
3412 12-03-2020 16:39:18 12.4 C 20 %
3413 12-03-2020 16:49:17 11.8 C 20 %
3414 12-03-2020 16:59:17 11.5 C 20 %
3415 12-03-2020 17:09:17 11.5 C 20 %
3416 12-03-2020 17:19:17 11.5 C 20 %
3417 12-03-2020 17:29:17 11.2 C 20 %
3418 12-03-2020 17:39:18 10.9 C 20 %
3419 12-03-2020 17:49:17 11 C 20 %
3420 12-03-2020 17:59:18 10.8 C 22 %
3421 12-03-2020 18:09:18 10.3 C 25 %
3422 12-03-2020 18:19:18 9.8 C 27 %
3423 12-03-2020 18:29:18 9.3 C 30 %
3424 12-03-2020 18:39:17 8.7 C 31 %
3425 12-03-2020 18:49:17 7.9 C 33 %
Sensor: Nr:Datum:Temp:Feuchte:
Aussen-T/F 3426 12-03-2020 18:59:17 7.6 C 35 %
3427 12-03-2020 19:09:17 7.5 C 34 %
3428 12-03-2020 19:19:17 7 C 35 %
3429 12-03-2020 19:29:17 6.6 C 36 %
3430 12-03-2020 19:39:17 6.5 C 36 %
3431 12-03-2020 19:49:17 7.1 C 35 %
3432 12-03-2020 19:59:17 6.8 C 35 %
3433 12-03-2020 20:09:17 7.6 C 35 %
3434 12-03-2020 20:19:17 7.3 C 35 %
3435 12-03-2020 20:29:17 6.8 C 35 %
3436 12-03-2020 20:39:17 6.8 C 36 %
3437 12-03-2020 20:49:17 6.4 C 36 %
3438 12-03-2020 20:59:17 6.7 C 36 %
3439 12-03-2020 21:09:17 6.3 C 36 %
3440 12-03-2020 21:19:17 7.2 C 35 %
3441 12-03-2020 21:29:17 7.6 C 35 %
3442 12-03-2020 21:39:18 7.4 C 35 %
3443 12-03-2020 21:49:17 7.4 C 35 %
3444 12-03-2020 21:59:17 7.6 C 35 %
3445 12-03-2020 22:09:18 7.6 C 35 %
3446 12-03-2020 22:19:18 7.1 C 35 %
3447 12-03-2020 22:29:18 7.2 C 35 %
3448 12-03-2020 22:39:18 7.5 C 35 %
3449 12-03-2020 22:49:17 7.6 C 35 %
3450 12-03-2020 22:59:17 7.3 C 35 %
Sensor: Nr:Datum:Temp:Feuchte:
Aussen-T/F 3451 12-03-2020 23:09:17 7.2 C 35 %
3452 12-03-2020 23:19:17 7 C 35 %
3453 12-03-2020 23:29:18 6.2 C 35 %
3454 12-03-2020 23:39:18 6.7 C 34 %
3455 12-03-2020 23:49:17 6.5 C 34 %
3456 12-03-2020 23:59:17 6.4 C 32 %
3457 13-03-2020 00:09:17 6.5 C 32 %
3458 13-03-2020 00:19:17 6.5 C 32 %
3459 13-03-2020 00:29:17 6.1 C 32 %
3460 13-03-2020 00:39:17 6.2 C 32 %
3461 13-03-2020 00:49:17 6 C 32 %
3462 13-03-2020 00:59:17 5.9 C 33 %
3463 13-03-2020 01:09:17 5.4 C 33 %
3464 13-03-2020 01:19:17 5.4 C 33 %
3465 13-03-2020 01:29:17 5.1 C 34 %
3466 13-03-2020 01:39:17 5.2 C 34 %
3467 13-03-2020 01:49:17 5.2 C 33 %
3468 13-03-2020 01:59:17 5.2 C 33 %
3469 13-03-2020 02:09:17 4.8 C 35 %
3470 13-03-2020 02:19:17 5 C 34 %
3471 13-03-2020 02:29:17 5.1 C 34 %
3472 13-03-2020 02:39:18 5.1 C 34 %
3473 13-03-2020 02:49:17 5.1 C 34 %
3474 13-03-2020 02:59:17 5.1 C 34 %
3475 13-03-2020 03:09:17 5 C 34 %
Sensor: Nr:Datum:Temp:Feuchte:
Aussen-T/F 3476 13-03-2020 03:19:17 5.2 C 34 %
3477 13-03-2020 03:29:17 5.2 C 34 %
3478 13-03-2020 03:39:18 5.1 C 34 %
3479 13-03-2020 03:49:17 5.1 C 34 %
3480 13-03-2020 03:59:17 5.2 C 34 %
3481 13-03-2020 04:09:17 5 C 34 %
3482 13-03-2020 04:19:17 4.9 C 35 %
3483 13-03-2020 04:29:17 5.1 C 35 %
3484 13-03-2020 04:39:17 5.1 C 35 %
3485 13-03-2020 04:49:17 5 C 34 %
3486 13-03-2020 04:59:17 5.2 C 34 %
3487 13-03-2020 05:09:17 5.2 C 34 %
3488 13-03-2020 05:19:17 5.6 C 34 %
3489 13-03-2020 05:29:17 5.4 C 34 %
3490 13-03-2020 05:39:17 5.4 C 34 %
3491 13-03-2020 05:49:18 5.4 C 34 %
3492 13-03-2020 05:59:18 5.4 C 34 %
3493 13-03-2020 06:09:18 5.6 C 34 %
3494 13-03-2020 06:19:17 5.7 C 34 %
3495 13-03-2020 06:29:17 5.4 C 34 %
3496 13-03-2020 06:39:17 5.4 C 35 %
3497 13-03-2020 06:49:17 5.3 C 34 %
3498 13-03-2020 06:59:17 5.4 C 35 %
3499 13-03-2020 07:09:17 5.3 C 35 %
3500 13-03-2020 07:19:17 5.4 C 35 %
Sensor: Nr:Datum:Temp:Feuchte:
Aussen-T/F 3501 13-03-2020 07:29:17 5.6 C 35 %
3502 13-03-2020 07:39:17 5.7 C 35 %
3503 13-03-2020 07:49:18 5.7 C 35 %
3504 13-03-2020 07:59:18 5.7 C 35 %
3505 13-03-2020 08:09:17 5.8 C 35 %
3506 13-03-2020 08:19:17 6 C 35 %
3507 13-03-2020 08:29:17 5.9 C 35 %
3508 13-03-2020 08:39:18 6 C 35 %
3509 13-03-2020 08:49:17 6.2 C 35 %
3510 13-03-2020 08:59:17 6.4 C 34 %
3511 13-03-2020 09:09:17 6.5 C 35 %
3512 13-03-2020 09:19:17 6.9 C 34 %
3513 13-03-2020 09:29:17 7.1 C 33 %
3514 13-03-2020 09:39:18 7.1 C 33 %
3515 13-03-2020 09:49:17 6.6 C 34 %
3516 13-03-2020 09:59:17 7.1 C 33 %
3517 13-03-2020 10:09:18 7.5 C 33 %
3518 13-03-2020 10:19:17 8.5 C 32 %
3519 13-03-2020 10:29:17 8.1 C 32 %
3520 13-03-2020 10:39:18 8 C 32 %
3521 13-03-2020 10:49:17 7.6 C 33 %
3522 13-03-2020 10:59:17 7.4 C 35 %
3523 13-03-2020 11:09:17 8.9 C 33 %
3524 13-03-2020 11:19:17 9.1 C 31 %
3525 13-03-2020 11:29:17 8 C 32 %
Sensor: Nr:Datum:Temp:Feuchte:
Aussen-T/F 3526 13-03-2020 11:39:17 7.3 C 35 %
3527 13-03-2020 11:49:18 7.4 C 35 %
3528 13-03-2020 11:59:18 8.2 C 33 %
3529 13-03-2020 12:09:18 8.9 C 32 %
3530 13-03-2020 12:19:18 9.7 C 29 %
3531 13-03-2020 12:29:18 9 C 30 %
3532 13-03-2020 12:39:18 9.6 C 30 %
3533 13-03-2020 12:49:18 9 C 31 %
3534 13-03-2020 12:59:18 8.8 C 31 %
3535 13-03-2020 13:09:18 8.4 C 32 %
3536 13-03-2020 13:19:18 8.6 C 33 %
3537 13-03-2020 13:29:18 9.5 C 31 %
3538 13-03-2020 13:39:18 9.9 C 30 %
3539 13-03-2020 13:49:17 9.7 C 30 %
3540 13-03-2020 13:59:17 9.6 C 30 %
3541 13-03-2020 14:09:18 9.3 C 30 %
3542 13-03-2020 14:19:18 9.4 C 30 %
3543 13-03-2020 14:29:18 8.9 C 32 %
3544 13-03-2020 14:39:18 9.5 C 31 %
3545 13-03-2020 14:49:18 10.3 C 28 %
3546 13-03-2020 14:59:18 10.1 C 28 %
3547 13-03-2020 15:09:18 9.5 C 29 %
3548 13-03-2020 15:19:17 9.3 C 29 %
3549 13-03-2020 15:29:17 10.1 C 27 %
3550 13-03-2020 15:39:18 10.4 C 26 %
Sensor: Nr:Datum:Temp:Feuchte:
Aussen-T/F 3551 13-03-2020 15:49:18 10.4 C 26 %
3552 13-03-2020 15:59:18 10.1 C 27 %
3553 13-03-2020 16:09:18 10 C 27 %
3554 13-03-2020 16:19:17 9.8 C 27 %
3555 13-03-2020 16:29:17 9.1 C 29 %
3556 13-03-2020 16:39:17 9 C 30 %
3557 13-03-2020 16:49:17 10 C 27 %
3558 13-03-2020 16:59:17 9.3 C 30 %
3559 13-03-2020 17:09:17 9.1 C 30 %
3560 13-03-2020 17:19:18 9.1 C 30 %
3561 13-03-2020 17:29:18 9.3 C 30 %
3562 13-03-2020 17:39:17 9.4 C 29 %
3563 13-03-2020 17:49:18 9.5 C 30 %
3564 13-03-2020 17:59:18 9.1 C 31 %
3565 13-03-2020 18:09:18 8.7 C 31 %
3566 13-03-2020 18:19:17 8.6 C 31 %
3567 13-03-2020 18:29:17 8.4 C 31 %
3568 13-03-2020 18:39:17 8.2 C 31 %
3569 13-03-2020 18:49:17 8.1 C 32 %
3570 13-03-2020 18:59:17 8 C 32 %
3571 13-03-2020 19:09:17 7.8 C 33 %
3572 13-03-2020 19:19:17 7.3 C 35 %
3573 13-03-2020 19:29:17 7.3 C 35 %
3574 13-03-2020 19:39:18 7.3 C 35 %
3575 13-03-2020 19:49:17 7.3 C 35 %
Sensor: Nr:Datum:Temp:Feuchte:
Aussen-T/F 3576 13-03-2020 19:59:18 7 C 35 %
3577 13-03-2020 20:09:18 6.7 C 36 %
3578 13-03-2020 20:19:17 6.7 C 36 %
3579 13-03-2020 20:29:17 6.9 C 36 %
3580 13-03-2020 20:39:17 6.4 C 36 %
3581 13-03-2020 20:49:17 6.3 C 37 %
3582 13-03-2020 20:59:17 6.2 C 37 %
3583 13-03-2020 21:09:18 5.8 C 38 %
3584 13-03-2020 21:19:18 5.8 C 38 %
3585 13-03-2020 21:29:18 5.8 C 38 %
3586 13-03-2020 21:39:18 6.2 C 37 %
3587 13-03-2020 21:49:17 5.7 C 38 %
3588 13-03-2020 21:59:17 5.8 C 38 %
3589 13-03-2020 22:09:18 5.4 C 39 %
3590 13-03-2020 22:19:17 5.6 C 39 %
3591 13-03-2020 22:29:18 5.4 C 39 %
3592 13-03-2020 22:39:18 5.5 C 40 %
3593 13-03-2020 22:49:17 5.7 C 39 %
3594 13-03-2020 22:59:17 5.8 C 39 %
3595 13-03-2020 23:09:18 5.6 C 39 %
3596 13-03-2020 23:19:17 5.6 C 39 %
3597 13-03-2020 23:29:17 5.5 C 40 %
3598 13-03-2020 23:39:17 5.4 C 40 %
3599 13-03-2020 23:49:17 5.4 C 40 %
3600 13-03-2020 23:59:17 4.8 C 41 %
Sensor: Nr:Datum:Temp:Feuchte:
Aussen-T/F 3601 14-03-2020 00:09:17 4.8 C 41 %
3602 14-03-2020 00:19:18 4.6 C 41 %
3603 14-03-2020 00:29:18 4.4 C 41 %
3604 14-03-2020 00:39:18 3.7 C 42 %
3605 14-03-2020 00:49:17 3.5 C 44 %
3606 14-03-2020 00:59:17 3 C 43 %
3607 14-03-2020 01:09:18 2.6 C 45 %
3608 14-03-2020 01:19:17 2.4 C 46 %
3609 14-03-2020 01:29:18 2 C 45 %
3610 14-03-2020 01:39:18 2 C 46 %
3611 14-03-2020 01:49:17 2.4 C 48 %
3612 14-03-2020 01:59:18 2.8 C 49 %
3613 14-03-2020 02:09:18 3.3 C 47 %
3614 14-03-2020 02:19:18 3.6 C 46 %
3615 14-03-2020 02:29:18 3.3 C 45 %
3616 14-03-2020 02:39:18 3 C 45 %
3617 14-03-2020 02:49:18 2.8 C 45 %
3618 14-03-2020 02:59:18 2.3 C 46 %
3619 14-03-2020 03:09:18 2.2 C 46 %
3620 14-03-2020 03:19:17 1.5 C 47 %
3621 14-03-2020 03:29:17 1.3 C 47 %
3622 14-03-2020 03:39:17 1.4 C 48 %
3623 14-03-2020 03:49:18 1.5 C 48 %
3624 14-03-2020 03:59:18 1.5 C 49 %
3625 14-03-2020 04:09:17 1.7 C 49 %
Sensor: Nr:Datum:Temp:Feuchte:
Aussen-T/F 3626 14-03-2020 04:19:17 1.6 C 48 %
3627 14-03-2020 04:29:17 1.6 C 49 %
3628 14-03-2020 04:39:17 1.5 C 48 %
3629 14-03-2020 04:49:17 1.3 C 48 %
3630 14-03-2020 04:59:17 1.3 C 48 %
3631 14-03-2020 05:09:17 1.3 C 49 %
3632 14-03-2020 05:19:17 1.1 C 48 %
3633 14-03-2020 05:29:17 0.8 C 49 %
3634 14-03-2020 05:39:18 0.9 C 50 %
3635 14-03-2020 05:49:17 1.3 C 49 %
3636 14-03-2020 05:59:17 0.5 C 49 %
3637 14-03-2020 06:09:18 0.3 C 49 %
3638 14-03-2020 06:19:18 0.6 C 50 %
3639 14-03-2020 06:29:18 0.4 C 49 %
3640 14-03-2020 06:39:18 0.4 C 50 %
3641 14-03-2020 06:49:17 0.8 C 50 %
3642 14-03-2020 06:59:17 0.8 C 50 %
3643 14-03-2020 07:09:17 0.7 C 50 %
3644 14-03-2020 07:19:17 0.8 C 50 %
3645 14-03-2020 07:29:17 0.6 C 49 %
3646 14-03-2020 07:39:18 0.6 C 49 %
3647 14-03-2020 07:49:17 0.8 C 49 %
3648 14-03-2020 07:59:17 0.8 C 50 %
3649 14-03-2020 08:09:17 1 C 48 %
3650 14-03-2020 08:19:17 1.4 C 49 %
Sensor: Nr:Datum:Temp:Feuchte:
Aussen-T/F 3651 14-03-2020 08:29:17 1.7 C 49 %
3652 14-03-2020 08:39:18 1.9 C 49 %
3653 14-03-2020 08:49:17 2.2 C 48 %
3654 14-03-2020 08:59:17 2.5 C 48 %
3655 14-03-2020 09:09:17 2.8 C 48 %
3656 14-03-2020 09:19:17 3.4 C 46 %
3657 14-03-2020 09:29:17 3.7 C 45 %
3658 14-03-2020 09:39:18 4.1 C 43 %
3659 14-03-2020 09:49:17 4.5 C 43 %
3660 14-03-2020 09:59:17 5 C 41 %
3661 14-03-2020 10:09:18 5.7 C 41 %
3662 14-03-2020 10:19:18 6 C 39 %
3663 14-03-2020 10:29:18 6.8 C 40 %
3664 14-03-2020 10:39:18 7.7 C 38 %
3665 14-03-2020 10:49:17 7.7 C 37 %
3666 14-03-2020 10:59:17 8.4 C 36 %
3667 14-03-2020 11:09:18 9 C 35 %
3668 14-03-2020 11:19:18 10.4 C 34 %
3669 14-03-2020 11:29:18 11 C 31 %
3670 14-03-2020 11:39:18 10.4 C 31 %
3671 14-03-2020 11:49:17 10.1 C 32 %
3672 14-03-2020 11:59:17 11.3 C 31 %
3673 14-03-2020 12:09:18 13 C 27 %
3674 14-03-2020 12:19:17 12.4 C 27 %
3675 14-03-2020 12:29:18 12 C 27 %
Sensor: Nr:Datum:Temp:Feuchte:
Aussen-T/F 3676 14-03-2020 12:39:18 11.3 C 28 %
3677 14-03-2020 12:49:17 11.5 C 28 %
3678 14-03-2020 12:59:17 13.1 C 26 %
3679 14-03-2020 13:09:18 12.9 C 25 %
3680 14-03-2020 13:19:17 13 C 22 %
3681 14-03-2020 13:29:17 13.3 C 23 %
3682 14-03-2020 13:39:17 12.5 C 22 %
3683 14-03-2020 13:49:17 12.4 C 22 %
3684 14-03-2020 13:59:17 13.8 C 21 %
3685 14-03-2020 14:09:18 12.3 C 22 %
3686 14-03-2020 14:19:17 12.5 C 21 %
3687 14-03-2020 14:29:17 14 C 20 %
3688 14-03-2020 14:39:17 13.7 C 20 %
3689 14-03-2020 14:49:18 12.3 C 20 %
3690 14-03-2020 14:59:18 11.6 C 23 %
3691 14-03-2020 15:09:18 11.4 C 22 %
3692 14-03-2020 15:19:17 12.1 C 21 %
3693 14-03-2020 15:29:17 12.1 C 20 %
3694 14-03-2020 15:39:18 11.7 C 21 %
3695 14-03-2020 15:49:17 12 C 20 %
3696 14-03-2020 15:59:17 11.8 C 21 %
3697 14-03-2020 16:09:18 11.2 C 23 %
3698 14-03-2020 16:19:17 10.6 C 25 %
3699 14-03-2020 16:29:17 10.4 C 26 %
3700 14-03-2020 16:39:18 9.9 C 26 %
Sensor: Nr:Datum:Temp:Feuchte:
Aussen-T/F 3701 14-03-2020 16:49:18 10.1 C 26 %
3702 14-03-2020 16:59:18 9.8 C 27 %
3703 14-03-2020 17:09:18 10.3 C 26 %
3704 14-03-2020 17:19:17 10.3 C 26 %
3705 14-03-2020 17:29:17 10.7 C 26 %
3706 14-03-2020 17:39:17 9.6 C 27 %
3707 14-03-2020 17:49:17 9.3 C 28 %
3708 14-03-2020 17:59:17 8.6 C 30 %
3709 14-03-2020 18:09:17 8.1 C 31 %
3710 14-03-2020 18:19:17 7.3 C 33 %
3711 14-03-2020 18:29:17 7.1 C 33 %
3712 14-03-2020 18:39:17 6.3 C 36 %
3713 14-03-2020 18:49:17 5.9 C 37 %
3714 14-03-2020 18:59:17 5.9 C 38 %
3715 14-03-2020 19:09:17 5.3 C 38 %
3716 14-03-2020 19:19:17 5.5 C 39 %
3717 14-03-2020 19:29:17 5.1 C 39 %
3718 14-03-2020 19:39:17 5.6 C 39 %
3719 14-03-2020 19:49:17 5.2 C 39 %
3720 14-03-2020 19:59:17 5.3 C 39 %
3721 14-03-2020 20:09:18 5.3 C 39 %
3722 14-03-2020 20:19:18 5.3 C 39 %
3723 14-03-2020 20:29:18 5.3 C 39 %
3724 14-03-2020 20:39:18 5.6 C 39 %
3725 14-03-2020 20:49:17 5.5 C 39 %
Sensor: Nr:Datum:Temp:Feuchte:
Aussen-T/F 3726 14-03-2020 20:59:18 5.7 C 39 %
3727 14-03-2020 21:09:18 5.7 C 39 %
3728 14-03-2020 21:19:18 5.7 C 39 %
3729 14-03-2020 21:29:18 5.6 C 38 %
3730 14-03-2020 21:39:17 5.1 C 39 %
3731 14-03-2020 21:49:18 5.2 C 39 %
3732 14-03-2020 21:59:18 5 C 39 %
3733 14-03-2020 22:09:18 5 C 39 %
3734 14-03-2020 22:19:17 5 C 39 %
3735 14-03-2020 22:29:17 5 C 39 %
3736 14-03-2020 22:39:18 5.1 C 39 %
3737 14-03-2020 22:49:18 4.8 C 40 %
3738 14-03-2020 22:59:18 5.1 C 39 %
3739 14-03-2020 23:09:17 5.5 C 39 %
3740 14-03-2020 23:19:17 5.7 C 39 %
3741 14-03-2020 23:29:17 5.6 C 40 %
3742 14-03-2020 23:39:17 5.6 C 39 %
3743 14-03-2020 23:49:18 5.8 C 40 %
3744 14-03-2020 23:59:18 5.8 C 40 %
3745 15-03-2020 00:09:18 5.9 C 39 %
3746 15-03-2020 00:19:17 5.8 C 39 %
3747 15-03-2020 00:29:17 6.1 C 37 %
3748 15-03-2020 00:39:18 6 C 38 %
3749 15-03-2020 00:49:18 5.6 C 39 %
3750 15-03-2020 00:59:18 5.3 C 39 %
Sensor: Nr:Datum:Temp:Feuchte:
Aussen-T/F 3751 15-03-2020 01:09:17 5.1 C 40 %
3752 15-03-2020 01:19:18 5.1 C 39 %
3753 15-03-2020 01:29:18 5.5 C 39 %
3754 15-03-2020 01:39:17 5.2 C 40 %
3755 15-03-2020 01:49:17 5.2 C 40 %
3756 15-03-2020 01:59:17 5.2 C 40 %
3757 15-03-2020 02:09:17 5.1 C 40 %
3758 15-03-2020 02:19:17 5.1 C 40 %
3759 15-03-2020 02:29:17 4.8 C 40 %
3760 15-03-2020 02:39:18 4.5 C 40 %
3761 15-03-2020 02:49:17 4.9 C 40 %
3762 15-03-2020 02:59:17 5 C 40 %
3763 15-03-2020 03:09:17 4.8 C 40 %
3764 15-03-2020 03:19:17 4.2 C 40 %
3765 15-03-2020 03:29:17 4 C 40 %
3766 15-03-2020 03:39:18 4 C 40 %
3767 15-03-2020 03:49:17 3.8 C 41 %
3768 15-03-2020 03:59:17 3.7 C 42 %
3769 15-03-2020 04:09:18 3.7 C 41 %
3770 15-03-2020 04:19:18 3.9 C 41 %
3771 15-03-2020 04:29:18 3.7 C 41 %
3772 15-03-2020 04:39:18 3.8 C 41 %
3773 15-03-2020 04:49:17 3.7 C 41 %
3774 15-03-2020 04:59:18 3.5 C 41 %
3775 15-03-2020 05:09:18 3.5 C 41 %
Sensor: Nr:Datum:Temp:Feuchte:
Aussen-T/F 3776 15-03-2020 05:19:17 3.3 C 41 %
3777 15-03-2020 05:29:18 3.2 C 41 %
3778 15-03-2020 05:39:18 3 C 41 %
3779 15-03-2020 05:49:17 3.1 C 41 %
3780 15-03-2020 05:59:17 3.1 C 41 %
3781 15-03-2020 06:09:18 3.1 C 41 %
3782 15-03-2020 06:19:17 3.1 C 41 %
3783 15-03-2020 06:29:17 2.9 C 43 %
3784 15-03-2020 06:39:18 3.3 C 41 %
3785 15-03-2020 06:49:18 3.6 C 41 %
3786 15-03-2020 06:59:18 3.3 C 41 %
3787 15-03-2020 07:09:18 3 C 42 %
3788 15-03-2020 07:19:18 3.1 C 42 %
3789 15-03-2020 07:29:18 3.6 C 41 %
3790 15-03-2020 07:39:18 3.6 C 41 %
3791 15-03-2020 07:49:18 3.5 C 41 %
3792 15-03-2020 07:59:18 4 C 41 %
3793 15-03-2020 08:09:18 4.8 C 40 %
3794 15-03-2020 08:19:18 5.4 C 39 %
3795 15-03-2020 08:29:18 5.7 C 39 %
3796 15-03-2020 08:39:18 5.9 C 38 %
3797 15-03-2020 08:49:17 6.4 C 38 %
3798 15-03-2020 08:59:17 6.7 C 38 %
3799 15-03-2020 09:09:18 6.8 C 37 %
3800 15-03-2020 09:19:18 6.9 C 38 %
Sensor: Nr:Datum:Temp:Feuchte:
Aussen-T/F 3801 15-03-2020 09:29:18 7.1 C 37 %
3802 15-03-2020 09:39:18 7.8 C 36 %
3803 15-03-2020 09:49:18 9.2 C 33 %
3804 15-03-2020 09:59:18 9.9 C 32 %
3805 15-03-2020 10:09:18 9.9 C 31 %
3806 15-03-2020 10:19:18 9.8 C 32 %
3807 15-03-2020 10:29:18 10 C 32 %
3808 15-03-2020 10:39:18 10.8 C 31 %
3809 15-03-2020 10:49:17 11.8 C 29 %
3810 15-03-2020 10:59:17 12.5 C 27 %
3811 15-03-2020 11:09:17 13.4 C 25 %
3812 15-03-2020 11:19:17 14.7 C 23 %
3813 15-03-2020 11:29:17 16 C 20 %
3814 15-03-2020 11:39:18 15.5 C 20 %
3815 15-03-2020 11:49:17 14.9 C 20 %
3816 15-03-2020 11:59:18 15.2 C 20 %
3817 15-03-2020 12:09:18 14.5 C 20 %
3818 15-03-2020 12:19:18 14.1 C 20 %
3819 15-03-2020 12:29:18 14.4 C 20 %
3820 15-03-2020 12:39:18 14.7 C 20 %
3821 15-03-2020 12:49:17 15.2 C 20 %
3822 15-03-2020 12:59:17 15.4 C 20 %
3823 15-03-2020 13:09:18 14.8 C 20 %
3824 15-03-2020 13:19:17 17 C 20 %
3825 15-03-2020 13:29:17 18.6 C 20 %
Sensor: Nr:Datum:Temp:Feuchte:
Aussen-T/F 3826 15-03-2020 13:39:18 17.4 C 20 %
3827 15-03-2020 13:49:17 16.7 C 20 %
3828 15-03-2020 13:59:17 16.2 C 20 %
3829 15-03-2020 14:09:17 15.5 C 20 %
3830 15-03-2020 14:19:17 16.5 C 20 %
3831 15-03-2020 14:29:17 16.3 C 20 %
3832 15-03-2020 14:39:18 16.6 C 20 %
3833 15-03-2020 14:49:17 16.2 C 20 %
3834 15-03-2020 14:59:17 16 C 20 %
3835 15-03-2020 15:09:17 17.4 C 20 %
3836 15-03-2020 15:19:17 20.3 C 20 %
3837 15-03-2020 15:29:18 20.4 C 20 %
3838 15-03-2020 15:39:18 19.4 C 20 %
3839 15-03-2020 15:49:17 20.7 C 20 %
3840 15-03-2020 15:59:17 19.9 C 20 %
3841 15-03-2020 16:09:17 21.2 C 20 %
3842 15-03-2020 16:19:17 20.2 C 20 %
3843 15-03-2020 16:29:17 20.5 C 20 %
3844 15-03-2020 16:39:17 19.7 C 20 %
3845 15-03-2020 16:49:18 18.1 C 20 %
3846 15-03-2020 16:59:18 16.9 C 20 %
3847 15-03-2020 17:09:18 16 C 20 %
3848 15-03-2020 17:19:18 15.5 C 20 %
3849 15-03-2020 17:29:18 15.5 C 20 %
3850 15-03-2020 17:39:18 14.9 C 20 %
Sensor: Nr:Datum:Temp:Feuchte:
Aussen-T/F 3851 15-03-2020 17:49:18 13.8 C 20 %
3852 15-03-2020 17:59:18 12.6 C 23 %
3853 15-03-2020 18:09:18 12.1 C 25 %
3854 15-03-2020 18:19:18 11.7 C 26 %
3855 15-03-2020 18:29:18 11.1 C 27 %
3856 15-03-2020 18:39:18 10.6 C 28 %
3857 15-03-2020 18:49:17 10.4 C 28 %
3858 15-03-2020 18:59:17 10 C 28 %
3859 15-03-2020 19:09:18 9.6 C 30 %
3860 15-03-2020 19:19:18 9.4 C 30 %
3861 15-03-2020 19:29:18 9.2 C 31 %
3862 15-03-2020 19:39:18 9.1 C 30 %
3863 15-03-2020 19:49:17 9 C 31 %
3864 15-03-2020 19:59:17 8.9 C 31 %
3865 15-03-2020 20:09:18 8.6 C 31 %
3866 15-03-2020 20:19:17 8.5 C 32 %
3867 15-03-2020 20:29:17 8.2 C 32 %
3868 15-03-2020 20:39:18 8.2 C 32 %
3869 15-03-2020 20:49:18 8 C 32 %
3870 15-03-2020 20:59:18 7.4 C 34 %
3871 15-03-2020 21:09:18 7.1 C 35 %
3872 15-03-2020 21:19:17 7 C 35 %
3873 15-03-2020 21:29:17 7.4 C 35 %
3874 15-03-2020 21:39:17 7.5 C 35 %
3875 15-03-2020 21:49:17 7.1 C 35 %
Sensor: Nr:Datum:Temp:Feuchte:
Aussen-T/F 3876 15-03-2020 21:59:17 6.3 C 36 %
3877 15-03-2020 22:09:17 5.8 C 37 %
3878 15-03-2020 22:19:17 5.4 C 37 %
3879 15-03-2020 22:29:18 5 C 38 %
3880 15-03-2020 22:39:17 4.7 C 40 %
3881 15-03-2020 22:49:17 4.7 C 40 %
3882 15-03-2020 22:59:17 4.7 C 40 %
3883 15-03-2020 23:09:17 4.7 C 40 %
3884 15-03-2020 23:19:17 4.6 C 40 %
3885 15-03-2020 23:29:17 4.5 C 40 %
3886 15-03-2020 23:39:17 4.5 C 40 %
3887 15-03-2020 23:49:17 4.3 C 40 %
3888 15-03-2020 23:59:17 4.1 C 40 %
3889 16-03-2020 00:09:17 4 C 40 %
3890 16-03-2020 00:19:17 3.8 C 41 %
3891 16-03-2020 00:29:17 3.4 C 41 %
3892 16-03-2020 00:39:17 3.4 C 42 %
3893 16-03-2020 00:49:17 3.3 C 42 %
3894 16-03-2020 00:59:17 3.3 C 42 %
3895 16-03-2020 01:09:18 2.9 C 43 %
3896 16-03-2020 01:19:17 3 C 43 %
3897 16-03-2020 01:29:17 3 C 42 %
3898 16-03-2020 01:39:17 3.2 C 42 %
3899 16-03-2020 01:49:18 2.8 C 43 %
3900 16-03-2020 01:59:18 2.6 C 44 %
Sensor: Nr:Datum:Temp:Feuchte:
Aussen-T/F 3901 16-03-2020 02:09:17 2.7 C 45 %
3902 16-03-2020 02:19:17 2.7 C 44 %
3903 16-03-2020 02:29:17 2.4 C 44 %
3904 16-03-2020 02:39:17 2.6 C 45 %
3905 16-03-2020 02:49:17 2.8 C 45 %
3906 16-03-2020 02:59:17 2.8 C 44 %
3907 16-03-2020 03:09:18 2.2 C 44 %
3908 16-03-2020 03:19:17 2.3 C 44 %
3909 16-03-2020 03:29:17 2.2 C 45 %
3910 16-03-2020 03:39:17 1.8 C 45 %
3911 16-03-2020 03:49:18 2 C 46 %
3912 16-03-2020 03:59:18 1.8 C 46 %
3913 16-03-2020 04:09:18 1.6 C 46 %
3914 16-03-2020 04:19:18 1.7 C 46 %
3915 16-03-2020 04:29:18 2 C 46 %
3916 16-03-2020 04:39:18 1.5 C 46 %
3917 16-03-2020 04:49:17 1.7 C 46 %
3918 16-03-2020 04:59:18 1.9 C 46 %
3919 16-03-2020 05:09:18 1.7 C 46 %
3920 16-03-2020 05:19:18 1.7 C 46 %
3921 16-03-2020 05:29:18 1.4 C 46 %
3922 16-03-2020 05:39:18 1.3 C 46 %
3923 16-03-2020 05:49:17 1.2 C 46 %
3924 16-03-2020 05:59:17 1.3 C 47 %
3925 16-03-2020 06:09:18 1.1 C 47 %
Sensor: Nr:Datum:Temp:Feuchte:
Aussen-T/F 3926 16-03-2020 06:19:17 0.6 C 48 %
3927 16-03-2020 06:29:17 0.6 C 48 %
3928 16-03-2020 06:39:17 0.6 C 48 %
3929 16-03-2020 06:49:17 0.6 C 48 %
3930 16-03-2020 06:59:17 0.9 C 49 %
3931 16-03-2020 07:09:17 1.2 C 49 %
3932 16-03-2020 07:19:17 1.1 C 47 %
3933 16-03-2020 07:29:17 1 C 47 %
3934 16-03-2020 07:39:17 1.4 C 49 %
3935 16-03-2020 07:49:17 1.4 C 48 %
3936 16-03-2020 07:59:17 1.7 C 48 %
3937 16-03-2020 08:09:18 2 C 47 %
3938 16-03-2020 08:19:17 2.3 C 47 %
3939 16-03-2020 08:29:18 2.4 C 46 %
3940 16-03-2020 08:39:18 2.4 C 46 %
3941 16-03-2020 08:49:17 2.6 C 46 %
3942 16-03-2020 08:59:17 2.9 C 47 %
3943 16-03-2020 09:09:18 3.4 C 46 %
3944 16-03-2020 09:19:18 3.7 C 45 %
3945 16-03-2020 09:29:18 4 C 45 %
3946 16-03-2020 09:39:18 4.6 C 44 %
3947 16-03-2020 09:49:18 5 C 43 %
3948 16-03-2020 09:59:18 5.6 C 42 %
3949 16-03-2020 10:09:18 6.6 C 41 %
3950 16-03-2020 10:19:18 7.3 C 40 %
Sensor: Nr:Datum:Temp:Feuchte:
Aussen-T/F 3951 16-03-2020 10:29:18 8.3 C 39 %
3952 16-03-2020 10:39:17 9.3 C 38 %
3953 16-03-2020 10:49:18 10.4 C 37 %
3954 16-03-2020 10:59:18 12.4 C 34 %
3955 16-03-2020 11:09:17 13.3 C 32 %
3956 16-03-2020 11:19:17 14.3 C 30 %
3957 16-03-2020 11:29:17 15.4 C 27 %
3958 16-03-2020 11:39:18 15.7 C 26 %
3959 16-03-2020 11:49:17 15.6 C 25 %
3960 16-03-2020 11:59:17 16.1 C 25 %
3961 16-03-2020 12:09:17 16.5 C 25 %
3962 16-03-2020 12:19:17 16.8 C 25 %
3963 16-03-2020 12:29:17 16.4 C 24 %
3964 16-03-2020 12:39:17 16.9 C 24 %
3965 16-03-2020 12:49:17 18.3 C 21 %
3966 16-03-2020 12:59:17 18.7 C 20 %
3967 16-03-2020 13:09:17 22.3 C 20 %
3968 16-03-2020 13:19:17 21.2 C 20 %
3969 16-03-2020 13:29:17 21.1 C 20 %
3970 16-03-2020 13:39:17 20.6 C 20 %
3971 16-03-2020 13:49:17 21.1 C 20 %
3972 16-03-2020 13:59:17 19.7 C 20 %
3973 16-03-2020 14:09:17 18.7 C 20 %
3974 16-03-2020 14:19:17 19.7 C 20 %
3975 16-03-2020 14:29:17 19.7 C 20 %
Sensor: Nr:Datum:Temp:Feuchte:
Aussen-T/F 3976 16-03-2020 14:39:17 20 C 20 %
3977 16-03-2020 14:49:17 19.2 C 20 %
3978 16-03-2020 14:59:17 20.8 C 20 %
3979 16-03-2020 15:09:17 20 C 20 %
3980 16-03-2020 15:19:17 19.1 C 20 %
3981 16-03-2020 15:29:17 18.8 C 20 %
3982 16-03-2020 15:39:18 18.8 C 20 %
3983 16-03-2020 15:49:17 19 C 20 %
3984 16-03-2020 15:59:17 19 C 20 %
3985 16-03-2020 16:09:18 18.7 C 20 %
3986 16-03-2020 16:19:18 19 C 20 %
3987 16-03-2020 16:29:18 21.4 C 20 %
3988 16-03-2020 16:39:17 20.8 C 20 %
3989 16-03-2020 16:49:17 20.2 C 20 %
3990 16-03-2020 16:59:17 19.4 C 20 %
3991 16-03-2020 17:09:17 18.4 C 20 %
3992 16-03-2020 17:19:17 17.9 C 20 %
3993 16-03-2020 17:29:18 17.7 C 20 %
3994 16-03-2020 17:39:18 17.5 C 20 %
3995 16-03-2020 17:49:17 16.8 C 21 %
3996 16-03-2020 17:59:18 16 C 23 %
3997 16-03-2020 18:09:18 15 C 26 %
3998 16-03-2020 18:19:18 14.3 C 27 %
3999 16-03-2020 18:29:18 13.7 C 29 %
4000 16-03-2020 18:39:18 13.1 C 30 %
Sensor: Nr:Datum:Temp:Feuchte:
Aussen-T/F 4001 16-03-2020 18:49:18 12.7 C 31 %
4002 16-03-2020 18:59:18 12.4 C 32 %
4003 16-03-2020 19:09:18 12.1 C 32 %
4004 16-03-2020 19:19:18 12.2 C 32 %
4005 16-03-2020 19:29:18 12.2 C 32 %
4006 16-03-2020 19:39:18 11.9 C 34 %
4007 16-03-2020 19:49:17 11.5 C 34 %
4008 16-03-2020 19:59:18 11 C 35 %
4009 16-03-2020 20:09:18 10.7 C 36 %
4010 16-03-2020 20:19:18 11.4 C 35 %
4011 16-03-2020 20:29:18 10.8 C 36 %
4012 16-03-2020 20:39:18 10.3 C 36 %
4013 16-03-2020 20:49:18 9.5 C 38 %
4014 16-03-2020 20:59:18 10.8 C 37 %
4015 16-03-2020 21:09:18 10.1 C 37 %
4016 16-03-2020 21:19:17 10.3 C 38 %
4017 16-03-2020 21:29:17 9.9 C 38 %
4018 16-03-2020 21:39:17 9.7 C 38 %
4019 16-03-2020 21:49:18 10.2 C 37 %
4020 16-03-2020 21:59:18 9.9 C 38 %
4021 16-03-2020 22:09:18 9.7 C 38 %
4022 16-03-2020 22:19:18 9.5 C 38 %
4023 16-03-2020 22:29:18 9.5 C 39 %
4024 16-03-2020 22:39:18 9.2 C 38 %
4025 16-03-2020 22:49:18 8.9 C 39 %
Sensor: Nr:Datum:Temp:Feuchte:
Aussen-T/F 4026 16-03-2020 22:59:18 9.1 C 39 %
4027 16-03-2020 23:09:18 9.4 C 39 %
4028 16-03-2020 23:19:17 9.4 C 39 %
4029 16-03-2020 23:29:17 9.4 C 39 %
4030 16-03-2020 23:39:17 9.5 C 39 %
4031 16-03-2020 23:49:17 9.5 C 40 %
4032 16-03-2020 23:59:17 9.5 C 39 %
4033 17-03-2020 00:09:17 9.3 C 39 %
4034 17-03-2020 00:19:17 9.7 C 40 %
4035 17-03-2020 00:29:17 9.5 C 39 %
4036 17-03-2020 00:39:18 9.3 C 39 %
4037 17-03-2020 00:49:18 9.1 C 40 %
4038 17-03-2020 00:59:18 9 C 40 %
4039 17-03-2020 01:09:18 9.3 C 40 %
4040 17-03-2020 01:19:17 9.2 C 40 %
4041 17-03-2020 01:29:17 8.9 C 40 %
4042 17-03-2020 01:39:17 8.7 C 41 %
4043 17-03-2020 01:49:18 8.8 C 41 %
4044 17-03-2020 01:59:18 8.8 C 41 %
4045 17-03-2020 02:09:18 8.7 C 41 %
4046 17-03-2020 02:19:17 8.7 C 41 %
4047 17-03-2020 02:29:17 8.7 C 41 %
4048 17-03-2020 02:39:17 8.9 C 41 %
4049 17-03-2020 02:49:17 8.9 C 41 %
4050 17-03-2020 02:59:17 8.8 C 41 %
Sensor: Nr:Datum:Temp:Feuchte:
Aussen-T/F 4051 17-03-2020 03:09:18 8.6 C 41 %
4052 17-03-2020 03:19:18 8.6 C 41 %
4053 17-03-2020 03:29:18 8.4 C 41 %
4054 17-03-2020 03:39:17 8.3 C 41 %
4055 17-03-2020 03:49:18 8.1 C 42 %
4056 17-03-2020 03:59:18 8 C 41 %
4057 17-03-2020 04:09:18 8.9 C 42 %
4058 17-03-2020 04:19:18 9.2 C 40 %
4059 17-03-2020 04:29:18 9.3 C 40 %
4060 17-03-2020 04:39:17 9 C 40 %
4061 17-03-2020 04:49:18 9 C 40 %
4062 17-03-2020 04:59:18 8.6 C 41 %
4063 17-03-2020 05:09:17 8.9 C 41 %
4064 17-03-2020 05:19:17 9 C 40 %
4065 17-03-2020 05:29:17 8.6 C 41 %
4066 17-03-2020 05:39:17 8.3 C 41 %
4067 17-03-2020 05:49:17 8.2 C 41 %
4068 17-03-2020 05:59:18 8.2 C 41 %
4069 17-03-2020 06:09:18 8.1 C 41 %
4070 17-03-2020 06:19:18 8.1 C 41 %
4071 17-03-2020 06:29:18 8 C 41 %
4072 17-03-2020 06:39:18 8.2 C 41 %
4073 17-03-2020 06:49:18 8.1 C 41 %
4074 17-03-2020 06:59:18 8.2 C 41 %
4075 17-03-2020 07:09:17 8.8 C 40 %
Sensor: Nr:Datum:Temp:Feuchte:
Aussen-T/F 4076 17-03-2020 07:19:17 9 C 40 %
4077 17-03-2020 07:29:17 9.5 C 39 %
4078 17-03-2020 07:39:17 9.6 C 39 %
4079 17-03-2020 07:49:18 9.6 C 39 %
4080 17-03-2020 07:59:18 9.8 C 38 %
4081 17-03-2020 08:09:18 10.1 C 37 %
4082 17-03-2020 08:19:17 10 C 37 %
4083 17-03-2020 08:29:17 9.8 C 38 %
4084 17-03-2020 08:39:17 9.9 C 38 %
4085 17-03-2020 08:49:17 9.9 C 38 %
4086 17-03-2020 08:59:17 10 C 37 %
4087 17-03-2020 09:09:17 10.2 C 37 %
4088 17-03-2020 09:19:18 10.4 C 37 %
4089 17-03-2020 09:29:18 10.4 C 37 %
4090 17-03-2020 09:39:18 10.6 C 37 %
4091 17-03-2020 09:49:17 10.6 C 37 %
4092 17-03-2020 09:59:17 10.7 C 37 %
4093 17-03-2020 10:09:17 10.7 C 37 %
4094 17-03-2020 10:19:17 10.9 C 36 %
4095 17-03-2020 10:29:17 11 C 35 %
4096 17-03-2020 10:39:17 11.7 C 35 %
4097 17-03-2020 10:49:17 12.4 C 33 %
4098 17-03-2020 10:59:17 12.9 C 33 %
4099 17-03-2020 11:09:17 13.1 C 32 %
4100 17-03-2020 11:19:17 13.3 C 31 %
Sensor: Nr:Datum:Temp:Feuchte:
Aussen-T/F 4101 17-03-2020 11:29:17 13.3 C 31 %
4102 17-03-2020 11:39:17 14.7 C 30 %
4103 17-03-2020 11:49:17 14.1 C 29 %
4104 17-03-2020 11:59:17 15.4 C 28 %
4105 17-03-2020 12:09:17 14.5 C 29 %
4106 17-03-2020 12:19:18 14.6 C 27 %
4107 17-03-2020 12:29:18 15.2 C 26 %
4108 17-03-2020 12:39:18 16.5 C 26 %
4109 17-03-2020 12:49:18 16.6 C 24 %
4110 17-03-2020 12:59:18 19.3 C 20 %
4111 17-03-2020 13:09:17 18.8 C 20 %
4112 17-03-2020 13:19:17 20.4 C 20 %
4113 17-03-2020 13:29:17 19.5 C 20 %
4114 17-03-2020 13:39:17 18.5 C 20 %
4115 17-03-2020 13:49:18 18.8 C 20 %
4116 17-03-2020 13:59:18 19.3 C 20 %
4117 17-03-2020 14:09:17 18.3 C 20 %
4118 17-03-2020 14:19:17 18.5 C 20 %
4119 17-03-2020 14:29:17 17.9 C 20 %
4120 17-03-2020 14:39:18 17.1 C 20 %
4121 17-03-2020 14:49:18 20.5 C 20 %
4122 17-03-2020 14:59:18 22.2 C 20 %
4123 17-03-2020 15:09:17 22.5 C 20 %
4124 17-03-2020 15:19:17 22.1 C 20 %
4125 17-03-2020 15:29:17 23.8 C 20 %
Sensor: Nr:Datum:Temp:Feuchte:
Aussen-T/F 4126 17-03-2020 15:39:18 23.6 C 20 %
4127 17-03-2020 15:49:17 23.8 C 20 %
4128 17-03-2020 15:59:17 23.9 C 20 %
4129 17-03-2020 16:09:18 23.3 C 20 %
4130 17-03-2020 16:19:18 21.8 C 20 %
4131 17-03-2020 16:29:18 23.2 C 20 %
4132 17-03-2020 16:39:17 21.4 C 20 %
4133 17-03-2020 16:49:17 22.3 C 20 %
4134 17-03-2020 16:59:17 20.1 C 20 %
4135 17-03-2020 17:09:17 18.7 C 20 %
4136 17-03-2020 17:19:18 17.7 C 20 %
4137 17-03-2020 17:29:18 17.3 C 20 %
4138 17-03-2020 17:39:18 16.8 C 20 %
4139 17-03-2020 17:49:17 16.1 C 22 %
4140 17-03-2020 17:59:18 15.3 C 24 %
4141 17-03-2020 18:09:18 14.1 C 27 %
4142 17-03-2020 18:19:17 13.5 C 28 %
4143 17-03-2020 18:29:17 13.2 C 29 %
4144 17-03-2020 18:39:18 12.8 C 30 %
4145 17-03-2020 18:49:18 12.4 C 31 %
4146 17-03-2020 18:59:18 12 C 31 %
4147 17-03-2020 19:09:18 11.9 C 32 %
4148 17-03-2020 19:19:17 11.8 C 32 %
4149 17-03-2020 19:29:17 11.1 C 33 %
4150 17-03-2020 19:39:17 11 C 34 %
Sensor: Nr:Datum:Temp:Feuchte:
Aussen-T/F 4151 17-03-2020 19:49:17 10.4 C 35 %
4152 17-03-2020 19:59:17 10.2 C 35 %
4153 17-03-2020 20:09:17 9.9 C 36 %
4154 17-03-2020 20:19:17 10.1 C 36 %
4155 17-03-2020 20:29:17 10.7 C 35 %
4156 17-03-2020 20:39:18 10.4 C 35 %
4157 17-03-2020 20:49:18 9.6 C 37 %
4158 17-03-2020 20:59:18 9.5 C 37 %
4159 17-03-2020 21:09:18 9 C 37 %
4160 17-03-2020 21:19:17 8.4 C 39 %
4161 17-03-2020 21:29:17 8.4 C 39 %
4162 17-03-2020 21:39:17 8.1 C 39 %
4163 17-03-2020 21:49:18 8 C 40 %
4164 17-03-2020 21:59:18 7.6 C 40 %
4165 17-03-2020 22:09:18 7.3 C 40 %
4166 17-03-2020 22:19:18 7.2 C 41 %
4167 17-03-2020 22:29:18 7 C 41 %
4168 17-03-2020 22:39:17 6.9 C 41 %
4169 17-03-2020 22:49:17 6.7 C 42 %
4170 17-03-2020 22:59:17 6.5 C 42 %
4171 17-03-2020 23:09:17 6.4 C 42 %
4172 17-03-2020 23:19:17 6.3 C 42 %
4173 17-03-2020 23:29:17 6.1 C 42 %
4174 17-03-2020 23:39:18 6.1 C 42 %
4175 17-03-2020 23:49:18 6.2 C 43 %
Sensor: Nr:Datum:Temp:Feuchte:
Aussen-T/F 4176 17-03-2020 23:59:18 6.3 C 43 %
Sensor: Nr:Datum:Temp:Feuchte:
G-T/H 1 18-02-2020 00:07:18 11.1 C 70 %
2 18-02-2020 00:17:17 11.1 C 70 %
3 18-02-2020 00:27:17 11.1 C 70 %
4 18-02-2020 00:37:18 11.1 C 70 %
5 18-02-2020 00:47:18 11.1 C 70 %
6 18-02-2020 00:57:18 11.1 C 70 %
7 18-02-2020 01:07:18 11.1 C 70 %
8 18-02-2020 01:17:17 11.1 C 70 %
9 18-02-2020 01:27:17 11.1 C 70 %
10 18-02-2020 01:37:17 11.1 C 70 %
11 18-02-2020 01:47:17 11 C 70 %
12 18-02-2020 01:57:17 11 C 70 %
13 18-02-2020 02:07:18 11 C 70 %
14 18-02-2020 02:17:17 11 C 70 %
15 18-02-2020 02:27:17 11 C 70 %
16 18-02-2020 02:37:17 11 C 70 %
17 18-02-2020 02:47:18 11 C 70 %
18 18-02-2020 02:57:18 11 C 70 %
19 18-02-2020 03:07:18 11 C 70 %
20 18-02-2020 03:17:17 11 C 70 %
21 18-02-2020 03:27:17 10.9 C 71 %
22 18-02-2020 03:37:17 11 C 70 %
23 18-02-2020 03:47:17 10.9 C 71 %
24 18-02-2020 03:57:17 10.9 C 71 %
25 18-02-2020 04:07:17 10.9 C 71 %
Sensor: Nr:Datum:Temp:Feuchte:
G-T/H 26 18-02-2020 04:17:17 10.9 C 71 %
27 18-02-2020 04:27:17 10.8 C 71 %
28 18-02-2020 04:37:18 10.8 C 71 %
29 18-02-2020 04:47:17 10.8 C 71 %
30 18-02-2020 04:57:18 10.8 C 71 %
31 18-02-2020 05:07:18 10.8 C 71 %
32 18-02-2020 05:17:17 10.8 C 71 %
33 18-02-2020 05:27:17 10.8 C 71 %
34 18-02-2020 05:37:17 10.7 C 71 %
35 18-02-2020 05:47:18 10.7 C 70 %
36 18-02-2020 05:57:18 10.7 C 70 %
37 18-02-2020 06:07:18 10.7 C 70 %
38 18-02-2020 06:17:17 10.7 C 70 %
39 18-02-2020 06:27:17 10.7 C 70 %
40 18-02-2020 06:37:18 10.7 C 70 %
41 18-02-2020 06:47:17 10.7 C 70 %
42 18-02-2020 06:57:17 10.6 C 70 %
43 18-02-2020 07:07:18 10.7 C 70 %
44 18-02-2020 07:17:18 10.6 C 70 %
45 18-02-2020 07:27:18 10.6 C 70 %
46 18-02-2020 07:37:17 10.5 C 70 %
47 18-02-2020 07:47:17 10.6 C 70 %
48 18-02-2020 07:57:17 10.6 C 70 %
49 18-02-2020 08:07:17 10.5 C 70 %
50 18-02-2020 08:17:17 10.5 C 70 %
Sensor: Nr:Datum:Temp:Feuchte:
G-T/H 51 18-02-2020 08:27:17 10.5 C 70 %
52 18-02-2020 08:37:18 10.5 C 70 %
53 18-02-2020 08:47:18 10.5 C 70 %
54 18-02-2020 08:57:18 10.5 C 70 %
55 18-02-2020 09:07:18 10.5 C 70 %
56 18-02-2020 09:17:18 10.5 C 70 %
57 18-02-2020 09:27:18 10.5 C 70 %
58 18-02-2020 09:37:17 10.4 C 70 %
59 18-02-2020 09:47:17 10.5 C 70 %
60 18-02-2020 09:57:17 10.4 C 70 %
61 18-02-2020 10:07:17 10.4 C 70 %
62 18-02-2020 10:17:18 10.4 C 70 %
63 18-02-2020 10:27:18 10.4 C 70 %
64 18-02-2020 10:37:17 10.4 C 70 %
65 18-02-2020 10:47:18 10.4 C 70 %
66 18-02-2020 10:57:18 10.4 C 70 %
67 18-02-2020 11:07:17 10.4 C 70 %
68 18-02-2020 11:17:17 10.4 C 70 %
69 18-02-2020 11:27:17 10.4 C 70 %
70 18-02-2020 11:37:17 10.4 C 70 %
71 18-02-2020 11:47:17 10.4 C 70 %
72 18-02-2020 11:57:17 10.3 C 70 %
73 18-02-2020 12:07:17 10.3 C 70 %
74 18-02-2020 12:17:18 10.2 C 69 %
75 18-02-2020 12:27:18 10.2 C 68 %
Sensor: Nr:Datum:Temp:Feuchte:
G-T/H 76 18-02-2020 12:37:17 10.1 C 66 %
77 18-02-2020 12:47:17 10.1 C 65 %
78 18-02-2020 12:57:17 10.1 C 65 %
79 18-02-2020 13:07:17 10.1 C 64 %
80 18-02-2020 13:17:17 10.1 C 64 %
81 18-02-2020 13:27:17 10.1 C 63 %
82 18-02-2020 13:37:18 10.1 C 63 %
83 18-02-2020 13:47:17 10.1 C 62 %
84 18-02-2020 13:57:17 10.1 C 62 %
85 18-02-2020 14:07:18 10.1 C 62 %
86 18-02-2020 14:17:17 10 C 62 %
87 18-02-2020 14:27:17 10.1 C 62 %
88 18-02-2020 14:37:17 10 C 62 %
89 18-02-2020 14:47:17 10 C 61 %
90 18-02-2020 14:57:17 10 C 61 %
91 18-02-2020 15:07:17 10 C 61 %
92 18-02-2020 15:17:17 10 C 61 %
93 18-02-2020 15:27:17 10 C 61 %
94 18-02-2020 15:37:18 10 C 61 %
95 18-02-2020 15:47:18 10 C 61 %
96 18-02-2020 15:57:18 10 C 61 %
97 18-02-2020 16:07:18 10 C 60 %
98 18-02-2020 16:17:18 10 C 60 %
99 18-02-2020 16:27:18 10 C 60 %
100 18-02-2020 16:37:17 10 C 60 %
Sensor: Nr:Datum:Temp:Feuchte:
G-T/H 101 18-02-2020 16:47:17 10 C 60 %
102 18-02-2020 16:57:17 10 C 60 %
103 18-02-2020 17:07:17 10.1 C 61 %
104 18-02-2020 17:17:18 10.1 C 61 %
105 18-02-2020 17:27:18 10.1 C 62 %
106 18-02-2020 17:37:18 10.1 C 62 %
107 18-02-2020 17:47:17 10.1 C 63 %
108 18-02-2020 17:57:18 10.1 C 63 %
109 18-02-2020 18:07:18 10.2 C 64 %
110 18-02-2020 18:17:18 10.2 C 64 %
111 18-02-2020 18:27:18 10.2 C 64 %
112 18-02-2020 18:37:17 10.2 C 65 %
113 18-02-2020 18:47:18 10.2 C 65 %
114 18-02-2020 18:57:18 10.2 C 65 %
115 18-02-2020 19:07:18 10.2 C 65 %
116 18-02-2020 19:17:17 10.2 C 66 %
117 18-02-2020 19:27:17 10.2 C 66 %
118 18-02-2020 19:37:17 10.2 C 66 %
119 18-02-2020 19:47:17 10.2 C 66 %
120 18-02-2020 19:57:17 10.2 C 66 %
121 18-02-2020 20:07:18 10.2 C 66 %
122 18-02-2020 20:17:18 10.2 C 67 %
123 18-02-2020 20:27:18 10.2 C 67 %
124 18-02-2020 20:37:17 10.2 C 67 %
125 18-02-2020 20:47:17 10.2 C 67 %
Sensor: Nr:Datum:Temp:Feuchte:
G-T/H 126 18-02-2020 20:57:17 10.2 C 67 %
127 18-02-2020 21:07:17 10.2 C 67 %
128 18-02-2020 21:17:17 10.2 C 67 %
129 18-02-2020 21:27:17 10.2 C 67 %
130 18-02-2020 21:37:17 10.2 C 68 %
131 18-02-2020 21:47:17 10.2 C 68 %
132 18-02-2020 21:57:17 10.2 C 68 %
133 18-02-2020 22:07:17 10.2 C 68 %
134 18-02-2020 22:17:17 10.2 C 68 %
135 18-02-2020 22:27:17 10.2 C 68 %
136 18-02-2020 22:37:17 10.2 C 68 %
137 18-02-2020 22:47:17 10.2 C 68 %
138 18-02-2020 22:57:17 10.2 C 68 %
139 18-02-2020 23:07:18 10.2 C 68 %
140 18-02-2020 23:17:17 10.2 C 68 %
141 18-02-2020 23:27:17 10.2 C 68 %
142 18-02-2020 23:37:18 10.2 C 68 %
143 18-02-2020 23:47:17 10.2 C 68 %
144 18-02-2020 23:57:17 10.2 C 68 %
145 19-02-2020 00:07:18 10.2 C 68 %
146 19-02-2020 00:17:17 10.2 C 68 %
147 19-02-2020 00:27:17 10.2 C 69 %
148 19-02-2020 00:37:17 10.2 C 69 %
149 19-02-2020 00:47:17 10.2 C 69 %
150 19-02-2020 00:57:17 10.2 C 69 %
Sensor: Nr:Datum:Temp:Feuchte:
G-T/H 151 19-02-2020 01:07:17 10.1 C 69 %
152 19-02-2020 01:17:17 10.1 C 69 %
153 19-02-2020 01:27:17 10.1 C 69 %
154 19-02-2020 01:37:17 10.1 C 69 %
155 19-02-2020 01:47:17 10.2 C 69 %
156 19-02-2020 01:57:17 10.1 C 69 %
157 19-02-2020 02:07:18 10.1 C 69 %
158 19-02-2020 02:17:17 10.1 C 69 %
159 19-02-2020 02:27:17 10.1 C 69 %
160 19-02-2020 02:37:17 10.1 C 69 %
161 19-02-2020 02:47:18 10.1 C 69 %
162 19-02-2020 02:57:18 10.1 C 69 %
163 19-02-2020 03:07:17 10.1 C 69 %
164 19-02-2020 03:17:17 10.1 C 69 %
165 19-02-2020 03:27:17 10.1 C 69 %
166 19-02-2020 03:37:17 10.1 C 69 %
167 19-02-2020 03:47:17 10.1 C 69 %
168 19-02-2020 03:57:17 10.1 C 69 %
169 19-02-2020 04:07:18 10.1 C 69 %
170 19-02-2020 04:17:17 10.1 C 69 %
171 19-02-2020 04:27:18 10.1 C 69 %
172 19-02-2020 04:37:18 10.1 C 69 %
173 19-02-2020 04:47:17 10.1 C 69 %
174 19-02-2020 04:57:17 10.1 C 69 %
175 19-02-2020 05:07:18 10.1 C 69 %
Sensor: Nr:Datum:Temp:Feuchte:
G-T/H 176 19-02-2020 05:17:17 10.1 C 69 %
177 19-02-2020 05:27:17 10.1 C 69 %
178 19-02-2020 05:37:17 10 C 69 %
179 19-02-2020 05:47:17 10.1 C 69 %
180 19-02-2020 05:57:17 10 C 69 %
181 19-02-2020 06:07:18 10.1 C 69 %
182 19-02-2020 06:17:17 10 C 69 %
183 19-02-2020 06:27:17 10.1 C 69 %
184 19-02-2020 06:37:18 10 C 69 %
185 19-02-2020 06:47:17 10 C 69 %
186 19-02-2020 06:57:17 10 C 70 %
187 19-02-2020 07:07:17 10 C 69 %
188 19-02-2020 07:17:17 10 C 69 %
189 19-02-2020 07:27:18 10 C 69 %
190 19-02-2020 07:37:18 10 C 69 %
191 19-02-2020 07:47:18 10 C 70 %
192 19-02-2020 07:57:18 10 C 70 %
193 19-02-2020 08:07:18 10 C 69 %
194 19-02-2020 08:17:17 10 C 69 %
195 19-02-2020 08:27:17 10 C 69 %
196 19-02-2020 08:37:17 10 C 69 %
197 19-02-2020 08:47:17 10 C 69 %
198 19-02-2020 08:57:17 10 C 69 %
199 19-02-2020 09:07:17 10 C 69 %
200 19-02-2020 09:17:18 10 C 69 %
Sensor: Nr:Datum:Temp:Feuchte:
G-T/H 201 19-02-2020 09:27:18 10 C 69 %
202 19-02-2020 09:37:18 10 C 69 %
203 19-02-2020 09:47:17 10 C 69 %
204 19-02-2020 09:57:17 10 C 69 %
205 19-02-2020 10:07:18 10 C 69 %
206 19-02-2020 10:17:17 9.9 C 71 %
207 19-02-2020 10:27:17 9.9 C 71 %
208 19-02-2020 10:37:17 9.9 C 71 %
209 19-02-2020 10:47:17 9.9 C 71 %
210 19-02-2020 10:57:17 9.9 C 71 %
211 19-02-2020 11:07:18 10 C 70 %
212 19-02-2020 11:17:17 9.9 C 71 %
213 19-02-2020 11:27:17 9.9 C 71 %
214 19-02-2020 11:37:17 9.9 C 71 %
215 19-02-2020 11:47:18 9.9 C 71 %
216 19-02-2020 11:57:18 9.9 C 71 %
217 19-02-2020 12:07:18 9.9 C 71 %
218 19-02-2020 12:17:17 9.9 C 71 %
219 19-02-2020 12:27:18 9.9 C 71 %
220 19-02-2020 12:37:18 9.9 C 71 %
221 19-02-2020 12:47:18 9.9 C 71 %
222 19-02-2020 12:57:18 9.9 C 71 %
223 19-02-2020 13:07:17 9.9 C 71 %
224 19-02-2020 13:17:17 9.9 C 71 %
225 19-02-2020 13:27:17 9.9 C 70 %
Sensor: Nr:Datum:Temp:Feuchte:
G-T/H 226 19-02-2020 13:37:18 9.9 C 70 %
227 19-02-2020 13:47:18 9.9 C 70 %
228 19-02-2020 13:57:18 9.9 C 70 %
229 19-02-2020 14:07:17 9.9 C 70 %
230 19-02-2020 14:17:17 9.9 C 70 %
231 19-02-2020 14:27:17 9.9 C 70 %
232 19-02-2020 14:37:17 10 C 69 %
233 19-02-2020 14:47:18 10 C 69 %
234 19-02-2020 14:57:18 9.9 C 70 %
235 19-02-2020 15:07:17 9.9 C 70 %
236 19-02-2020 15:17:17 10 C 69 %
237 19-02-2020 15:27:17 10 C 69 %
238 19-02-2020 15:37:17 9.9 C 71 %
239 19-02-2020 15:47:17 9.9 C 71 %
240 19-02-2020 15:57:17 9.9 C 71 %
241 19-02-2020 16:07:17 9.9 C 71 %
242 19-02-2020 16:17:17 9.9 C 71 %
243 19-02-2020 16:27:17 10 C 70 %
244 19-02-2020 16:37:18 10 C 70 %
245 19-02-2020 16:47:18 10 C 70 %
246 19-02-2020 16:57:18 10 C 70 %
247 19-02-2020 17:07:18 10 C 70 %
248 19-02-2020 17:17:18 10 C 70 %
249 19-02-2020 17:27:18 9.9 C 71 %
250 19-02-2020 17:37:17 10 C 70 %
Sensor: Nr:Datum:Temp:Feuchte:
G-T/H 251 19-02-2020 17:47:18 10 C 70 %
252 19-02-2020 17:57:18 10 C 70 %
253 19-02-2020 18:07:17 10 C 70 %
254 19-02-2020 18:17:17 9.9 C 71 %
255 19-02-2020 18:27:17 9.7 C 69 %
256 19-02-2020 18:37:17 9.6 C 67 %
257 19-02-2020 18:47:17 9.7 C 67 %
258 19-02-2020 18:57:17 9.8 C 68 %
259 19-02-2020 19:07:17 9.8 C 68 %
260 19-02-2020 19:17:17 9.8 C 68 %
261 19-02-2020 19:27:17 9.8 C 68 %
262 19-02-2020 19:37:17 9.8 C 68 %
263 19-02-2020 19:47:17 9.8 C 68 %
264 19-02-2020 19:57:17 9.8 C 68 %
265 19-02-2020 20:07:17 9.8 C 69 %
266 19-02-2020 20:17:17 9.8 C 69 %
267 19-02-2020 20:27:17 9.8 C 69 %
268 19-02-2020 20:37:17 9.8 C 69 %
269 19-02-2020 20:47:17 9.8 C 69 %
270 19-02-2020 20:57:17 9.8 C 69 %
271 19-02-2020 21:07:18 9.8 C 69 %
272 19-02-2020 21:17:17 9.8 C 69 %
273 19-02-2020 21:27:17 9.8 C 69 %
274 19-02-2020 21:37:17 9.8 C 69 %
275 19-02-2020 21:47:17 9.7 C 69 %
Sensor: Nr:Datum:Temp:Feuchte:
G-T/H 276 19-02-2020 21:57:17 9.7 C 69 %
277 19-02-2020 22:07:17 9.7 C 69 %
278 19-02-2020 22:17:18 9.7 C 69 %
279 19-02-2020 22:27:18 9.7 C 69 %
280 19-02-2020 22:37:18 9.7 C 69 %
281 19-02-2020 22:47:17 9.7 C 69 %
282 19-02-2020 22:57:18 9.7 C 69 %
283 19-02-2020 23:07:18 9.7 C 70 %
284 19-02-2020 23:17:17 9.7 C 70 %
285 19-02-2020 23:27:17 9.7 C 70 %
286 19-02-2020 23:37:17 9.7 C 70 %
287 19-02-2020 23:47:17 9.6 C 70 %
288 19-02-2020 23:57:17 9.6 C 70 %
289 20-02-2020 00:07:17 9.7 C 70 %
290 20-02-2020 00:17:17 9.7 C 70 %
291 20-02-2020 00:27:18 9.7 C 70 %
292 20-02-2020 00:37:18 9.6 C 70 %
293 20-02-2020 00:47:17 9.6 C 70 %
294 20-02-2020 00:57:17 9.6 C 70 %
295 20-02-2020 01:07:17 9.6 C 70 %
296 20-02-2020 01:17:17 9.6 C 70 %
297 20-02-2020 01:27:18 9.6 C 70 %
298 20-02-2020 01:37:18 9.6 C 70 %
299 20-02-2020 01:47:17 9.6 C 70 %
300 20-02-2020 01:57:17 9.6 C 70 %
Sensor: Nr:Datum:Temp:Feuchte:
G-T/H 301 20-02-2020 02:07:18 9.6 C 70 %
302 20-02-2020 02:17:17 9.6 C 70 %
303 20-02-2020 02:27:17 9.6 C 70 %
304 20-02-2020 02:37:17 9.6 C 71 %
305 20-02-2020 02:47:17 9.6 C 71 %
306 20-02-2020 02:57:17 9.6 C 71 %
307 20-02-2020 03:07:17 9.6 C 71 %
308 20-02-2020 03:17:17 9.6 C 71 %
309 20-02-2020 03:27:17 9.6 C 71 %
310 20-02-2020 03:37:18 9.6 C 71 %
311 20-02-2020 03:47:17 9.6 C 71 %
312 20-02-2020 03:57:17 9.6 C 71 %
313 20-02-2020 04:07:18 9.5 C 71 %
314 20-02-2020 04:17:17 9.5 C 71 %
315 20-02-2020 04:27:17 9.5 C 71 %
316 20-02-2020 04:37:17 9.5 C 71 %
317 20-02-2020 04:47:18 9.5 C 71 %
318 20-02-2020 04:57:18 9.5 C 71 %
319 20-02-2020 05:07:18 9.5 C 71 %
320 20-02-2020 05:17:17 9.5 C 71 %
321 20-02-2020 05:27:17 9.5 C 71 %
322 20-02-2020 05:37:17 9.5 C 71 %
323 20-02-2020 05:47:17 9.5 C 71 %
324 20-02-2020 05:57:17 9.5 C 71 %
325 20-02-2020 06:07:17 9.5 C 71 %
Sensor: Nr:Datum:Temp:Feuchte:
G-T/H 326 20-02-2020 06:17:17 9.5 C 71 %
327 20-02-2020 06:27:17 9.5 C 71 %
328 20-02-2020 06:37:17 9.5 C 71 %
329 20-02-2020 06:47:17 9.5 C 71 %
330 20-02-2020 06:57:17 9.5 C 71 %
331 20-02-2020 07:07:17 9.5 C 71 %
332 20-02-2020 07:17:17 9.5 C 71 %
333 20-02-2020 07:27:17 9.5 C 71 %
334 20-02-2020 07:37:17 9.5 C 71 %
335 20-02-2020 07:47:17 9.5 C 71 %
336 20-02-2020 07:57:17 9.5 C 72 %
337 20-02-2020 08:07:17 9.5 C 72 %
338 20-02-2020 08:17:17 9.5 C 72 %
339 20-02-2020 08:27:17 9.5 C 72 %
340 20-02-2020 08:37:17 9.5 C 72 %
341 20-02-2020 08:47:18 9.5 C 72 %
342 20-02-2020 08:57:18 9.5 C 72 %
343 20-02-2020 09:07:18 9.5 C 72 %
344 20-02-2020 09:17:18 9.5 C 72 %
345 20-02-2020 09:27:18 9.5 C 72 %
346 20-02-2020 09:37:17 9.5 C 72 %
347 20-02-2020 09:47:17 9.5 C 72 %
348 20-02-2020 09:57:17 9.5 C 72 %
349 20-02-2020 10:07:18 9.5 C 72 %
350 20-02-2020 10:17:17 9.5 C 72 %
Sensor: Nr:Datum:Temp:Feuchte:
G-T/H 351 20-02-2020 10:27:17 9.6 C 72 %
352 20-02-2020 10:37:17 9.6 C 72 %
353 20-02-2020 10:47:17 9.5 C 72 %
354 20-02-2020 10:57:17 9.6 C 72 %
355 20-02-2020 11:07:18 9.6 C 72 %
356 20-02-2020 11:17:18 9.6 C 72 %
357 20-02-2020 11:27:18 9.6 C 72 %
358 20-02-2020 11:37:18 9.6 C 72 %
359 20-02-2020 11:47:17 9.6 C 72 %
360 20-02-2020 11:57:18 9.6 C 72 %
361 20-02-2020 12:07:18 9.6 C 72 %
362 20-02-2020 12:17:18 9.6 C 72 %
363 20-02-2020 12:27:18 9.6 C 72 %
364 20-02-2020 12:37:18 9.6 C 72 %
365 20-02-2020 12:47:18 9.6 C 72 %
366 20-02-2020 12:57:18 9.6 C 72 %
367 20-02-2020 13:07:18 9.7 C 72 %
368 20-02-2020 13:17:18 9.7 C 72 %
369 20-02-2020 13:27:18 9.7 C 72 %
370 20-02-2020 13:37:18 9.7 C 72 %
371 20-02-2020 13:47:17 9.7 C 72 %
372 20-02-2020 13:57:17 9.7 C 72 %
373 20-02-2020 14:07:17 9.7 C 72 %
374 20-02-2020 14:17:17 9.7 C 72 %
375 20-02-2020 14:27:18 9.8 C 72 %
Sensor: Nr:Datum:Temp:Feuchte:
G-T/H 376 20-02-2020 14:37:18 9.7 C 72 %
377 20-02-2020 14:47:17 9.7 C 73 %
378 20-02-2020 14:57:17 9.8 C 73 %
379 20-02-2020 15:07:18 9.8 C 73 %
380 20-02-2020 15:17:17 9.8 C 73 %
381 20-02-2020 15:27:18 9.8 C 73 %
382 20-02-2020 15:37:18 9.8 C 73 %
383 20-02-2020 15:47:17 9.8 C 73 %
384 20-02-2020 15:57:17 9.8 C 73 %
385 20-02-2020 16:07:17 9.8 C 73 %
386 20-02-2020 16:17:17 9.9 C 73 %
387 20-02-2020 16:27:18 9.9 C 73 %
388 20-02-2020 16:37:18 9.8 C 73 %
389 20-02-2020 16:47:17 9.9 C 73 %
390 20-02-2020 16:57:17 9.9 C 73 %
391 20-02-2020 17:07:18 9.9 C 73 %
392 20-02-2020 17:17:17 9.9 C 73 %
393 20-02-2020 17:27:18 10 C 72 %
394 20-02-2020 17:37:18 9.9 C 73 %
395 20-02-2020 17:47:17 10 C 72 %
396 20-02-2020 17:57:17 10 C 72 %
397 20-02-2020 18:07:18 10 C 72 %
398 20-02-2020 18:17:18 10 C 72 %
399 20-02-2020 18:27:18 10 C 72 %
400 20-02-2020 18:37:18 10 C 72 %
Sensor: Nr:Datum:Temp:Feuchte:
G-T/H 401 20-02-2020 18:47:18 10 C 72 %
402 20-02-2020 18:57:18 10 C 72 %
403 20-02-2020 19:07:18 10 C 72 %
404 20-02-2020 19:17:18 10 C 72 %
405 20-02-2020 19:27:18 10 C 72 %
406 20-02-2020 19:37:17 10 C 72 %
407 20-02-2020 19:47:18 10 C 72 %
408 20-02-2020 19:57:18 10 C 72 %
409 20-02-2020 20:07:18 10.1 C 72 %
410 20-02-2020 20:17:18 10 C 72 %
411 20-02-2020 20:27:18 10.1 C 72 %
412 20-02-2020 20:37:18 10.1 C 72 %
413 20-02-2020 20:47:18 10.1 C 72 %
414 20-02-2020 20:57:18 10.1 C 72 %
415 20-02-2020 21:07:18 10.1 C 72 %
416 20-02-2020 21:17:18 10.1 C 72 %
417 20-02-2020 21:27:18 10.1 C 72 %
418 20-02-2020 21:37:18 10.1 C 72 %
419 20-02-2020 21:47:17 10.1 C 72 %
420 20-02-2020 21:57:18 10.1 C 72 %
421 20-02-2020 22:07:18 10.1 C 72 %
422 20-02-2020 22:17:17 10.1 C 72 %
423 20-02-2020 22:27:18 10.1 C 72 %
424 20-02-2020 22:37:18 10.1 C 72 %
425 20-02-2020 22:47:18 10.1 C 72 %
Sensor: Nr:Datum:Temp:Feuchte:
G-T/H 426 20-02-2020 22:57:18 10.1 C 72 %
427 20-02-2020 23:07:18 10.1 C 72 %
428 20-02-2020 23:17:18 10.1 C 72 %
429 20-02-2020 23:27:18 10.1 C 72 %
430 20-02-2020 23:37:17 10.1 C 72 %
431 20-02-2020 23:47:17 10.1 C 72 %
432 20-02-2020 23:57:17 10.1 C 72 %
433 21-02-2020 00:07:17 10.1 C 72 %
434 21-02-2020 00:17:18 10.1 C 72 %
435 21-02-2020 00:27:18 10.1 C 72 %
436 21-02-2020 00:37:18 10.1 C 72 %
437 21-02-2020 00:47:18 10.1 C 72 %
438 21-02-2020 00:57:18 10.1 C 72 %
439 21-02-2020 01:07:18 10.1 C 72 %
440 21-02-2020 01:17:17 10.1 C 72 %
441 21-02-2020 01:27:17 10.1 C 72 %
442 21-02-2020 01:37:17 10.1 C 71 %
443 21-02-2020 01:47:17 10 C 71 %
444 21-02-2020 01:57:17 10.1 C 71 %
445 21-02-2020 02:07:18 10.1 C 71 %
446 21-02-2020 02:17:18 10.1 C 71 %
447 21-02-2020 02:27:18 10.1 C 71 %
448 21-02-2020 02:37:18 10 C 71 %
449 21-02-2020 02:47:17 10 C 71 %
450 21-02-2020 02:57:18 10 C 71 %
Sensor: Nr:Datum:Temp:Feuchte:
G-T/H 451 21-02-2020 03:07:18 10 C 71 %
452 21-02-2020 03:17:18 10 C 71 %
453 21-02-2020 03:27:18 10 C 71 %
454 21-02-2020 03:37:18 10 C 71 %
455 21-02-2020 03:47:17 10 C 71 %
456 21-02-2020 03:57:17 10 C 71 %
457 21-02-2020 04:07:18 9.9 C 72 %
458 21-02-2020 04:17:18 9.9 C 72 %
459 21-02-2020 04:27:18 9.9 C 72 %
460 21-02-2020 04:37:18 9.9 C 71 %
461 21-02-2020 04:47:17 9.9 C 71 %
462 21-02-2020 04:57:17 9.9 C 71 %
463 21-02-2020 05:07:17 9.8 C 71 %
464 21-02-2020 05:17:17 9.8 C 71 %
465 21-02-2020 05:27:17 9.8 C 71 %
466 21-02-2020 05:37:17 9.8 C 71 %
467 21-02-2020 05:47:17 9.8 C 71 %
468 21-02-2020 05:57:17 9.8 C 71 %
469 21-02-2020 06:07:17 9.8 C 71 %
470 21-02-2020 06:17:17 9.7 C 71 %
471 21-02-2020 06:27:17 9.7 C 71 %
472 21-02-2020 06:37:18 9.7 C 71 %
473 21-02-2020 06:47:17 9.7 C 71 %
474 21-02-2020 06:57:17 9.7 C 71 %
475 21-02-2020 07:07:17 9.7 C 71 %
Sensor: Nr:Datum:Temp:Feuchte:
G-T/H 476 21-02-2020 07:17:18 9.6 C 71 %
477 21-02-2020 07:27:18 9.6 C 71 %
478 21-02-2020 07:37:18 9.6 C 71 %
479 21-02-2020 07:47:17 9.6 C 71 %
480 21-02-2020 07:57:17 9.6 C 71 %
481 21-02-2020 08:07:17 9.6 C 71 %
482 21-02-2020 08:17:17 9.5 C 71 %
483 21-02-2020 08:27:17 9.5 C 71 %
484 21-02-2020 08:37:17 9.5 C 71 %
485 21-02-2020 08:47:17 9.5 C 71 %
486 21-02-2020 08:57:17 9.5 C 71 %
487 21-02-2020 09:07:17 9.5 C 71 %
488 21-02-2020 09:17:17 9.5 C 71 %
489 21-02-2020 09:27:17 9.5 C 71 %
490 21-02-2020 09:37:17 9.4 C 71 %
491 21-02-2020 09:47:17 9.4 C 71 %
492 21-02-2020 09:57:17 9.4 C 71 %
493 21-02-2020 10:07:17 9.4 C 71 %
494 21-02-2020 10:17:17 9.3 C 71 %
495 21-02-2020 10:27:17 9.3 C 71 %
496 21-02-2020 10:37:18 9.3 C 71 %
497 21-02-2020 10:47:17 9.3 C 71 %
498 21-02-2020 10:57:17 9.3 C 71 %
499 21-02-2020 11:07:18 9.3 C 71 %
500 21-02-2020 11:17:17 9.3 C 71 %
Sensor: Nr:Datum:Temp:Feuchte:
G-T/H 501 21-02-2020 11:27:17 9.3 C 71 %
502 21-02-2020 11:37:18 9.3 C 71 %
503 21-02-2020 11:47:17 9.3 C 71 %
504 21-02-2020 11:57:17 9.3 C 71 %
505 21-02-2020 12:07:18 9.3 C 71 %